<?xml version="1.0" encoding="UTF-8" standalone="no" ?>
<gpx xmlns="http://www.topografix.com/GPX/1/1" xmlns:xsi="http://www.w3.org/2001/XMLSchema-instance" xsi:schemaLocation="http://www.topografix.com/GPX/1/1 http://www.topografix.com/GPX/1/1/gpx.xsd" version="1.1" creator="VisuGPX - https://www.visugpx.com">
  <metadata>
    <name>HOMME CAIRN CLAPET</name>
  </metadata>
  <trk>
    <name><![CDATA[HOMME CAIRN CLAPET]]></name>
    <trkseg>
      <trkpt lat="45.636" lon="6.80065">
        <ele>1411.61</ele>
        <time>2018-12-23T07:49:58Z</time>
      </trkpt>
      <trkpt lat="45.636" lon="6.80065">
        <ele>1411.61</ele>
        <time>2018-12-23T07:49:59Z</time>
      </trkpt>
      <trkpt lat="45.636" lon="6.80066">
        <ele>1408.48</ele>
        <time>2018-12-23T07:50:07Z</time>
      </trkpt>
      <trkpt lat="45.63602" lon="6.80066">
        <ele>1406.87</ele>
        <time>2018-12-23T07:50:28Z</time>
      </trkpt>
      <trkpt lat="45.63607" lon="6.80063">
        <ele>1407.15</ele>
        <time>2018-12-23T07:50:46Z</time>
      </trkpt>
      <trkpt lat="45.63621" lon="6.80065">
        <ele>1409.66</ele>
        <time>2018-12-23T07:51:03Z</time>
      </trkpt>
      <trkpt lat="45.6363" lon="6.80076">
        <ele>1412.73</ele>
        <time>2018-12-23T07:51:18Z</time>
      </trkpt>
      <trkpt lat="45.63639" lon="6.8009">
        <ele>1414.76</ele>
        <time>2018-12-23T07:51:33Z</time>
      </trkpt>
      <trkpt lat="45.63642" lon="6.80095">
        <ele>1415.69</ele>
        <time>2018-12-23T07:51:38Z</time>
      </trkpt>
      <trkpt lat="45.63648" lon="6.80108">
        <ele>1417.22</ele>
        <time>2018-12-23T07:51:49Z</time>
      </trkpt>
      <trkpt lat="45.6365" lon="6.80115">
        <ele>1417.83</ele>
        <time>2018-12-23T07:51:55Z</time>
      </trkpt>
      <trkpt lat="45.63654" lon="6.80129">
        <ele>1419.32</ele>
        <time>2018-12-23T07:52:07Z</time>
      </trkpt>
      <trkpt lat="45.63658" lon="6.80143">
        <ele>1421.24</ele>
        <time>2018-12-23T07:52:20Z</time>
      </trkpt>
      <trkpt lat="45.63662" lon="6.80156">
        <ele>1423.73</ele>
        <time>2018-12-23T07:52:33Z</time>
      </trkpt>
      <trkpt lat="45.63667" lon="6.80171">
        <ele>1425.93</ele>
        <time>2018-12-23T07:52:47Z</time>
      </trkpt>
      <trkpt lat="45.63672" lon="6.80185">
        <ele>1428.64</ele>
        <time>2018-12-23T07:53:03Z</time>
      </trkpt>
      <trkpt lat="45.63678" lon="6.80199">
        <ele>1430.87</ele>
        <time>2018-12-23T07:53:18Z</time>
      </trkpt>
      <trkpt lat="45.63684" lon="6.80213">
        <ele>1432.97</ele>
        <time>2018-12-23T07:53:32Z</time>
      </trkpt>
      <trkpt lat="45.6369" lon="6.80228">
        <ele>1435.39</ele>
        <time>2018-12-23T07:53:48Z</time>
      </trkpt>
      <trkpt lat="45.63695" lon="6.80244">
        <ele>1437.31</ele>
        <time>2018-12-23T07:54:02Z</time>
      </trkpt>
      <trkpt lat="45.63699" lon="6.80259">
        <ele>1439.27</ele>
        <time>2018-12-23T07:54:15Z</time>
      </trkpt>
      <trkpt lat="45.63703" lon="6.80275">
        <ele>1440.85</ele>
        <time>2018-12-23T07:54:30Z</time>
      </trkpt>
      <trkpt lat="45.6371" lon="6.80286">
        <ele>1442.99</ele>
        <time>2018-12-23T07:54:46Z</time>
      </trkpt>
      <trkpt lat="45.63714" lon="6.80296">
        <ele>1444.63</ele>
        <time>2018-12-23T07:54:59Z</time>
      </trkpt>
      <trkpt lat="45.63716" lon="6.80309">
        <ele>1447.74</ele>
        <time>2018-12-23T07:55:15Z</time>
      </trkpt>
      <trkpt lat="45.63718" lon="6.80322">
        <ele>1450.21</ele>
        <time>2018-12-23T07:55:32Z</time>
      </trkpt>
      <trkpt lat="45.63715" lon="6.80342">
        <ele>1451.87</ele>
        <time>2018-12-23T07:55:51Z</time>
      </trkpt>
      <trkpt lat="45.63712" lon="6.80358">
        <ele>1453.49</ele>
        <time>2018-12-23T07:56:09Z</time>
      </trkpt>
      <trkpt lat="45.63711" lon="6.80376">
        <ele>1455.99</ele>
        <time>2018-12-23T07:56:32Z</time>
      </trkpt>
      <trkpt lat="45.63711" lon="6.80394">
        <ele>1458.5</ele>
        <time>2018-12-23T07:56:51Z</time>
      </trkpt>
      <trkpt lat="45.6371" lon="6.80408">
        <ele>1460.08</ele>
        <time>2018-12-23T07:57:06Z</time>
      </trkpt>
      <trkpt lat="45.63709" lon="6.80424">
        <ele>1461.81</ele>
        <time>2018-12-23T07:57:25Z</time>
      </trkpt>
      <trkpt lat="45.63711" lon="6.80436">
        <ele>1463.42</ele>
        <time>2018-12-23T07:57:40Z</time>
      </trkpt>
      <trkpt lat="45.63714" lon="6.80446">
        <ele>1464.52</ele>
        <time>2018-12-23T07:57:52Z</time>
      </trkpt>
      <trkpt lat="45.63716" lon="6.80462">
        <ele>1466.14</ele>
        <time>2018-12-23T07:58:06Z</time>
      </trkpt>
      <trkpt lat="45.63719" lon="6.80477">
        <ele>1467.67</ele>
        <time>2018-12-23T07:58:20Z</time>
      </trkpt>
      <trkpt lat="45.63723" lon="6.80486">
        <ele>1468.8</ele>
        <time>2018-12-23T07:58:31Z</time>
      </trkpt>
      <trkpt lat="45.63729" lon="6.80493">
        <ele>1470.64</ele>
        <time>2018-12-23T07:58:45Z</time>
      </trkpt>
      <trkpt lat="45.63735" lon="6.80496">
        <ele>1472.1</ele>
        <time>2018-12-23T07:58:57Z</time>
      </trkpt>
      <trkpt lat="45.63745" lon="6.80501">
        <ele>1474.68</ele>
        <time>2018-12-23T07:59:15Z</time>
      </trkpt>
      <trkpt lat="45.63753" lon="6.80504">
        <ele>1476.36</ele>
        <time>2018-12-23T07:59:30Z</time>
      </trkpt>
      <trkpt lat="45.63762" lon="6.80503">
        <ele>1479.43</ele>
        <time>2018-12-23T07:59:49Z</time>
      </trkpt>
      <trkpt lat="45.63768" lon="6.80509">
        <ele>1481.74</ele>
        <time>2018-12-23T08:00:03Z</time>
      </trkpt>
      <trkpt lat="45.63775" lon="6.80519">
        <ele>1483.89</ele>
        <time>2018-12-23T08:00:19Z</time>
      </trkpt>
      <trkpt lat="45.63779" lon="6.80526">
        <ele>1485.39</ele>
        <time>2018-12-23T08:00:30Z</time>
      </trkpt>
      <trkpt lat="45.63781" lon="6.80537">
        <ele>1487.04</ele>
        <time>2018-12-23T08:00:45Z</time>
      </trkpt>
      <trkpt lat="45.63781" lon="6.80542">
        <ele>1488.73</ele>
        <time>2018-12-23T08:00:59Z</time>
      </trkpt>
      <trkpt lat="45.63782" lon="6.80542">
        <ele>1489.44</ele>
        <time>2018-12-23T08:01:26Z</time>
      </trkpt>
      <trkpt lat="45.63785" lon="6.8055">
        <ele>1490.46</ele>
        <time>2018-12-23T08:01:43Z</time>
      </trkpt>
      <trkpt lat="45.63787" lon="6.80559">
        <ele>1492.67</ele>
        <time>2018-12-23T08:01:57Z</time>
      </trkpt>
      <trkpt lat="45.6379" lon="6.80568">
        <ele>1494.54</ele>
        <time>2018-12-23T08:02:10Z</time>
      </trkpt>
      <trkpt lat="45.63791" lon="6.80572">
        <ele>1496.55</ele>
        <time>2018-12-23T08:02:30Z</time>
      </trkpt>
      <trkpt lat="45.63795" lon="6.80577">
        <ele>1497.38</ele>
        <time>2018-12-23T08:02:53Z</time>
      </trkpt>
      <trkpt lat="45.63794" lon="6.80576">
        <ele>1496.96</ele>
        <time>2018-12-23T08:03:11Z</time>
      </trkpt>
      <trkpt lat="45.63794" lon="6.80577">
        <ele>1497.18</ele>
        <time>2018-12-23T08:03:56Z</time>
      </trkpt>
      <trkpt lat="45.63794" lon="6.80577">
        <ele>1497.18</ele>
        <time>2018-12-23T08:04:31Z</time>
      </trkpt>
      <trkpt lat="45.63795" lon="6.80579">
        <ele>1498.35</ele>
        <time>2018-12-23T08:04:52Z</time>
      </trkpt>
      <trkpt lat="45.63793" lon="6.80578">
        <ele>1498.64</ele>
        <time>2018-12-23T08:05:09Z</time>
      </trkpt>
      <trkpt lat="45.63795" lon="6.80576">
        <ele>1499.06</ele>
        <time>2018-12-23T08:05:23Z</time>
      </trkpt>
      <trkpt lat="45.63796" lon="6.80574">
        <ele>1499.05</ele>
        <time>2018-12-23T08:05:45Z</time>
      </trkpt>
      <trkpt lat="45.63801" lon="6.80571">
        <ele>1499.75</ele>
        <time>2018-12-23T08:05:58Z</time>
      </trkpt>
      <trkpt lat="45.63807" lon="6.80558">
        <ele>1501.35</ele>
        <time>2018-12-23T08:06:13Z</time>
      </trkpt>
      <trkpt lat="45.63813" lon="6.80545">
        <ele>1502.15</ele>
        <time>2018-12-23T08:06:24Z</time>
      </trkpt>
      <trkpt lat="45.63815" lon="6.80536">
        <ele>1502.87</ele>
        <time>2018-12-23T08:06:37Z</time>
      </trkpt>
      <trkpt lat="45.63823" lon="6.80522">
        <ele>1503.94</ele>
        <time>2018-12-23T08:06:51Z</time>
      </trkpt>
      <trkpt lat="45.63825" lon="6.80521">
        <ele>1504.1</ele>
        <time>2018-12-23T08:06:53Z</time>
      </trkpt>
      <trkpt lat="45.63836" lon="6.80514">
        <ele>1505.5</ele>
        <time>2018-12-23T08:07:07Z</time>
      </trkpt>
      <trkpt lat="45.63847" lon="6.80506">
        <ele>1507.35</ele>
        <time>2018-12-23T08:07:23Z</time>
      </trkpt>
      <trkpt lat="45.63862" lon="6.80498">
        <ele>1509.37</ele>
        <time>2018-12-23T08:07:39Z</time>
      </trkpt>
      <trkpt lat="45.6387" lon="6.80495">
        <ele>1511.47</ele>
        <time>2018-12-23T08:07:54Z</time>
      </trkpt>
      <trkpt lat="45.63882" lon="6.80492">
        <ele>1513.05</ele>
        <time>2018-12-23T08:08:09Z</time>
      </trkpt>
      <trkpt lat="45.63897" lon="6.80494">
        <ele>1515.93</ele>
        <time>2018-12-23T08:08:26Z</time>
      </trkpt>
      <trkpt lat="45.63906" lon="6.80488">
        <ele>1518.43</ele>
        <time>2018-12-23T08:08:39Z</time>
      </trkpt>
      <trkpt lat="45.63908" lon="6.80485">
        <ele>1518.82</ele>
        <time>2018-12-23T08:08:42Z</time>
      </trkpt>
      <trkpt lat="45.63909" lon="6.80466">
        <ele>1520.51</ele>
        <time>2018-12-23T08:08:55Z</time>
      </trkpt>
      <trkpt lat="45.63918" lon="6.80469">
        <ele>1521.67</ele>
        <time>2018-12-23T08:09:08Z</time>
      </trkpt>
      <trkpt lat="45.63919" lon="6.80486">
        <ele>1523.36</ele>
        <time>2018-12-23T08:09:21Z</time>
      </trkpt>
      <trkpt lat="45.63919" lon="6.80502">
        <ele>1524.44</ele>
        <time>2018-12-23T08:09:33Z</time>
      </trkpt>
      <trkpt lat="45.63918" lon="6.80516">
        <ele>1526.68</ele>
        <time>2018-12-23T08:09:45Z</time>
      </trkpt>
      <trkpt lat="45.63918" lon="6.8053">
        <ele>1528.65</ele>
        <time>2018-12-23T08:09:56Z</time>
      </trkpt>
      <trkpt lat="45.63923" lon="6.8055">
        <ele>1530.66</ele>
        <time>2018-12-23T08:10:11Z</time>
      </trkpt>
      <trkpt lat="45.63926" lon="6.80564">
        <ele>1531.47</ele>
        <time>2018-12-23T08:10:24Z</time>
      </trkpt>
      <trkpt lat="45.63929" lon="6.8057">
        <ele>1532.25</ele>
        <time>2018-12-23T08:10:30Z</time>
      </trkpt>
      <trkpt lat="45.63935" lon="6.80581">
        <ele>1533.73</ele>
        <time>2018-12-23T08:10:42Z</time>
      </trkpt>
      <trkpt lat="45.63942" lon="6.80594">
        <ele>1536.13</ele>
        <time>2018-12-23T08:10:54Z</time>
      </trkpt>
      <trkpt lat="45.63949" lon="6.80607">
        <ele>1538.54</ele>
        <time>2018-12-23T08:11:07Z</time>
      </trkpt>
      <trkpt lat="45.63952" lon="6.80617">
        <ele>1541.64</ele>
        <time>2018-12-23T08:11:22Z</time>
      </trkpt>
      <trkpt lat="45.63954" lon="6.8062">
        <ele>1541.72</ele>
        <time>2018-12-23T08:11:43Z</time>
      </trkpt>
      <trkpt lat="45.63955" lon="6.8062">
        <ele>1541.97</ele>
        <time>2018-12-23T08:12:05Z</time>
      </trkpt>
      <trkpt lat="45.63957" lon="6.80621">
        <ele>1541.65</ele>
        <time>2018-12-23T08:12:36Z</time>
      </trkpt>
      <trkpt lat="45.63956" lon="6.80618">
        <ele>1541.33</ele>
        <time>2018-12-23T08:13:00Z</time>
      </trkpt>
      <trkpt lat="45.63956" lon="6.80619">
        <ele>1541.57</ele>
        <time>2018-12-23T08:13:20Z</time>
      </trkpt>
      <trkpt lat="45.63958" lon="6.80619">
        <ele>1541.64</ele>
        <time>2018-12-23T08:13:38Z</time>
      </trkpt>
      <trkpt lat="45.63964" lon="6.80627">
        <ele>1543.1</ele>
        <time>2018-12-23T08:13:55Z</time>
      </trkpt>
      <trkpt lat="45.6397" lon="6.80637">
        <ele>1545.75</ele>
        <time>2018-12-23T08:14:11Z</time>
      </trkpt>
      <trkpt lat="45.63983" lon="6.80648">
        <ele>1548.77</ele>
        <time>2018-12-23T08:14:27Z</time>
      </trkpt>
      <trkpt lat="45.63992" lon="6.80662">
        <ele>1551.8</ele>
        <time>2018-12-23T08:14:44Z</time>
      </trkpt>
      <trkpt lat="45.63997" lon="6.80671">
        <ele>1554.24</ele>
        <time>2018-12-23T08:14:58Z</time>
      </trkpt>
      <trkpt lat="45.64004" lon="6.80679">
        <ele>1557.45</ele>
        <time>2018-12-23T08:15:14Z</time>
      </trkpt>
      <trkpt lat="45.64007" lon="6.80693">
        <ele>1560.53</ele>
        <time>2018-12-23T08:15:30Z</time>
      </trkpt>
      <trkpt lat="45.64006" lon="6.80712">
        <ele>1563.55</ele>
        <time>2018-12-23T08:15:45Z</time>
      </trkpt>
      <trkpt lat="45.64006" lon="6.80728">
        <ele>1566.67</ele>
        <time>2018-12-23T08:16:01Z</time>
      </trkpt>
      <trkpt lat="45.64007" lon="6.80749">
        <ele>1569.12</ele>
        <time>2018-12-23T08:16:16Z</time>
      </trkpt>
      <trkpt lat="45.64012" lon="6.80769">
        <ele>1570.78</ele>
        <time>2018-12-23T08:16:31Z</time>
      </trkpt>
      <trkpt lat="45.64011" lon="6.80789">
        <ele>1572.8</ele>
        <time>2018-12-23T08:16:45Z</time>
      </trkpt>
      <trkpt lat="45.64012" lon="6.80804">
        <ele>1573.98</ele>
        <time>2018-12-23T08:16:58Z</time>
      </trkpt>
      <trkpt lat="45.64019" lon="6.80823">
        <ele>1576.24</ele>
        <time>2018-12-23T08:17:15Z</time>
      </trkpt>
      <trkpt lat="45.64028" lon="6.8084">
        <ele>1578.6</ele>
        <time>2018-12-23T08:17:30Z</time>
      </trkpt>
      <trkpt lat="45.64036" lon="6.80859">
        <ele>1581.24</ele>
        <time>2018-12-23T08:17:46Z</time>
      </trkpt>
      <trkpt lat="45.64041" lon="6.80874">
        <ele>1584.18</ele>
        <time>2018-12-23T08:18:00Z</time>
      </trkpt>
      <trkpt lat="45.64047" lon="6.80892">
        <ele>1587.26</ele>
        <time>2018-12-23T08:18:15Z</time>
      </trkpt>
      <trkpt lat="45.6405" lon="6.80904">
        <ele>1589.68</ele>
        <time>2018-12-23T08:18:28Z</time>
      </trkpt>
      <trkpt lat="45.64057" lon="6.80921">
        <ele>1592.7</ele>
        <time>2018-12-23T08:18:44Z</time>
      </trkpt>
      <trkpt lat="45.64066" lon="6.80927">
        <ele>1595.38</ele>
        <time>2018-12-23T08:19:01Z</time>
      </trkpt>
      <trkpt lat="45.64077" lon="6.80924">
        <ele>1597.56</ele>
        <time>2018-12-23T08:19:15Z</time>
      </trkpt>
      <trkpt lat="45.64091" lon="6.80919">
        <ele>1600.59</ele>
        <time>2018-12-23T08:19:32Z</time>
      </trkpt>
      <trkpt lat="45.64094" lon="6.80917">
        <ele>1601.28</ele>
        <time>2018-12-23T08:19:47Z</time>
      </trkpt>
      <trkpt lat="45.64093" lon="6.80917">
        <ele>1600.61</ele>
        <time>2018-12-23T08:20:00Z</time>
      </trkpt>
      <trkpt lat="45.64093" lon="6.80918">
        <ele>1601.26</ele>
        <time>2018-12-23T08:20:30Z</time>
      </trkpt>
      <trkpt lat="45.64094" lon="6.80919">
        <ele>1601.31</ele>
        <time>2018-12-23T08:20:52Z</time>
      </trkpt>
      <trkpt lat="45.64096" lon="6.80917">
        <ele>1601.28</ele>
        <time>2018-12-23T08:21:16Z</time>
      </trkpt>
      <trkpt lat="45.64096" lon="6.80917">
        <ele>1601.22</ele>
        <time>2018-12-23T08:21:56Z</time>
      </trkpt>
      <trkpt lat="45.64096" lon="6.80917">
        <ele>1600.98</ele>
        <time>2018-12-23T08:22:38Z</time>
      </trkpt>
      <trkpt lat="45.64098" lon="6.80916">
        <ele>1600.61</ele>
        <time>2018-12-23T08:23:14Z</time>
      </trkpt>
      <trkpt lat="45.64103" lon="6.80915">
        <ele>1600.62</ele>
        <time>2018-12-23T08:23:21Z</time>
      </trkpt>
      <trkpt lat="45.64115" lon="6.80911">
        <ele>1600.69</ele>
        <time>2018-12-23T08:23:36Z</time>
      </trkpt>
      <trkpt lat="45.64116" lon="6.8091">
        <ele>1600.77</ele>
        <time>2018-12-23T08:23:38Z</time>
      </trkpt>
      <trkpt lat="45.64123" lon="6.80909">
        <ele>1601.25</ele>
        <time>2018-12-23T08:23:44Z</time>
      </trkpt>
      <trkpt lat="45.64134" lon="6.80911">
        <ele>1602.99</ele>
        <time>2018-12-23T08:23:57Z</time>
      </trkpt>
      <trkpt lat="45.64142" lon="6.80918">
        <ele>1605.56</ele>
        <time>2018-12-23T08:24:09Z</time>
      </trkpt>
      <trkpt lat="45.6415" lon="6.80926">
        <ele>1607.95</ele>
        <time>2018-12-23T08:24:21Z</time>
      </trkpt>
      <trkpt lat="45.64159" lon="6.80934">
        <ele>1611.06</ele>
        <time>2018-12-23T08:24:36Z</time>
      </trkpt>
      <trkpt lat="45.64167" lon="6.80941">
        <ele>1613.11</ele>
        <time>2018-12-23T08:24:48Z</time>
      </trkpt>
      <trkpt lat="45.64175" lon="6.8095">
        <ele>1615.69</ele>
        <time>2018-12-23T08:25:05Z</time>
      </trkpt>
      <trkpt lat="45.64182" lon="6.8096">
        <ele>1618.03</ele>
        <time>2018-12-23T08:25:19Z</time>
      </trkpt>
      <trkpt lat="45.6419" lon="6.80968">
        <ele>1621.07</ele>
        <time>2018-12-23T08:25:35Z</time>
      </trkpt>
      <trkpt lat="45.64198" lon="6.80976">
        <ele>1623.95</ele>
        <time>2018-12-23T08:25:48Z</time>
      </trkpt>
      <trkpt lat="45.64207" lon="6.80982">
        <ele>1626.75</ele>
        <time>2018-12-23T08:26:04Z</time>
      </trkpt>
      <trkpt lat="45.64209" lon="6.80974">
        <ele>1629.27</ele>
        <time>2018-12-23T08:26:16Z</time>
      </trkpt>
      <trkpt lat="45.64212" lon="6.80959">
        <ele>1631.81</ele>
        <time>2018-12-23T08:26:30Z</time>
      </trkpt>
      <trkpt lat="45.64215" lon="6.80945">
        <ele>1633.83</ele>
        <time>2018-12-23T08:26:43Z</time>
      </trkpt>
      <trkpt lat="45.64217" lon="6.80938">
        <ele>1635.35</ele>
        <time>2018-12-23T08:26:54Z</time>
      </trkpt>
      <trkpt lat="45.64219" lon="6.80938">
        <ele>1636.81</ele>
        <time>2018-12-23T08:27:06Z</time>
      </trkpt>
      <trkpt lat="45.64223" lon="6.80949">
        <ele>1638.75</ele>
        <time>2018-12-23T08:27:18Z</time>
      </trkpt>
      <trkpt lat="45.64231" lon="6.80956">
        <ele>1641.48</ele>
        <time>2018-12-23T08:27:32Z</time>
      </trkpt>
      <trkpt lat="45.64235" lon="6.80959">
        <ele>1643.29</ele>
        <time>2018-12-23T08:27:44Z</time>
      </trkpt>
      <trkpt lat="45.64239" lon="6.80951">
        <ele>1644.93</ele>
        <time>2018-12-23T08:27:57Z</time>
      </trkpt>
      <trkpt lat="45.64241" lon="6.80938">
        <ele>1648.08</ele>
        <time>2018-12-23T08:28:12Z</time>
      </trkpt>
      <trkpt lat="45.64243" lon="6.80931">
        <ele>1650.59</ele>
        <time>2018-12-23T08:28:24Z</time>
      </trkpt>
      <trkpt lat="45.64247" lon="6.80929">
        <ele>1652.97</ele>
        <time>2018-12-23T08:28:38Z</time>
      </trkpt>
      <trkpt lat="45.64255" lon="6.80936">
        <ele>1655.52</ele>
        <time>2018-12-23T08:28:51Z</time>
      </trkpt>
      <trkpt lat="45.64259" lon="6.80941">
        <ele>1657.39</ele>
        <time>2018-12-23T08:29:02Z</time>
      </trkpt>
      <trkpt lat="45.64268" lon="6.8095">
        <ele>1660.45</ele>
        <time>2018-12-23T08:29:17Z</time>
      </trkpt>
      <trkpt lat="45.64276" lon="6.80958">
        <ele>1662.89</ele>
        <time>2018-12-23T08:29:31Z</time>
      </trkpt>
      <trkpt lat="45.64285" lon="6.80964">
        <ele>1665.61</ele>
        <time>2018-12-23T08:29:46Z</time>
      </trkpt>
      <trkpt lat="45.64288" lon="6.80966">
        <ele>1668.48</ele>
        <time>2018-12-23T08:30:01Z</time>
      </trkpt>
      <trkpt lat="45.64288" lon="6.80951">
        <ele>1670.31</ele>
        <time>2018-12-23T08:30:15Z</time>
      </trkpt>
      <trkpt lat="45.64286" lon="6.80935">
        <ele>1672.93</ele>
        <time>2018-12-23T08:30:30Z</time>
      </trkpt>
      <trkpt lat="45.64288" lon="6.80921">
        <ele>1675.98</ele>
        <time>2018-12-23T08:30:46Z</time>
      </trkpt>
      <trkpt lat="45.64292" lon="6.8091">
        <ele>1678.83</ele>
        <time>2018-12-23T08:31:01Z</time>
      </trkpt>
      <trkpt lat="45.64298" lon="6.80899">
        <ele>1682</ele>
        <time>2018-12-23T08:31:16Z</time>
      </trkpt>
      <trkpt lat="45.64303" lon="6.80899">
        <ele>1684.74</ele>
        <time>2018-12-23T08:31:29Z</time>
      </trkpt>
      <trkpt lat="45.64306" lon="6.80902">
        <ele>1686.63</ele>
        <time>2018-12-23T08:31:44Z</time>
      </trkpt>
      <trkpt lat="45.64311" lon="6.80897">
        <ele>1689.28</ele>
        <time>2018-12-23T08:31:58Z</time>
      </trkpt>
      <trkpt lat="45.64319" lon="6.809">
        <ele>1692.05</ele>
        <time>2018-12-23T08:32:13Z</time>
      </trkpt>
      <trkpt lat="45.64319" lon="6.80896">
        <ele>1694.49</ele>
        <time>2018-12-23T08:32:26Z</time>
      </trkpt>
      <trkpt lat="45.64327" lon="6.80896">
        <ele>1696.83</ele>
        <time>2018-12-23T08:32:40Z</time>
      </trkpt>
      <trkpt lat="45.64334" lon="6.80899">
        <ele>1699.36</ele>
        <time>2018-12-23T08:32:52Z</time>
      </trkpt>
      <trkpt lat="45.64336" lon="6.80895">
        <ele>1701.45</ele>
        <time>2018-12-23T08:33:07Z</time>
      </trkpt>
      <trkpt lat="45.64339" lon="6.80884">
        <ele>1703.87</ele>
        <time>2018-12-23T08:33:22Z</time>
      </trkpt>
      <trkpt lat="45.64341" lon="6.80878">
        <ele>1705.94</ele>
        <time>2018-12-23T08:33:39Z</time>
      </trkpt>
      <trkpt lat="45.64343" lon="6.80879">
        <ele>1707.87</ele>
        <time>2018-12-23T08:33:52Z</time>
      </trkpt>
      <trkpt lat="45.64346" lon="6.80882">
        <ele>1708.72</ele>
        <time>2018-12-23T08:33:59Z</time>
      </trkpt>
      <trkpt lat="45.64346" lon="6.80886">
        <ele>1709.11</ele>
        <time>2018-12-23T08:34:02Z</time>
      </trkpt>
      <trkpt lat="45.64348" lon="6.80887">
        <ele>1711.46</ele>
        <time>2018-12-23T08:34:17Z</time>
      </trkpt>
      <trkpt lat="45.64348" lon="6.80884">
        <ele>1712.97</ele>
        <time>2018-12-23T08:34:34Z</time>
      </trkpt>
      <trkpt lat="45.64347" lon="6.80883">
        <ele>1712.95</ele>
        <time>2018-12-23T08:34:58Z</time>
      </trkpt>
      <trkpt lat="45.64348" lon="6.80883">
        <ele>1713.14</ele>
        <time>2018-12-23T08:35:18Z</time>
      </trkpt>
      <trkpt lat="45.64351" lon="6.8088">
        <ele>1713.96</ele>
        <time>2018-12-23T08:35:35Z</time>
      </trkpt>
      <trkpt lat="45.6435" lon="6.80878">
        <ele>1713.84</ele>
        <time>2018-12-23T08:35:58Z</time>
      </trkpt>
      <trkpt lat="45.64349" lon="6.80879">
        <ele>1714.08</ele>
        <time>2018-12-23T08:36:20Z</time>
      </trkpt>
      <trkpt lat="45.64349" lon="6.80879">
        <ele>1714.3</ele>
        <time>2018-12-23T08:36:42Z</time>
      </trkpt>
      <trkpt lat="45.64347" lon="6.80882">
        <ele>1714.5</ele>
        <time>2018-12-23T08:37:06Z</time>
      </trkpt>
      <trkpt lat="45.6435" lon="6.80881">
        <ele>1714.41</ele>
        <time>2018-12-23T08:37:28Z</time>
      </trkpt>
      <trkpt lat="45.6435" lon="6.80883">
        <ele>1714.72</ele>
        <time>2018-12-23T08:38:08Z</time>
      </trkpt>
      <trkpt lat="45.64355" lon="6.80882">
        <ele>1715.62</ele>
        <time>2018-12-23T08:38:37Z</time>
      </trkpt>
      <trkpt lat="45.64365" lon="6.80885">
        <ele>1718.62</ele>
        <time>2018-12-23T08:38:54Z</time>
      </trkpt>
      <trkpt lat="45.64369" lon="6.80874">
        <ele>1721.67</ele>
        <time>2018-12-23T08:39:09Z</time>
      </trkpt>
      <trkpt lat="45.64373" lon="6.80865">
        <ele>1724.87</ele>
        <time>2018-12-23T08:39:23Z</time>
      </trkpt>
      <trkpt lat="45.64378" lon="6.80855">
        <ele>1727.97</ele>
        <time>2018-12-23T08:39:39Z</time>
      </trkpt>
      <trkpt lat="45.64382" lon="6.80854">
        <ele>1730.67</ele>
        <time>2018-12-23T08:39:53Z</time>
      </trkpt>
      <trkpt lat="45.64391" lon="6.80862">
        <ele>1733.83</ele>
        <time>2018-12-23T08:40:09Z</time>
      </trkpt>
      <trkpt lat="45.64395" lon="6.80856">
        <ele>1736.44</ele>
        <time>2018-12-23T08:40:23Z</time>
      </trkpt>
      <trkpt lat="45.64401" lon="6.80851">
        <ele>1739.58</ele>
        <time>2018-12-23T08:40:38Z</time>
      </trkpt>
      <trkpt lat="45.64408" lon="6.80855">
        <ele>1742.66</ele>
        <time>2018-12-23T08:40:52Z</time>
      </trkpt>
      <trkpt lat="45.64415" lon="6.80865">
        <ele>1745.69</ele>
        <time>2018-12-23T08:41:06Z</time>
      </trkpt>
      <trkpt lat="45.64423" lon="6.80875">
        <ele>1748.11</ele>
        <time>2018-12-23T08:41:21Z</time>
      </trkpt>
      <trkpt lat="45.64432" lon="6.80882">
        <ele>1750.16</ele>
        <time>2018-12-23T08:41:34Z</time>
      </trkpt>
      <trkpt lat="45.64441" lon="6.80883">
        <ele>1752.81</ele>
        <time>2018-12-23T08:41:48Z</time>
      </trkpt>
      <trkpt lat="45.64454" lon="6.80884">
        <ele>1755.67</ele>
        <time>2018-12-23T08:42:05Z</time>
      </trkpt>
      <trkpt lat="45.64465" lon="6.80884">
        <ele>1758.03</ele>
        <time>2018-12-23T08:42:19Z</time>
      </trkpt>
      <trkpt lat="45.64476" lon="6.80887">
        <ele>1759.9</ele>
        <time>2018-12-23T08:42:33Z</time>
      </trkpt>
      <trkpt lat="45.64484" lon="6.80889">
        <ele>1761.32</ele>
        <time>2018-12-23T08:42:45Z</time>
      </trkpt>
      <trkpt lat="45.64494" lon="6.80892">
        <ele>1763.16</ele>
        <time>2018-12-23T08:42:59Z</time>
      </trkpt>
      <trkpt lat="45.64503" lon="6.80893">
        <ele>1765.31</ele>
        <time>2018-12-23T08:43:12Z</time>
      </trkpt>
      <trkpt lat="45.6451" lon="6.80895">
        <ele>1767.1</ele>
        <time>2018-12-23T08:43:24Z</time>
      </trkpt>
      <trkpt lat="45.64519" lon="6.809">
        <ele>1770.18</ele>
        <time>2018-12-23T08:43:38Z</time>
      </trkpt>
      <trkpt lat="45.64524" lon="6.80902">
        <ele>1771.99</ele>
        <time>2018-12-23T08:43:48Z</time>
      </trkpt>
      <trkpt lat="45.64531" lon="6.80905">
        <ele>1774.76</ele>
        <time>2018-12-23T08:44:03Z</time>
      </trkpt>
      <trkpt lat="45.64539" lon="6.80901">
        <ele>1776.19</ele>
        <time>2018-12-23T08:44:13Z</time>
      </trkpt>
      <trkpt lat="45.64552" lon="6.80902">
        <ele>1777.72</ele>
        <time>2018-12-23T08:44:27Z</time>
      </trkpt>
      <trkpt lat="45.64564" lon="6.80904">
        <ele>1781.01</ele>
        <time>2018-12-23T08:44:45Z</time>
      </trkpt>
      <trkpt lat="45.64572" lon="6.8091">
        <ele>1783.83</ele>
        <time>2018-12-23T08:44:59Z</time>
      </trkpt>
      <trkpt lat="45.64574" lon="6.80912">
        <ele>1786.03</ele>
        <time>2018-12-23T08:45:11Z</time>
      </trkpt>
      <trkpt lat="45.64576" lon="6.80913">
        <ele>1787.22</ele>
        <time>2018-12-23T08:45:33Z</time>
      </trkpt>
      <trkpt lat="45.64586" lon="6.8092">
        <ele>1790</ele>
        <time>2018-12-23T08:45:53Z</time>
      </trkpt>
      <trkpt lat="45.64595" lon="6.80925">
        <ele>1793.17</ele>
        <time>2018-12-23T08:46:08Z</time>
      </trkpt>
      <trkpt lat="45.64602" lon="6.8093">
        <ele>1795.67</ele>
        <time>2018-12-23T08:46:21Z</time>
      </trkpt>
      <trkpt lat="45.64607" lon="6.80933">
        <ele>1797.85</ele>
        <time>2018-12-23T08:46:31Z</time>
      </trkpt>
      <trkpt lat="45.64611" lon="6.80938">
        <ele>1799.46</ele>
        <time>2018-12-23T08:46:42Z</time>
      </trkpt>
      <trkpt lat="45.6462" lon="6.80947">
        <ele>1801.4</ele>
        <time>2018-12-23T08:46:58Z</time>
      </trkpt>
      <trkpt lat="45.64627" lon="6.80957">
        <ele>1804.02</ele>
        <time>2018-12-23T08:47:13Z</time>
      </trkpt>
      <trkpt lat="45.64633" lon="6.80966">
        <ele>1805.71</ele>
        <time>2018-12-23T08:47:26Z</time>
      </trkpt>
      <trkpt lat="45.64642" lon="6.80979">
        <ele>1807.28</ele>
        <time>2018-12-23T08:47:41Z</time>
      </trkpt>
      <trkpt lat="45.64648" lon="6.8099">
        <ele>1808.71</ele>
        <time>2018-12-23T08:47:53Z</time>
      </trkpt>
      <trkpt lat="45.64654" lon="6.81">
        <ele>1810.79</ele>
        <time>2018-12-23T08:48:07Z</time>
      </trkpt>
      <trkpt lat="45.6466" lon="6.81013">
        <ele>1813.86</ele>
        <time>2018-12-23T08:48:25Z</time>
      </trkpt>
      <trkpt lat="45.64665" lon="6.81021">
        <ele>1816.43</ele>
        <time>2018-12-23T08:48:37Z</time>
      </trkpt>
      <trkpt lat="45.6467" lon="6.81036">
        <ele>1819.49</ele>
        <time>2018-12-23T08:48:54Z</time>
      </trkpt>
      <trkpt lat="45.64677" lon="6.81047">
        <ele>1822.57</ele>
        <time>2018-12-23T08:49:09Z</time>
      </trkpt>
      <trkpt lat="45.64684" lon="6.81059">
        <ele>1825.68</ele>
        <time>2018-12-23T08:49:26Z</time>
      </trkpt>
      <trkpt lat="45.64689" lon="6.81071">
        <ele>1828.17</ele>
        <time>2018-12-23T08:49:41Z</time>
      </trkpt>
      <trkpt lat="45.64695" lon="6.81083">
        <ele>1831.23</ele>
        <time>2018-12-23T08:49:58Z</time>
      </trkpt>
      <trkpt lat="45.64705" lon="6.81098">
        <ele>1834.39</ele>
        <time>2018-12-23T08:50:19Z</time>
      </trkpt>
      <trkpt lat="45.64713" lon="6.81108">
        <ele>1837.21</ele>
        <time>2018-12-23T08:50:34Z</time>
      </trkpt>
      <trkpt lat="45.64722" lon="6.81119">
        <ele>1840.07</ele>
        <time>2018-12-23T08:50:50Z</time>
      </trkpt>
      <trkpt lat="45.64731" lon="6.81128">
        <ele>1842.5</ele>
        <time>2018-12-23T08:51:05Z</time>
      </trkpt>
      <trkpt lat="45.64739" lon="6.81137">
        <ele>1844.54</ele>
        <time>2018-12-23T08:51:18Z</time>
      </trkpt>
      <trkpt lat="45.64748" lon="6.81145">
        <ele>1846.84</ele>
        <time>2018-12-23T08:51:32Z</time>
      </trkpt>
      <trkpt lat="45.64759" lon="6.81153">
        <ele>1849.16</ele>
        <time>2018-12-23T08:51:47Z</time>
      </trkpt>
      <trkpt lat="45.64769" lon="6.81163">
        <ele>1851.37</ele>
        <time>2018-12-23T08:52:02Z</time>
      </trkpt>
      <trkpt lat="45.64776" lon="6.81168">
        <ele>1852.48</ele>
        <time>2018-12-23T08:52:11Z</time>
      </trkpt>
      <trkpt lat="45.64789" lon="6.81175">
        <ele>1854.51</ele>
        <time>2018-12-23T08:52:27Z</time>
      </trkpt>
      <trkpt lat="45.64801" lon="6.81177">
        <ele>1856.08</ele>
        <time>2018-12-23T08:52:42Z</time>
      </trkpt>
      <trkpt lat="45.6481" lon="6.8118">
        <ele>1858.64</ele>
        <time>2018-12-23T08:52:57Z</time>
      </trkpt>
      <trkpt lat="45.64816" lon="6.81184">
        <ele>1861.38</ele>
        <time>2018-12-23T08:53:09Z</time>
      </trkpt>
      <trkpt lat="45.64822" lon="6.81193">
        <ele>1863.79</ele>
        <time>2018-12-23T08:53:22Z</time>
      </trkpt>
      <trkpt lat="45.64831" lon="6.81199">
        <ele>1866.61</ele>
        <time>2018-12-23T08:53:36Z</time>
      </trkpt>
      <trkpt lat="45.64839" lon="6.81203">
        <ele>1869.42</ele>
        <time>2018-12-23T08:53:51Z</time>
      </trkpt>
      <trkpt lat="45.64845" lon="6.81207">
        <ele>1871.56</ele>
        <time>2018-12-23T08:54:02Z</time>
      </trkpt>
      <trkpt lat="45.64855" lon="6.81212">
        <ele>1874.81</ele>
        <time>2018-12-23T08:54:18Z</time>
      </trkpt>
      <trkpt lat="45.6486" lon="6.81215">
        <ele>1877.01</ele>
        <time>2018-12-23T08:54:33Z</time>
      </trkpt>
      <trkpt lat="45.64868" lon="6.81219">
        <ele>1878.97</ele>
        <time>2018-12-23T08:54:46Z</time>
      </trkpt>
      <trkpt lat="45.64876" lon="6.81225">
        <ele>1881.98</ele>
        <time>2018-12-23T08:55:01Z</time>
      </trkpt>
      <trkpt lat="45.64885" lon="6.8123">
        <ele>1884.64</ele>
        <time>2018-12-23T08:55:15Z</time>
      </trkpt>
      <trkpt lat="45.64893" lon="6.81236">
        <ele>1886.81</ele>
        <time>2018-12-23T08:55:29Z</time>
      </trkpt>
      <trkpt lat="45.64902" lon="6.81243">
        <ele>1889.83</ele>
        <time>2018-12-23T08:55:44Z</time>
      </trkpt>
      <trkpt lat="45.64911" lon="6.81251">
        <ele>1892.74</ele>
        <time>2018-12-23T08:56:00Z</time>
      </trkpt>
      <trkpt lat="45.6492" lon="6.81258">
        <ele>1895.8</ele>
        <time>2018-12-23T08:56:16Z</time>
      </trkpt>
      <trkpt lat="45.64928" lon="6.81264">
        <ele>1898.82</ele>
        <time>2018-12-23T08:56:31Z</time>
      </trkpt>
      <trkpt lat="45.64936" lon="6.81272">
        <ele>1901.87</ele>
        <time>2018-12-23T08:56:46Z</time>
      </trkpt>
      <trkpt lat="45.64942" lon="6.81282">
        <ele>1905.01</ele>
        <time>2018-12-23T08:57:02Z</time>
      </trkpt>
      <trkpt lat="45.64947" lon="6.81291">
        <ele>1907.81</ele>
        <time>2018-12-23T08:57:16Z</time>
      </trkpt>
      <trkpt lat="45.64954" lon="6.81297">
        <ele>1910.86</ele>
        <time>2018-12-23T08:57:32Z</time>
      </trkpt>
      <trkpt lat="45.64959" lon="6.81289">
        <ele>1913.62</ele>
        <time>2018-12-23T08:57:47Z</time>
      </trkpt>
      <trkpt lat="45.64966" lon="6.81283">
        <ele>1915.05</ele>
        <time>2018-12-23T08:57:59Z</time>
      </trkpt>
      <trkpt lat="45.64972" lon="6.81277">
        <ele>1917.73</ele>
        <time>2018-12-23T08:58:11Z</time>
      </trkpt>
      <trkpt lat="45.6498" lon="6.81272">
        <ele>1919.73</ele>
        <time>2018-12-23T08:58:26Z</time>
      </trkpt>
      <trkpt lat="45.64985" lon="6.8127">
        <ele>1921.57</ele>
        <time>2018-12-23T08:58:38Z</time>
      </trkpt>
      <trkpt lat="45.64988" lon="6.8127">
        <ele>1922.49</ele>
        <time>2018-12-23T08:58:51Z</time>
      </trkpt>
      <trkpt lat="45.64987" lon="6.81271">
        <ele>1922.89</ele>
        <time>2018-12-23T08:59:24Z</time>
      </trkpt>
      <trkpt lat="45.64988" lon="6.8127">
        <ele>1923.11</ele>
        <time>2018-12-23T08:59:46Z</time>
      </trkpt>
      <trkpt lat="45.6499" lon="6.81278">
        <ele>1924.11</ele>
        <time>2018-12-23T09:00:02Z</time>
      </trkpt>
      <trkpt lat="45.64993" lon="6.81291">
        <ele>1927.02</ele>
        <time>2018-12-23T09:00:16Z</time>
      </trkpt>
      <trkpt lat="45.64998" lon="6.81304">
        <ele>1929.86</ele>
        <time>2018-12-23T09:00:30Z</time>
      </trkpt>
      <trkpt lat="45.65004" lon="6.81314">
        <ele>1932.01</ele>
        <time>2018-12-23T09:00:43Z</time>
      </trkpt>
      <trkpt lat="45.6501" lon="6.81313">
        <ele>1934.62</ele>
        <time>2018-12-23T09:00:57Z</time>
      </trkpt>
      <trkpt lat="45.65016" lon="6.81299">
        <ele>1937.68</ele>
        <time>2018-12-23T09:01:16Z</time>
      </trkpt>
      <trkpt lat="45.65024" lon="6.81291">
        <ele>1940.21</ele>
        <time>2018-12-23T09:01:30Z</time>
      </trkpt>
      <trkpt lat="45.65033" lon="6.81284">
        <ele>1943.1</ele>
        <time>2018-12-23T09:01:44Z</time>
      </trkpt>
      <trkpt lat="45.65041" lon="6.81287">
        <ele>1945.81</ele>
        <time>2018-12-23T09:02:00Z</time>
      </trkpt>
      <trkpt lat="45.65043" lon="6.81301">
        <ele>1948.31</ele>
        <time>2018-12-23T09:02:13Z</time>
      </trkpt>
      <trkpt lat="45.65046" lon="6.81313">
        <ele>1950.17</ele>
        <time>2018-12-23T09:02:26Z</time>
      </trkpt>
      <trkpt lat="45.6505" lon="6.81312">
        <ele>1952</ele>
        <time>2018-12-23T09:02:38Z</time>
      </trkpt>
      <trkpt lat="45.65059" lon="6.81305">
        <ele>1954.63</ele>
        <time>2018-12-23T09:02:54Z</time>
      </trkpt>
      <trkpt lat="45.65067" lon="6.81302">
        <ele>1957.44</ele>
        <time>2018-12-23T09:03:08Z</time>
      </trkpt>
      <trkpt lat="45.65071" lon="6.81315">
        <ele>1960.49</ele>
        <time>2018-12-23T09:03:24Z</time>
      </trkpt>
      <trkpt lat="45.65074" lon="6.81331">
        <ele>1963.55</ele>
        <time>2018-12-23T09:03:42Z</time>
      </trkpt>
      <trkpt lat="45.65079" lon="6.81348">
        <ele>1966.56</ele>
        <time>2018-12-23T09:03:59Z</time>
      </trkpt>
      <trkpt lat="45.65084" lon="6.81359">
        <ele>1969.39</ele>
        <time>2018-12-23T09:04:14Z</time>
      </trkpt>
      <trkpt lat="45.6509" lon="6.81352">
        <ele>1971.37</ele>
        <time>2018-12-23T09:04:27Z</time>
      </trkpt>
      <trkpt lat="45.65097" lon="6.81345">
        <ele>1973.89</ele>
        <time>2018-12-23T09:04:41Z</time>
      </trkpt>
      <trkpt lat="45.65103" lon="6.81345">
        <ele>1975.8</ele>
        <time>2018-12-23T09:04:54Z</time>
      </trkpt>
      <trkpt lat="45.65103" lon="6.81353">
        <ele>1977.38</ele>
        <time>2018-12-23T09:05:07Z</time>
      </trkpt>
      <trkpt lat="45.65106" lon="6.81356">
        <ele>1978.78</ele>
        <time>2018-12-23T09:05:19Z</time>
      </trkpt>
      <trkpt lat="45.65115" lon="6.81351">
        <ele>1981.16</ele>
        <time>2018-12-23T09:05:35Z</time>
      </trkpt>
      <trkpt lat="45.65126" lon="6.81346">
        <ele>1984.18</ele>
        <time>2018-12-23T09:05:52Z</time>
      </trkpt>
      <trkpt lat="45.65127" lon="6.81358">
        <ele>1985.85</ele>
        <time>2018-12-23T09:06:03Z</time>
      </trkpt>
      <trkpt lat="45.65127" lon="6.81376">
        <ele>1988.21</ele>
        <time>2018-12-23T09:06:19Z</time>
      </trkpt>
      <trkpt lat="45.65128" lon="6.81391">
        <ele>1990.19</ele>
        <time>2018-12-23T09:06:32Z</time>
      </trkpt>
      <trkpt lat="45.65128" lon="6.814">
        <ele>1992.4</ele>
        <time>2018-12-23T09:06:45Z</time>
      </trkpt>
      <trkpt lat="45.65128" lon="6.81401">
        <ele>1993.08</ele>
        <time>2018-12-23T09:07:02Z</time>
      </trkpt>
      <trkpt lat="45.65127" lon="6.81401">
        <ele>1992.61</ele>
        <time>2018-12-23T09:07:14Z</time>
      </trkpt>
      <trkpt lat="45.65127" lon="6.81401">
        <ele>1992.46</ele>
        <time>2018-12-23T09:08:04Z</time>
      </trkpt>
      <trkpt lat="45.65126" lon="6.81401">
        <ele>1992.72</ele>
        <time>2018-12-23T09:08:52Z</time>
      </trkpt>
      <trkpt lat="45.65127" lon="6.81401">
        <ele>1992.71</ele>
        <time>2018-12-23T09:09:29Z</time>
      </trkpt>
      <trkpt lat="45.65124" lon="6.81401">
        <ele>1992.5</ele>
        <time>2018-12-23T09:10:17Z</time>
      </trkpt>
      <trkpt lat="45.65126" lon="6.81402">
        <ele>1992.19</ele>
        <time>2018-12-23T09:11:30Z</time>
      </trkpt>
      <trkpt lat="45.65126" lon="6.81402">
        <ele>1992.14</ele>
        <time>2018-12-23T09:12:10Z</time>
      </trkpt>
      <trkpt lat="45.65127" lon="6.81402">
        <ele>1992.44</ele>
        <time>2018-12-23T09:13:07Z</time>
      </trkpt>
      <trkpt lat="45.65128" lon="6.81402">
        <ele>1993.81</ele>
        <time>2018-12-23T09:13:32Z</time>
      </trkpt>
      <trkpt lat="45.65128" lon="6.814">
        <ele>1994.02</ele>
        <time>2018-12-23T09:13:57Z</time>
      </trkpt>
      <trkpt lat="45.65128" lon="6.814">
        <ele>1993.77</ele>
        <time>2018-12-23T09:14:16Z</time>
      </trkpt>
      <trkpt lat="45.65127" lon="6.81401">
        <ele>1994.47</ele>
        <time>2018-12-23T09:14:45Z</time>
      </trkpt>
      <trkpt lat="45.65128" lon="6.81403">
        <ele>1994.45</ele>
        <time>2018-12-23T09:15:02Z</time>
      </trkpt>
      <trkpt lat="45.65131" lon="6.81409">
        <ele>1995.17</ele>
        <time>2018-12-23T09:15:37Z</time>
      </trkpt>
      <trkpt lat="45.65137" lon="6.81423">
        <ele>1998.3</ele>
        <time>2018-12-23T09:15:56Z</time>
      </trkpt>
      <trkpt lat="45.65143" lon="6.81435">
        <ele>2001.46</ele>
        <time>2018-12-23T09:16:12Z</time>
      </trkpt>
      <trkpt lat="45.65151" lon="6.81444">
        <ele>2004.58</ele>
        <time>2018-12-23T09:16:31Z</time>
      </trkpt>
      <trkpt lat="45.65161" lon="6.81443">
        <ele>2007.62</ele>
        <time>2018-12-23T09:16:45Z</time>
      </trkpt>
      <trkpt lat="45.65172" lon="6.81441">
        <ele>2009.42</ele>
        <time>2018-12-23T09:16:58Z</time>
      </trkpt>
      <trkpt lat="45.65183" lon="6.81438">
        <ele>2012.15</ele>
        <time>2018-12-23T09:17:14Z</time>
      </trkpt>
      <trkpt lat="45.65191" lon="6.81442">
        <ele>2014.69</ele>
        <time>2018-12-23T09:17:30Z</time>
      </trkpt>
      <trkpt lat="45.65192" lon="6.81451">
        <ele>2016.4</ele>
        <time>2018-12-23T09:17:41Z</time>
      </trkpt>
      <trkpt lat="45.65196" lon="6.81465">
        <ele>2019.72</ele>
        <time>2018-12-23T09:17:57Z</time>
      </trkpt>
      <trkpt lat="45.65199" lon="6.81478">
        <ele>2022.88</ele>
        <time>2018-12-23T09:18:13Z</time>
      </trkpt>
      <trkpt lat="45.65205" lon="6.81486">
        <ele>2025.91</ele>
        <time>2018-12-23T09:18:29Z</time>
      </trkpt>
      <trkpt lat="45.65213" lon="6.81482">
        <ele>2029.02</ele>
        <time>2018-12-23T09:18:44Z</time>
      </trkpt>
      <trkpt lat="45.65223" lon="6.81479">
        <ele>2031.83</ele>
        <time>2018-12-23T09:19:01Z</time>
      </trkpt>
      <trkpt lat="45.65232" lon="6.81478">
        <ele>2034.53</ele>
        <time>2018-12-23T09:19:15Z</time>
      </trkpt>
      <trkpt lat="45.65242" lon="6.81475">
        <ele>2037.44</ele>
        <time>2018-12-23T09:19:31Z</time>
      </trkpt>
      <trkpt lat="45.6525" lon="6.81473">
        <ele>2040.25</ele>
        <time>2018-12-23T09:19:47Z</time>
      </trkpt>
      <trkpt lat="45.65261" lon="6.81473">
        <ele>2043.28</ele>
        <time>2018-12-23T09:20:06Z</time>
      </trkpt>
      <trkpt lat="45.65268" lon="6.81473">
        <ele>2045.53</ele>
        <time>2018-12-23T09:20:19Z</time>
      </trkpt>
      <trkpt lat="45.65274" lon="6.81479">
        <ele>2047.92</ele>
        <time>2018-12-23T09:20:34Z</time>
      </trkpt>
      <trkpt lat="45.65275" lon="6.81491">
        <ele>2050.87</ele>
        <time>2018-12-23T09:20:49Z</time>
      </trkpt>
      <trkpt lat="45.65278" lon="6.81504">
        <ele>2054.03</ele>
        <time>2018-12-23T09:21:05Z</time>
      </trkpt>
      <trkpt lat="45.65282" lon="6.81515">
        <ele>2056.25</ele>
        <time>2018-12-23T09:21:18Z</time>
      </trkpt>
      <trkpt lat="45.65289" lon="6.81521">
        <ele>2058.69</ele>
        <time>2018-12-23T09:21:34Z</time>
      </trkpt>
      <trkpt lat="45.65293" lon="6.81518">
        <ele>2061.71</ele>
        <time>2018-12-23T09:21:47Z</time>
      </trkpt>
      <trkpt lat="45.65292" lon="6.81518">
        <ele>2063.08</ele>
        <time>2018-12-23T09:22:13Z</time>
      </trkpt>
      <trkpt lat="45.65299" lon="6.81514">
        <ele>2064.15</ele>
        <time>2018-12-23T09:22:35Z</time>
      </trkpt>
      <trkpt lat="45.65309" lon="6.81509">
        <ele>2067.16</ele>
        <time>2018-12-23T09:22:53Z</time>
      </trkpt>
      <trkpt lat="45.65319" lon="6.81506">
        <ele>2070.35</ele>
        <time>2018-12-23T09:23:09Z</time>
      </trkpt>
      <trkpt lat="45.65329" lon="6.81504">
        <ele>2073.45</ele>
        <time>2018-12-23T09:23:23Z</time>
      </trkpt>
      <trkpt lat="45.65337" lon="6.81502">
        <ele>2076.52</ele>
        <time>2018-12-23T09:23:38Z</time>
      </trkpt>
      <trkpt lat="45.65339" lon="6.81511">
        <ele>2078.84</ele>
        <time>2018-12-23T09:23:49Z</time>
      </trkpt>
      <trkpt lat="45.65339" lon="6.81526">
        <ele>2082.19</ele>
        <time>2018-12-23T09:24:07Z</time>
      </trkpt>
      <trkpt lat="45.6534" lon="6.81537">
        <ele>2084.92</ele>
        <time>2018-12-23T09:24:21Z</time>
      </trkpt>
      <trkpt lat="45.65344" lon="6.81551">
        <ele>2087.92</ele>
        <time>2018-12-23T09:24:37Z</time>
      </trkpt>
      <trkpt lat="45.65347" lon="6.81553">
        <ele>2090.9</ele>
        <time>2018-12-23T09:24:52Z</time>
      </trkpt>
      <trkpt lat="45.65353" lon="6.81548">
        <ele>2093.91</ele>
        <time>2018-12-23T09:25:06Z</time>
      </trkpt>
      <trkpt lat="45.65361" lon="6.81543">
        <ele>2096.92</ele>
        <time>2018-12-23T09:25:20Z</time>
      </trkpt>
      <trkpt lat="45.65369" lon="6.81537">
        <ele>2099.98</ele>
        <time>2018-12-23T09:25:36Z</time>
      </trkpt>
      <trkpt lat="45.65378" lon="6.81535">
        <ele>2103.01</ele>
        <time>2018-12-23T09:25:51Z</time>
      </trkpt>
      <trkpt lat="45.65382" lon="6.81536">
        <ele>2105.28</ele>
        <time>2018-12-23T09:26:04Z</time>
      </trkpt>
      <trkpt lat="45.65383" lon="6.81541">
        <ele>2107.1</ele>
        <time>2018-12-23T09:26:19Z</time>
      </trkpt>
      <trkpt lat="45.65389" lon="6.81539">
        <ele>2108.89</ele>
        <time>2018-12-23T09:26:33Z</time>
      </trkpt>
      <trkpt lat="45.65399" lon="6.81538">
        <ele>2111.81</ele>
        <time>2018-12-23T09:26:50Z</time>
      </trkpt>
      <trkpt lat="45.65407" lon="6.81535">
        <ele>2114.96</ele>
        <time>2018-12-23T09:27:09Z</time>
      </trkpt>
      <trkpt lat="45.65415" lon="6.81533">
        <ele>2116.76</ele>
        <time>2018-12-23T09:27:23Z</time>
      </trkpt>
      <trkpt lat="45.65425" lon="6.81531">
        <ele>2119.22</ele>
        <time>2018-12-23T09:27:38Z</time>
      </trkpt>
      <trkpt lat="45.65436" lon="6.81525">
        <ele>2121.59</ele>
        <time>2018-12-23T09:27:56Z</time>
      </trkpt>
      <trkpt lat="45.65443" lon="6.81521">
        <ele>2124.01</ele>
        <time>2018-12-23T09:28:10Z</time>
      </trkpt>
      <trkpt lat="45.65449" lon="6.81521">
        <ele>2127.13</ele>
        <time>2018-12-23T09:28:27Z</time>
      </trkpt>
      <trkpt lat="45.6545" lon="6.81521">
        <ele>2127.63</ele>
        <time>2018-12-23T09:28:56Z</time>
      </trkpt>
      <trkpt lat="45.65457" lon="6.81522">
        <ele>2129.45</ele>
        <time>2018-12-23T09:29:11Z</time>
      </trkpt>
      <trkpt lat="45.65466" lon="6.81524">
        <ele>2132.58</ele>
        <time>2018-12-23T09:29:31Z</time>
      </trkpt>
      <trkpt lat="45.65468" lon="6.81529">
        <ele>2134.4</ele>
        <time>2018-12-23T09:29:48Z</time>
      </trkpt>
      <trkpt lat="45.65465" lon="6.81538">
        <ele>2136.01</ele>
        <time>2018-12-23T09:29:59Z</time>
      </trkpt>
      <trkpt lat="45.6546" lon="6.81548">
        <ele>2138.14</ele>
        <time>2018-12-23T09:30:13Z</time>
      </trkpt>
      <trkpt lat="45.65458" lon="6.81554">
        <ele>2139.8</ele>
        <time>2018-12-23T09:30:24Z</time>
      </trkpt>
      <trkpt lat="45.65459" lon="6.8156">
        <ele>2140.95</ele>
        <time>2018-12-23T09:30:37Z</time>
      </trkpt>
      <trkpt lat="45.65466" lon="6.81559">
        <ele>2142.51</ele>
        <time>2018-12-23T09:30:50Z</time>
      </trkpt>
      <trkpt lat="45.65474" lon="6.81557">
        <ele>2144.88</ele>
        <time>2018-12-23T09:31:04Z</time>
      </trkpt>
      <trkpt lat="45.65481" lon="6.81557">
        <ele>2146.75</ele>
        <time>2018-12-23T09:31:15Z</time>
      </trkpt>
      <trkpt lat="45.6549" lon="6.81557">
        <ele>2149.45</ele>
        <time>2018-12-23T09:31:31Z</time>
      </trkpt>
      <trkpt lat="45.65498" lon="6.81557">
        <ele>2152.19</ele>
        <time>2018-12-23T09:31:46Z</time>
      </trkpt>
      <trkpt lat="45.65503" lon="6.81558">
        <ele>2153.65</ele>
        <time>2018-12-23T09:31:56Z</time>
      </trkpt>
      <trkpt lat="45.65509" lon="6.81558">
        <ele>2155.24</ele>
        <time>2018-12-23T09:32:08Z</time>
      </trkpt>
      <trkpt lat="45.65518" lon="6.81557">
        <ele>2158.29</ele>
        <time>2018-12-23T09:32:26Z</time>
      </trkpt>
      <trkpt lat="45.65526" lon="6.81556">
        <ele>2160.74</ele>
        <time>2018-12-23T09:32:43Z</time>
      </trkpt>
      <trkpt lat="45.65532" lon="6.81558">
        <ele>2163.19</ele>
        <time>2018-12-23T09:32:58Z</time>
      </trkpt>
      <trkpt lat="45.65531" lon="6.81557">
        <ele>2164.48</ele>
        <time>2018-12-23T09:33:15Z</time>
      </trkpt>
      <trkpt lat="45.65534" lon="6.81559">
        <ele>2164.82</ele>
        <time>2018-12-23T09:33:27Z</time>
      </trkpt>
      <trkpt lat="45.65531" lon="6.81569">
        <ele>2166.64</ele>
        <time>2018-12-23T09:33:39Z</time>
      </trkpt>
      <trkpt lat="45.65528" lon="6.81576">
        <ele>2168.23</ele>
        <time>2018-12-23T09:33:51Z</time>
      </trkpt>
      <trkpt lat="45.6553" lon="6.81578">
        <ele>2169.88</ele>
        <time>2018-12-23T09:34:05Z</time>
      </trkpt>
      <trkpt lat="45.6554" lon="6.81577">
        <ele>2171.77</ele>
        <time>2018-12-23T09:34:20Z</time>
      </trkpt>
      <trkpt lat="45.65551" lon="6.81576">
        <ele>2174.28</ele>
        <time>2018-12-23T09:34:38Z</time>
      </trkpt>
      <trkpt lat="45.65559" lon="6.81577">
        <ele>2177</ele>
        <time>2018-12-23T09:34:54Z</time>
      </trkpt>
      <trkpt lat="45.65565" lon="6.81579">
        <ele>2178.73</ele>
        <time>2018-12-23T09:35:07Z</time>
      </trkpt>
      <trkpt lat="45.65571" lon="6.81581">
        <ele>2180.72</ele>
        <time>2018-12-23T09:35:21Z</time>
      </trkpt>
      <trkpt lat="45.65577" lon="6.81582">
        <ele>2182.87</ele>
        <time>2018-12-23T09:35:36Z</time>
      </trkpt>
      <trkpt lat="45.65579" lon="6.81581">
        <ele>2184.67</ele>
        <time>2018-12-23T09:35:54Z</time>
      </trkpt>
      <trkpt lat="45.65574" lon="6.8159">
        <ele>2186.12</ele>
        <time>2018-12-23T09:36:06Z</time>
      </trkpt>
      <trkpt lat="45.65571" lon="6.81593">
        <ele>2186.91</ele>
        <time>2018-12-23T09:36:18Z</time>
      </trkpt>
      <trkpt lat="45.6557" lon="6.81599">
        <ele>2187.79</ele>
        <time>2018-12-23T09:36:32Z</time>
      </trkpt>
      <trkpt lat="45.65577" lon="6.81599">
        <ele>2189.54</ele>
        <time>2018-12-23T09:36:46Z</time>
      </trkpt>
      <trkpt lat="45.65588" lon="6.81599">
        <ele>2191.92</ele>
        <time>2018-12-23T09:37:01Z</time>
      </trkpt>
      <trkpt lat="45.65595" lon="6.81601">
        <ele>2193.89</ele>
        <time>2018-12-23T09:37:13Z</time>
      </trkpt>
      <trkpt lat="45.65599" lon="6.81605">
        <ele>2196.09</ele>
        <time>2018-12-23T09:37:27Z</time>
      </trkpt>
      <trkpt lat="45.65603" lon="6.81605">
        <ele>2196.93</ele>
        <time>2018-12-23T09:37:38Z</time>
      </trkpt>
      <trkpt lat="45.65609" lon="6.81606">
        <ele>2199.27</ele>
        <time>2018-12-23T09:37:52Z</time>
      </trkpt>
      <trkpt lat="45.65613" lon="6.81608">
        <ele>2200.97</ele>
        <time>2018-12-23T09:38:03Z</time>
      </trkpt>
      <trkpt lat="45.65617" lon="6.8161">
        <ele>2202.87</ele>
        <time>2018-12-23T09:38:16Z</time>
      </trkpt>
      <trkpt lat="45.6562" lon="6.81612">
        <ele>2204.73</ele>
        <time>2018-12-23T09:38:28Z</time>
      </trkpt>
      <trkpt lat="45.65616" lon="6.81617">
        <ele>2206.11</ele>
        <time>2018-12-23T09:38:41Z</time>
      </trkpt>
      <trkpt lat="45.65615" lon="6.8162">
        <ele>2207.89</ele>
        <time>2018-12-23T09:38:56Z</time>
      </trkpt>
      <trkpt lat="45.65622" lon="6.81619">
        <ele>2208.94</ele>
        <time>2018-12-23T09:39:12Z</time>
      </trkpt>
      <trkpt lat="45.65633" lon="6.81618">
        <ele>2211.44</ele>
        <time>2018-12-23T09:39:30Z</time>
      </trkpt>
      <trkpt lat="45.65642" lon="6.81619">
        <ele>2214.01</ele>
        <time>2018-12-23T09:39:46Z</time>
      </trkpt>
      <trkpt lat="45.65649" lon="6.81619">
        <ele>2215.7</ele>
        <time>2018-12-23T09:39:59Z</time>
      </trkpt>
      <trkpt lat="45.65658" lon="6.81617">
        <ele>2218.15</ele>
        <time>2018-12-23T09:40:15Z</time>
      </trkpt>
      <trkpt lat="45.65665" lon="6.81613">
        <ele>2220.49</ele>
        <time>2018-12-23T09:40:29Z</time>
      </trkpt>
      <trkpt lat="45.65665" lon="6.81616">
        <ele>2221.98</ele>
        <time>2018-12-23T09:40:41Z</time>
      </trkpt>
      <trkpt lat="45.65662" lon="6.81625">
        <ele>2223.56</ele>
        <time>2018-12-23T09:40:54Z</time>
      </trkpt>
      <trkpt lat="45.65661" lon="6.81634">
        <ele>2225.66</ele>
        <time>2018-12-23T09:41:07Z</time>
      </trkpt>
      <trkpt lat="45.65663" lon="6.81639">
        <ele>2227.32</ele>
        <time>2018-12-23T09:41:20Z</time>
      </trkpt>
      <trkpt lat="45.65667" lon="6.8164">
        <ele>2228.9</ele>
        <time>2018-12-23T09:41:35Z</time>
      </trkpt>
      <trkpt lat="45.65674" lon="6.81643">
        <ele>2231.07</ele>
        <time>2018-12-23T09:41:49Z</time>
      </trkpt>
      <trkpt lat="45.6568" lon="6.81644">
        <ele>2233.09</ele>
        <time>2018-12-23T09:42:03Z</time>
      </trkpt>
      <trkpt lat="45.65682" lon="6.81646">
        <ele>2234.35</ele>
        <time>2018-12-23T09:42:13Z</time>
      </trkpt>
      <trkpt lat="45.65682" lon="6.81645">
        <ele>2235.02</ele>
        <time>2018-12-23T09:42:44Z</time>
      </trkpt>
      <trkpt lat="45.65685" lon="6.81646">
        <ele>2235.01</ele>
        <time>2018-12-23T09:42:57Z</time>
      </trkpt>
      <trkpt lat="45.65686" lon="6.81646">
        <ele>2234.96</ele>
        <time>2018-12-23T09:43:34Z</time>
      </trkpt>
      <trkpt lat="45.65686" lon="6.81646">
        <ele>2234.63</ele>
        <time>2018-12-23T09:44:20Z</time>
      </trkpt>
      <trkpt lat="45.65686" lon="6.81646">
        <ele>2234.61</ele>
        <time>2018-12-23T09:45:10Z</time>
      </trkpt>
      <trkpt lat="45.65687" lon="6.81645">
        <ele>2234.26</ele>
        <time>2018-12-23T09:45:38Z</time>
      </trkpt>
      <trkpt lat="45.65688" lon="6.81647">
        <ele>2235.01</ele>
        <time>2018-12-23T09:45:57Z</time>
      </trkpt>
      <trkpt lat="45.6569" lon="6.8165">
        <ele>2235.58</ele>
        <time>2018-12-23T09:46:30Z</time>
      </trkpt>
      <trkpt lat="45.65697" lon="6.81654">
        <ele>2237.28</ele>
        <time>2018-12-23T09:46:45Z</time>
      </trkpt>
      <trkpt lat="45.65704" lon="6.81659">
        <ele>2239.63</ele>
        <time>2018-12-23T09:47:03Z</time>
      </trkpt>
      <trkpt lat="45.6571" lon="6.81662">
        <ele>2242.25</ele>
        <time>2018-12-23T09:47:21Z</time>
      </trkpt>
      <trkpt lat="45.65712" lon="6.81671">
        <ele>2244.45</ele>
        <time>2018-12-23T09:47:38Z</time>
      </trkpt>
      <trkpt lat="45.65717" lon="6.81672">
        <ele>2245.98</ele>
        <time>2018-12-23T09:47:51Z</time>
      </trkpt>
      <trkpt lat="45.65726" lon="6.81674">
        <ele>2249.12</ele>
        <time>2018-12-23T09:48:08Z</time>
      </trkpt>
      <trkpt lat="45.65728" lon="6.81678">
        <ele>2250.52</ele>
        <time>2018-12-23T09:48:20Z</time>
      </trkpt>
      <trkpt lat="45.6573" lon="6.81686">
        <ele>2252.54</ele>
        <time>2018-12-23T09:48:35Z</time>
      </trkpt>
      <trkpt lat="45.65737" lon="6.81688">
        <ele>2254.66</ele>
        <time>2018-12-23T09:48:49Z</time>
      </trkpt>
      <trkpt lat="45.65737" lon="6.81696">
        <ele>2257.13</ele>
        <time>2018-12-23T09:49:03Z</time>
      </trkpt>
      <trkpt lat="45.6574" lon="6.81703">
        <ele>2259.08</ele>
        <time>2018-12-23T09:49:18Z</time>
      </trkpt>
      <trkpt lat="45.65747" lon="6.81707">
        <ele>2261.83</ele>
        <time>2018-12-23T09:49:34Z</time>
      </trkpt>
      <trkpt lat="45.65748" lon="6.81717">
        <ele>2264.29</ele>
        <time>2018-12-23T09:49:51Z</time>
      </trkpt>
      <trkpt lat="45.65746" lon="6.81727">
        <ele>2267.1</ele>
        <time>2018-12-23T09:50:08Z</time>
      </trkpt>
      <trkpt lat="45.65749" lon="6.81734">
        <ele>2270.04</ele>
        <time>2018-12-23T09:50:24Z</time>
      </trkpt>
      <trkpt lat="45.65753" lon="6.81741">
        <ele>2271.97</ele>
        <time>2018-12-23T09:50:40Z</time>
      </trkpt>
      <trkpt lat="45.65761" lon="6.81744">
        <ele>2273.8</ele>
        <time>2018-12-23T09:50:54Z</time>
      </trkpt>
      <trkpt lat="45.65769" lon="6.81744">
        <ele>2275.73</ele>
        <time>2018-12-23T09:51:08Z</time>
      </trkpt>
      <trkpt lat="45.65777" lon="6.81748">
        <ele>2278.2</ele>
        <time>2018-12-23T09:51:22Z</time>
      </trkpt>
      <trkpt lat="45.65784" lon="6.81752">
        <ele>2280.4</ele>
        <time>2018-12-23T09:51:37Z</time>
      </trkpt>
      <trkpt lat="45.65784" lon="6.81754">
        <ele>2281.85</ele>
        <time>2018-12-23T09:51:48Z</time>
      </trkpt>
      <trkpt lat="45.65787" lon="6.81766">
        <ele>2284.74</ele>
        <time>2018-12-23T09:52:07Z</time>
      </trkpt>
      <trkpt lat="45.65794" lon="6.81774">
        <ele>2287.82</ele>
        <time>2018-12-23T09:52:24Z</time>
      </trkpt>
      <trkpt lat="45.65799" lon="6.81781">
        <ele>2290.17</ele>
        <time>2018-12-23T09:52:38Z</time>
      </trkpt>
      <trkpt lat="45.65805" lon="6.81788">
        <ele>2292.99</ele>
        <time>2018-12-23T09:52:54Z</time>
      </trkpt>
      <trkpt lat="45.65812" lon="6.81796">
        <ele>2295.91</ele>
        <time>2018-12-23T09:53:11Z</time>
      </trkpt>
      <trkpt lat="45.6582" lon="6.81803">
        <ele>2298.96</ele>
        <time>2018-12-23T09:53:28Z</time>
      </trkpt>
      <trkpt lat="45.65823" lon="6.81809">
        <ele>2301.21</ele>
        <time>2018-12-23T09:53:44Z</time>
      </trkpt>
      <trkpt lat="45.65828" lon="6.81817">
        <ele>2302.12</ele>
        <time>2018-12-23T09:54:04Z</time>
      </trkpt>
      <trkpt lat="45.65834" lon="6.81827">
        <ele>2303.34</ele>
        <time>2018-12-23T09:54:17Z</time>
      </trkpt>
      <trkpt lat="45.65842" lon="6.8184">
        <ele>2306.36</ele>
        <time>2018-12-23T09:54:35Z</time>
      </trkpt>
      <trkpt lat="45.65847" lon="6.8184">
        <ele>2308.61</ele>
        <time>2018-12-23T09:54:53Z</time>
      </trkpt>
      <trkpt lat="45.65857" lon="6.81837">
        <ele>2311.7</ele>
        <time>2018-12-23T09:55:13Z</time>
      </trkpt>
      <trkpt lat="45.65869" lon="6.81836">
        <ele>2314.16</ele>
        <time>2018-12-23T09:55:32Z</time>
      </trkpt>
      <trkpt lat="45.65875" lon="6.81835">
        <ele>2315.56</ele>
        <time>2018-12-23T09:55:44Z</time>
      </trkpt>
      <trkpt lat="45.65879" lon="6.81834">
        <ele>2317.51</ele>
        <time>2018-12-23T09:55:55Z</time>
      </trkpt>
      <trkpt lat="45.65886" lon="6.81833">
        <ele>2319.4</ele>
        <time>2018-12-23T09:56:08Z</time>
      </trkpt>
      <trkpt lat="45.65892" lon="6.81833">
        <ele>2321.36</ele>
        <time>2018-12-23T09:56:20Z</time>
      </trkpt>
      <trkpt lat="45.65889" lon="6.81839">
        <ele>2322.89</ele>
        <time>2018-12-23T09:56:31Z</time>
      </trkpt>
      <trkpt lat="45.65888" lon="6.81852">
        <ele>2325.35</ele>
        <time>2018-12-23T09:56:49Z</time>
      </trkpt>
      <trkpt lat="45.65894" lon="6.81851">
        <ele>2327.82</ele>
        <time>2018-12-23T09:57:03Z</time>
      </trkpt>
      <trkpt lat="45.659" lon="6.8185">
        <ele>2330.26</ele>
        <time>2018-12-23T09:57:18Z</time>
      </trkpt>
      <trkpt lat="45.65905" lon="6.8185">
        <ele>2331.77</ele>
        <time>2018-12-23T09:57:30Z</time>
      </trkpt>
      <trkpt lat="45.65908" lon="6.8185">
        <ele>2334.05</ele>
        <time>2018-12-23T09:57:47Z</time>
      </trkpt>
      <trkpt lat="45.65908" lon="6.81851">
        <ele>2334.19</ele>
        <time>2018-12-23T09:58:22Z</time>
      </trkpt>
      <trkpt lat="45.65912" lon="6.81851">
        <ele>2333.66</ele>
        <time>2018-12-23T09:58:51Z</time>
      </trkpt>
      <trkpt lat="45.65921" lon="6.81852">
        <ele>2336.39</ele>
        <time>2018-12-23T09:59:07Z</time>
      </trkpt>
      <trkpt lat="45.65928" lon="6.81854">
        <ele>2339.48</ele>
        <time>2018-12-23T09:59:21Z</time>
      </trkpt>
      <trkpt lat="45.65936" lon="6.81856">
        <ele>2341.84</ele>
        <time>2018-12-23T09:59:34Z</time>
      </trkpt>
      <trkpt lat="45.65943" lon="6.81859">
        <ele>2344.85</ele>
        <time>2018-12-23T09:59:50Z</time>
      </trkpt>
      <trkpt lat="45.65951" lon="6.81861">
        <ele>2346.88</ele>
        <time>2018-12-23T10:00:04Z</time>
      </trkpt>
      <trkpt lat="45.65959" lon="6.81862">
        <ele>2349.66</ele>
        <time>2018-12-23T10:00:20Z</time>
      </trkpt>
      <trkpt lat="45.65967" lon="6.81863">
        <ele>2352.59</ele>
        <time>2018-12-23T10:00:35Z</time>
      </trkpt>
      <trkpt lat="45.65977" lon="6.81867">
        <ele>2355.43</ele>
        <time>2018-12-23T10:00:55Z</time>
      </trkpt>
      <trkpt lat="45.65984" lon="6.81875">
        <ele>2358.5</ele>
        <time>2018-12-23T10:01:14Z</time>
      </trkpt>
      <trkpt lat="45.65984" lon="6.81883">
        <ele>2361.62</ele>
        <time>2018-12-23T10:01:30Z</time>
      </trkpt>
      <trkpt lat="45.65987" lon="6.81888">
        <ele>2364.69</ele>
        <time>2018-12-23T10:01:43Z</time>
      </trkpt>
      <trkpt lat="45.6599" lon="6.8189">
        <ele>2366.12</ele>
        <time>2018-12-23T10:01:59Z</time>
      </trkpt>
      <trkpt lat="45.65995" lon="6.8189">
        <ele>2366.58</ele>
        <time>2018-12-23T10:02:13Z</time>
      </trkpt>
      <trkpt lat="45.66002" lon="6.81886">
        <ele>2368.45</ele>
        <time>2018-12-23T10:02:29Z</time>
      </trkpt>
      <trkpt lat="45.66007" lon="6.8188">
        <ele>2370.27</ele>
        <time>2018-12-23T10:02:42Z</time>
      </trkpt>
      <trkpt lat="45.66011" lon="6.81876">
        <ele>2372.16</ele>
        <time>2018-12-23T10:02:54Z</time>
      </trkpt>
      <trkpt lat="45.66012" lon="6.81883">
        <ele>2373.96</ele>
        <time>2018-12-23T10:03:08Z</time>
      </trkpt>
      <trkpt lat="45.66013" lon="6.81893">
        <ele>2376.49</ele>
        <time>2018-12-23T10:03:23Z</time>
      </trkpt>
      <trkpt lat="45.66015" lon="6.81894">
        <ele>2378.4</ele>
        <time>2018-12-23T10:03:39Z</time>
      </trkpt>
      <trkpt lat="45.6602" lon="6.8189">
        <ele>2379.59</ele>
        <time>2018-12-23T10:03:52Z</time>
      </trkpt>
      <trkpt lat="45.66025" lon="6.81888">
        <ele>2381.6</ele>
        <time>2018-12-23T10:04:05Z</time>
      </trkpt>
      <trkpt lat="45.66026" lon="6.81893">
        <ele>2382.99</ele>
        <time>2018-12-23T10:04:21Z</time>
      </trkpt>
      <trkpt lat="45.66028" lon="6.81903">
        <ele>2385.62</ele>
        <time>2018-12-23T10:04:37Z</time>
      </trkpt>
      <trkpt lat="45.66027" lon="6.81906">
        <ele>2387.84</ele>
        <time>2018-12-23T10:04:52Z</time>
      </trkpt>
      <trkpt lat="45.66027" lon="6.81906">
        <ele>2387.69</ele>
        <time>2018-12-23T10:05:03Z</time>
      </trkpt>
      <trkpt lat="45.66031" lon="6.81915">
        <ele>2388.99</ele>
        <time>2018-12-23T10:05:18Z</time>
      </trkpt>
      <trkpt lat="45.66033" lon="6.81915">
        <ele>2391.45</ele>
        <time>2018-12-23T10:05:30Z</time>
      </trkpt>
      <trkpt lat="45.66041" lon="6.8191">
        <ele>2394.03</ele>
        <time>2018-12-23T10:05:48Z</time>
      </trkpt>
      <trkpt lat="45.66046" lon="6.81909">
        <ele>2395.96</ele>
        <time>2018-12-23T10:06:04Z</time>
      </trkpt>
      <trkpt lat="45.66045" lon="6.81907">
        <ele>2397.27</ele>
        <time>2018-12-23T10:06:32Z</time>
      </trkpt>
      <trkpt lat="45.6605" lon="6.81907">
        <ele>2396.11</ele>
        <time>2018-12-23T10:07:05Z</time>
      </trkpt>
      <trkpt lat="45.66058" lon="6.81904">
        <ele>2397.96</ele>
        <time>2018-12-23T10:07:18Z</time>
      </trkpt>
      <trkpt lat="45.66067" lon="6.81899">
        <ele>2401.1</ele>
        <time>2018-12-23T10:07:32Z</time>
      </trkpt>
      <trkpt lat="45.66076" lon="6.81895">
        <ele>2404.06</ele>
        <time>2018-12-23T10:07:50Z</time>
      </trkpt>
      <trkpt lat="45.66081" lon="6.81893">
        <ele>2406.51</ele>
        <time>2018-12-23T10:08:03Z</time>
      </trkpt>
      <trkpt lat="45.66081" lon="6.81901">
        <ele>2408.82</ele>
        <time>2018-12-23T10:08:22Z</time>
      </trkpt>
      <trkpt lat="45.6608" lon="6.81912">
        <ele>2411.21</ele>
        <time>2018-12-23T10:08:38Z</time>
      </trkpt>
      <trkpt lat="45.66084" lon="6.81911">
        <ele>2412.91</ele>
        <time>2018-12-23T10:08:54Z</time>
      </trkpt>
      <trkpt lat="45.66092" lon="6.81906">
        <ele>2415.02</ele>
        <time>2018-12-23T10:09:09Z</time>
      </trkpt>
      <trkpt lat="45.66098" lon="6.81898">
        <ele>2417.56</ele>
        <time>2018-12-23T10:09:27Z</time>
      </trkpt>
      <trkpt lat="45.66103" lon="6.81892">
        <ele>2419.96</ele>
        <time>2018-12-23T10:09:44Z</time>
      </trkpt>
      <trkpt lat="45.66104" lon="6.81895">
        <ele>2421.05</ele>
        <time>2018-12-23T10:09:58Z</time>
      </trkpt>
      <trkpt lat="45.66107" lon="6.81906">
        <ele>2423.45</ele>
        <time>2018-12-23T10:10:14Z</time>
      </trkpt>
      <trkpt lat="45.66112" lon="6.81918">
        <ele>2425.93</ele>
        <time>2018-12-23T10:10:32Z</time>
      </trkpt>
      <trkpt lat="45.66117" lon="6.81923">
        <ele>2428.9</ele>
        <time>2018-12-23T10:10:47Z</time>
      </trkpt>
      <trkpt lat="45.66118" lon="6.81923">
        <ele>2429.74</ele>
        <time>2018-12-23T10:11:12Z</time>
      </trkpt>
      <trkpt lat="45.66117" lon="6.81924">
        <ele>2429.67</ele>
        <time>2018-12-23T10:11:37Z</time>
      </trkpt>
      <trkpt lat="45.66118" lon="6.81924">
        <ele>2429.25</ele>
        <time>2018-12-23T10:12:01Z</time>
      </trkpt>
      <trkpt lat="45.66119" lon="6.81924">
        <ele>2429.14</ele>
        <time>2018-12-23T10:12:41Z</time>
      </trkpt>
      <trkpt lat="45.66119" lon="6.81923">
        <ele>2429.29</ele>
        <time>2018-12-23T10:13:16Z</time>
      </trkpt>
      <trkpt lat="45.66118" lon="6.81925">
        <ele>2429.58</ele>
        <time>2018-12-23T10:14:00Z</time>
      </trkpt>
      <trkpt lat="45.66121" lon="6.81929">
        <ele>2430.36</ele>
        <time>2018-12-23T10:14:13Z</time>
      </trkpt>
      <trkpt lat="45.66122" lon="6.81929">
        <ele>2430.21</ele>
        <time>2018-12-23T10:14:39Z</time>
      </trkpt>
      <trkpt lat="45.6612" lon="6.81928">
        <ele>2430.22</ele>
        <time>2018-12-23T10:15:11Z</time>
      </trkpt>
      <trkpt lat="45.66118" lon="6.81929">
        <ele>2430.69</ele>
        <time>2018-12-23T10:15:44Z</time>
      </trkpt>
      <trkpt lat="45.6612" lon="6.81929">
        <ele>2431.18</ele>
        <time>2018-12-23T10:16:19Z</time>
      </trkpt>
      <trkpt lat="45.6612" lon="6.8193">
        <ele>2430.68</ele>
        <time>2018-12-23T10:16:52Z</time>
      </trkpt>
      <trkpt lat="45.66121" lon="6.81929">
        <ele>2431.01</ele>
        <time>2018-12-23T10:17:15Z</time>
      </trkpt>
      <trkpt lat="45.66122" lon="6.81929">
        <ele>2430.71</ele>
        <time>2018-12-23T10:17:38Z</time>
      </trkpt>
      <trkpt lat="45.66129" lon="6.81939">
        <ele>2433.18</ele>
        <time>2018-12-23T10:18:00Z</time>
      </trkpt>
      <trkpt lat="45.6613" lon="6.81938">
        <ele>2433.27</ele>
        <time>2018-12-23T10:18:37Z</time>
      </trkpt>
      <trkpt lat="45.66127" lon="6.81948">
        <ele>2433.36</ele>
        <time>2018-12-23T10:19:14Z</time>
      </trkpt>
      <trkpt lat="45.66125" lon="6.81953">
        <ele>2434.41</ele>
        <time>2018-12-23T10:19:25Z</time>
      </trkpt>
      <trkpt lat="45.66126" lon="6.81952">
        <ele>2436.18</ele>
        <time>2018-12-23T10:19:59Z</time>
      </trkpt>
      <trkpt lat="45.66125" lon="6.81951">
        <ele>2435.21</ele>
        <time>2018-12-23T10:20:24Z</time>
      </trkpt>
      <trkpt lat="45.66124" lon="6.81954">
        <ele>2435.28</ele>
        <time>2018-12-23T10:21:06Z</time>
      </trkpt>
      <trkpt lat="45.66123" lon="6.81954">
        <ele>2434.75</ele>
        <time>2018-12-23T10:21:31Z</time>
      </trkpt>
      <trkpt lat="45.66123" lon="6.81954">
        <ele>2434.7</ele>
        <time>2018-12-23T10:22:04Z</time>
      </trkpt>
      <trkpt lat="45.66123" lon="6.81952">
        <ele>2433.89</ele>
        <time>2018-12-23T10:22:21Z</time>
      </trkpt>
      <trkpt lat="45.66122" lon="6.81951">
        <ele>2433.77</ele>
        <time>2018-12-23T10:23:13Z</time>
      </trkpt>
      <trkpt lat="45.66123" lon="6.8195">
        <ele>2434.47</ele>
        <time>2018-12-23T10:24:22Z</time>
      </trkpt>
      <trkpt lat="45.66124" lon="6.81952">
        <ele>2435.28</ele>
        <time>2018-12-23T10:24:50Z</time>
      </trkpt>
      <trkpt lat="45.66123" lon="6.81952">
        <ele>2435.16</ele>
        <time>2018-12-23T10:25:14Z</time>
      </trkpt>
      <trkpt lat="45.66123" lon="6.81952">
        <ele>2434.7</ele>
        <time>2018-12-23T10:25:43Z</time>
      </trkpt>
      <trkpt lat="45.66126" lon="6.81953">
        <ele>2435.95</ele>
        <time>2018-12-23T10:26:01Z</time>
      </trkpt>
      <trkpt lat="45.66126" lon="6.81954">
        <ele>2435.25</ele>
        <time>2018-12-23T10:26:35Z</time>
      </trkpt>
      <trkpt lat="45.66125" lon="6.81955">
        <ele>2436.25</ele>
        <time>2018-12-23T10:27:19Z</time>
      </trkpt>
      <trkpt lat="45.66127" lon="6.81955">
        <ele>2436.01</ele>
        <time>2018-12-23T10:27:38Z</time>
      </trkpt>
      <trkpt lat="45.66131" lon="6.81946">
        <ele>2435.18</ele>
        <time>2018-12-23T10:27:49Z</time>
      </trkpt>
      <trkpt lat="45.66132" lon="6.81944">
        <ele>2434.97</ele>
        <time>2018-12-23T10:27:51Z</time>
      </trkpt>
      <trkpt lat="45.66135" lon="6.81932">
        <ele>2435.89</ele>
        <time>2018-12-23T10:28:05Z</time>
      </trkpt>
      <trkpt lat="45.66138" lon="6.81924">
        <ele>2438.53</ele>
        <time>2018-12-23T10:28:21Z</time>
      </trkpt>
      <trkpt lat="45.66142" lon="6.81927">
        <ele>2439.22</ele>
        <time>2018-12-23T10:28:33Z</time>
      </trkpt>
      <trkpt lat="45.66146" lon="6.81935">
        <ele>2441.21</ele>
        <time>2018-12-23T10:28:46Z</time>
      </trkpt>
      <trkpt lat="45.66149" lon="6.81944">
        <ele>2444.09</ele>
        <time>2018-12-23T10:29:04Z</time>
      </trkpt>
      <trkpt lat="45.66149" lon="6.81945">
        <ele>2445.48</ele>
        <time>2018-12-23T10:29:22Z</time>
      </trkpt>
      <trkpt lat="45.66149" lon="6.81939">
        <ele>2446.3</ele>
        <time>2018-12-23T10:29:40Z</time>
      </trkpt>
      <trkpt lat="45.6615" lon="6.81929">
        <ele>2448.14</ele>
        <time>2018-12-23T10:29:55Z</time>
      </trkpt>
      <trkpt lat="45.6615" lon="6.81922">
        <ele>2450.05</ele>
        <time>2018-12-23T10:30:07Z</time>
      </trkpt>
      <trkpt lat="45.6615" lon="6.81913">
        <ele>2451.31</ele>
        <time>2018-12-23T10:30:21Z</time>
      </trkpt>
      <trkpt lat="45.6615" lon="6.819">
        <ele>2454.18</ele>
        <time>2018-12-23T10:30:36Z</time>
      </trkpt>
      <trkpt lat="45.66152" lon="6.81894">
        <ele>2455.29</ele>
        <time>2018-12-23T10:30:46Z</time>
      </trkpt>
      <trkpt lat="45.66157" lon="6.81899">
        <ele>2456.14</ele>
        <time>2018-12-23T10:30:58Z</time>
      </trkpt>
      <trkpt lat="45.66162" lon="6.81905">
        <ele>2458.25</ele>
        <time>2018-12-23T10:31:10Z</time>
      </trkpt>
      <trkpt lat="45.66167" lon="6.81914">
        <ele>2460.4</ele>
        <time>2018-12-23T10:31:24Z</time>
      </trkpt>
      <trkpt lat="45.66168" lon="6.81917">
        <ele>2462.51</ele>
        <time>2018-12-23T10:31:38Z</time>
      </trkpt>
      <trkpt lat="45.66169" lon="6.81911">
        <ele>2462.6</ele>
        <time>2018-12-23T10:31:50Z</time>
      </trkpt>
      <trkpt lat="45.6617" lon="6.81897">
        <ele>2465.41</ele>
        <time>2018-12-23T10:32:10Z</time>
      </trkpt>
      <trkpt lat="45.66171" lon="6.81887">
        <ele>2467.67</ele>
        <time>2018-12-23T10:32:25Z</time>
      </trkpt>
      <trkpt lat="45.66173" lon="6.8189">
        <ele>2468.96</ele>
        <time>2018-12-23T10:32:39Z</time>
      </trkpt>
      <trkpt lat="45.66179" lon="6.81897">
        <ele>2470.79</ele>
        <time>2018-12-23T10:32:53Z</time>
      </trkpt>
      <trkpt lat="45.66183" lon="6.81904">
        <ele>2472.67</ele>
        <time>2018-12-23T10:33:04Z</time>
      </trkpt>
      <trkpt lat="45.66188" lon="6.81905">
        <ele>2474.35</ele>
        <time>2018-12-23T10:33:18Z</time>
      </trkpt>
      <trkpt lat="45.66193" lon="6.81893">
        <ele>2476.84</ele>
        <time>2018-12-23T10:33:34Z</time>
      </trkpt>
      <trkpt lat="45.66197" lon="6.81884">
        <ele>2478.28</ele>
        <time>2018-12-23T10:33:46Z</time>
      </trkpt>
      <trkpt lat="45.66203" lon="6.81881">
        <ele>2480.53</ele>
        <time>2018-12-23T10:33:59Z</time>
      </trkpt>
      <trkpt lat="45.66209" lon="6.81884">
        <ele>2483.03</ele>
        <time>2018-12-23T10:34:13Z</time>
      </trkpt>
      <trkpt lat="45.66214" lon="6.81891">
        <ele>2485.74</ele>
        <time>2018-12-23T10:34:25Z</time>
      </trkpt>
      <trkpt lat="45.66216" lon="6.81898">
        <ele>2486.76</ele>
        <time>2018-12-23T10:34:37Z</time>
      </trkpt>
      <trkpt lat="45.66221" lon="6.8191">
        <ele>2489.78</ele>
        <time>2018-12-23T10:34:56Z</time>
      </trkpt>
      <trkpt lat="45.66226" lon="6.81917">
        <ele>2492.86</ele>
        <time>2018-12-23T10:35:12Z</time>
      </trkpt>
      <trkpt lat="45.66223" lon="6.81919">
        <ele>2493.49</ele>
        <time>2018-12-23T10:35:41Z</time>
      </trkpt>
      <trkpt lat="45.66226" lon="6.81921">
        <ele>2493.19</ele>
        <time>2018-12-23T10:36:05Z</time>
      </trkpt>
      <trkpt lat="45.66234" lon="6.81927">
        <ele>2493.83</ele>
        <time>2018-12-23T10:36:17Z</time>
      </trkpt>
      <trkpt lat="45.66246" lon="6.81935">
        <ele>2496.28</ele>
        <time>2018-12-23T10:36:36Z</time>
      </trkpt>
      <trkpt lat="45.66253" lon="6.81941">
        <ele>2499.33</ele>
        <time>2018-12-23T10:36:51Z</time>
      </trkpt>
      <trkpt lat="45.66262" lon="6.81947">
        <ele>2502.08</ele>
        <time>2018-12-23T10:37:10Z</time>
      </trkpt>
      <trkpt lat="45.66266" lon="6.81953">
        <ele>2504.38</ele>
        <time>2018-12-23T10:37:24Z</time>
      </trkpt>
      <trkpt lat="45.66266" lon="6.81958">
        <ele>2507.14</ele>
        <time>2018-12-23T10:37:40Z</time>
      </trkpt>
      <trkpt lat="45.66267" lon="6.81954">
        <ele>2507.95</ele>
        <time>2018-12-23T10:37:59Z</time>
      </trkpt>
      <trkpt lat="45.66269" lon="6.8194">
        <ele>2509.84</ele>
        <time>2018-12-23T10:38:17Z</time>
      </trkpt>
      <trkpt lat="45.66268" lon="6.8193">
        <ele>2512.95</ele>
        <time>2018-12-23T10:38:33Z</time>
      </trkpt>
      <trkpt lat="45.66268" lon="6.81919">
        <ele>2515.28</ele>
        <time>2018-12-23T10:38:51Z</time>
      </trkpt>
      <trkpt lat="45.66267" lon="6.81909">
        <ele>2516.61</ele>
        <time>2018-12-23T10:39:08Z</time>
      </trkpt>
      <trkpt lat="45.66268" lon="6.81908">
        <ele>2518.98</ele>
        <time>2018-12-23T10:39:22Z</time>
      </trkpt>
      <trkpt lat="45.66268" lon="6.81907">
        <ele>2519.71</ele>
        <time>2018-12-23T10:39:35Z</time>
      </trkpt>
      <trkpt lat="45.66266" lon="6.81907">
        <ele>2520.18</ele>
        <time>2018-12-23T10:40:02Z</time>
      </trkpt>
      <trkpt lat="45.6627" lon="6.81908">
        <ele>2519.4</ele>
        <time>2018-12-23T10:40:32Z</time>
      </trkpt>
      <trkpt lat="45.66272" lon="6.81909">
        <ele>2521.4</ele>
        <time>2018-12-23T10:40:46Z</time>
      </trkpt>
      <trkpt lat="45.66272" lon="6.81902">
        <ele>2522.03</ele>
        <time>2018-12-23T10:41:05Z</time>
      </trkpt>
      <trkpt lat="45.66271" lon="6.81901">
        <ele>2523.13</ele>
        <time>2018-12-23T10:41:26Z</time>
      </trkpt>
      <trkpt lat="45.66273" lon="6.81901">
        <ele>2523.05</ele>
        <time>2018-12-23T10:41:45Z</time>
      </trkpt>
      <trkpt lat="45.66272" lon="6.81902">
        <ele>2523.21</ele>
        <time>2018-12-23T10:42:11Z</time>
      </trkpt>
      <trkpt lat="45.66271" lon="6.81901">
        <ele>2522.66</ele>
        <time>2018-12-23T10:42:39Z</time>
      </trkpt>
      <trkpt lat="45.66271" lon="6.81901">
        <ele>2523.24</ele>
        <time>2018-12-23T10:42:59Z</time>
      </trkpt>
      <trkpt lat="45.66271" lon="6.819">
        <ele>2522.97</ele>
        <time>2018-12-23T10:43:18Z</time>
      </trkpt>
      <trkpt lat="45.6627" lon="6.819">
        <ele>2523.24</ele>
        <time>2018-12-23T10:43:37Z</time>
      </trkpt>
      <trkpt lat="45.6627" lon="6.81901">
        <ele>2523</ele>
        <time>2018-12-23T10:44:01Z</time>
      </trkpt>
      <trkpt lat="45.6627" lon="6.81901">
        <ele>2523.6</ele>
        <time>2018-12-23T10:44:25Z</time>
      </trkpt>
      <trkpt lat="45.66269" lon="6.81901">
        <ele>2524.08</ele>
        <time>2018-12-23T10:44:50Z</time>
      </trkpt>
      <trkpt lat="45.66269" lon="6.81899">
        <ele>2523.25</ele>
        <time>2018-12-23T10:45:06Z</time>
      </trkpt>
      <trkpt lat="45.6627" lon="6.819">
        <ele>2523.35</ele>
        <time>2018-12-23T10:46:02Z</time>
      </trkpt>
      <trkpt lat="45.6627" lon="6.819">
        <ele>2523.04</ele>
        <time>2018-12-23T10:46:46Z</time>
      </trkpt>
      <trkpt lat="45.66271" lon="6.81899">
        <ele>2521.42</ele>
        <time>2018-12-23T10:47:09Z</time>
      </trkpt>
      <trkpt lat="45.66273" lon="6.81899">
        <ele>2522.25</ele>
        <time>2018-12-23T10:47:36Z</time>
      </trkpt>
      <trkpt lat="45.66269" lon="6.81901">
        <ele>2522</ele>
        <time>2018-12-23T10:48:04Z</time>
      </trkpt>
      <trkpt lat="45.66267" lon="6.81901">
        <ele>2522.51</ele>
        <time>2018-12-23T10:48:29Z</time>
      </trkpt>
      <trkpt lat="45.66267" lon="6.81901">
        <ele>2521.71</ele>
        <time>2018-12-23T10:48:53Z</time>
      </trkpt>
      <trkpt lat="45.6627" lon="6.81905">
        <ele>2523.46</ele>
        <time>2018-12-23T10:49:31Z</time>
      </trkpt>
      <trkpt lat="45.6627" lon="6.81906">
        <ele>2523.03</ele>
        <time>2018-12-23T10:49:52Z</time>
      </trkpt>
      <trkpt lat="45.6627" lon="6.81905">
        <ele>2522.32</ele>
        <time>2018-12-23T10:50:22Z</time>
      </trkpt>
      <trkpt lat="45.6627" lon="6.81904">
        <ele>2523</ele>
        <time>2018-12-23T10:50:47Z</time>
      </trkpt>
      <trkpt lat="45.66272" lon="6.81904">
        <ele>2522.97</ele>
        <time>2018-12-23T10:51:13Z</time>
      </trkpt>
      <trkpt lat="45.66273" lon="6.81901">
        <ele>2522.54</ele>
        <time>2018-12-23T10:51:50Z</time>
      </trkpt>
      <trkpt lat="45.66272" lon="6.81903">
        <ele>2523.33</ele>
        <time>2018-12-23T10:52:09Z</time>
      </trkpt>
      <trkpt lat="45.6627" lon="6.81902">
        <ele>2522.87</ele>
        <time>2018-12-23T10:52:30Z</time>
      </trkpt>
      <trkpt lat="45.66267" lon="6.81901">
        <ele>2523.77</ele>
        <time>2018-12-23T10:52:55Z</time>
      </trkpt>
      <trkpt lat="45.66269" lon="6.81903">
        <ele>2523.89</ele>
        <time>2018-12-23T10:53:15Z</time>
      </trkpt>
      <trkpt lat="45.66269" lon="6.81904">
        <ele>2523.62</ele>
        <time>2018-12-23T10:53:36Z</time>
      </trkpt>
      <trkpt lat="45.6627" lon="6.81904">
        <ele>2523.6</ele>
        <time>2018-12-23T10:54:00Z</time>
      </trkpt>
      <trkpt lat="45.66269" lon="6.81902">
        <ele>2524.33</ele>
        <time>2018-12-23T10:54:30Z</time>
      </trkpt>
      <trkpt lat="45.6627" lon="6.81901">
        <ele>2524.39</ele>
        <time>2018-12-23T10:54:54Z</time>
      </trkpt>
      <trkpt lat="45.6627" lon="6.81903">
        <ele>2525.12</ele>
        <time>2018-12-23T10:55:14Z</time>
      </trkpt>
      <trkpt lat="45.66268" lon="6.81903">
        <ele>2524.33</ele>
        <time>2018-12-23T10:55:46Z</time>
      </trkpt>
      <trkpt lat="45.66269" lon="6.81902">
        <ele>2524.79</ele>
        <time>2018-12-23T10:56:04Z</time>
      </trkpt>
      <trkpt lat="45.66269" lon="6.81901">
        <ele>2524.56</ele>
        <time>2018-12-23T10:56:33Z</time>
      </trkpt>
      <trkpt lat="45.6627" lon="6.81901">
        <ele>2523.02</ele>
        <time>2018-12-23T10:56:53Z</time>
      </trkpt>
      <trkpt lat="45.6627" lon="6.81903">
        <ele>2524.36</ele>
        <time>2018-12-23T10:57:13Z</time>
      </trkpt>
      <trkpt lat="45.66269" lon="6.81903">
        <ele>2524.22</ele>
        <time>2018-12-23T10:57:31Z</time>
      </trkpt>
      <trkpt lat="45.66268" lon="6.81908">
        <ele>2523.54</ele>
        <time>2018-12-23T10:57:48Z</time>
      </trkpt>
      <trkpt lat="45.66264" lon="6.81912">
        <ele>2523.07</ele>
        <time>2018-12-23T10:57:50Z</time>
      </trkpt>
      <trkpt lat="45.66264" lon="6.8194">
        <ele>2519.51</ele>
        <time>2018-12-23T10:57:55Z</time>
      </trkpt>
      <trkpt lat="45.66266" lon="6.8195">
        <ele>2515.98</ele>
        <time>2018-12-23T10:58:00Z</time>
      </trkpt>
      <trkpt lat="45.66266" lon="6.81948">
        <ele>2513.65</ele>
        <time>2018-12-23T10:58:24Z</time>
      </trkpt>
      <trkpt lat="45.66265" lon="6.81951">
        <ele>2514.02</ele>
        <time>2018-12-23T10:58:29Z</time>
      </trkpt>
      <trkpt lat="45.66258" lon="6.81953">
        <ele>2513.41</ele>
        <time>2018-12-23T10:58:35Z</time>
      </trkpt>
      <trkpt lat="45.66255" lon="6.8195">
        <ele>2513</ele>
        <time>2018-12-23T10:58:36Z</time>
      </trkpt>
      <trkpt lat="45.6624" lon="6.81932">
        <ele>2507.56</ele>
        <time>2018-12-23T10:58:40Z</time>
      </trkpt>
      <trkpt lat="45.66237" lon="6.81927">
        <ele>2503.72</ele>
        <time>2018-12-23T10:58:43Z</time>
      </trkpt>
      <trkpt lat="45.66237" lon="6.81926">
        <ele>2500.62</ele>
        <time>2018-12-23T10:58:48Z</time>
      </trkpt>
      <trkpt lat="45.66237" lon="6.81923">
        <ele>2499.33</ele>
        <time>2018-12-23T10:59:20Z</time>
      </trkpt>
      <trkpt lat="45.66236" lon="6.81922">
        <ele>2499.33</ele>
        <time>2018-12-23T11:00:08Z</time>
      </trkpt>
      <trkpt lat="45.66237" lon="6.81924">
        <ele>2499.56</ele>
        <time>2018-12-23T11:00:48Z</time>
      </trkpt>
      <trkpt lat="45.66239" lon="6.81925">
        <ele>2501.01</ele>
        <time>2018-12-23T11:01:31Z</time>
      </trkpt>
      <trkpt lat="45.66238" lon="6.81924">
        <ele>2500.62</ele>
        <time>2018-12-23T11:01:37Z</time>
      </trkpt>
      <trkpt lat="45.66231" lon="6.81918">
        <ele>2499.62</ele>
        <time>2018-12-23T11:01:40Z</time>
      </trkpt>
      <trkpt lat="45.66222" lon="6.81907">
        <ele>2497.49</ele>
        <time>2018-12-23T11:01:46Z</time>
      </trkpt>
      <trkpt lat="45.66212" lon="6.81889">
        <ele>2493.96</ele>
        <time>2018-12-23T11:01:51Z</time>
      </trkpt>
      <trkpt lat="45.66204" lon="6.81878">
        <ele>2490.92</ele>
        <time>2018-12-23T11:01:54Z</time>
      </trkpt>
      <trkpt lat="45.66191" lon="6.81873">
        <ele>2487.27</ele>
        <time>2018-12-23T11:01:58Z</time>
      </trkpt>
      <trkpt lat="45.66187" lon="6.81876">
        <ele>2484.2</ele>
        <time>2018-12-23T11:02:02Z</time>
      </trkpt>
      <trkpt lat="45.66187" lon="6.81876">
        <ele>2482.98</ele>
        <time>2018-12-23T11:02:05Z</time>
      </trkpt>
      <trkpt lat="45.66187" lon="6.81878">
        <ele>2481.95</ele>
        <time>2018-12-23T11:02:34Z</time>
      </trkpt>
      <trkpt lat="45.66185" lon="6.81882">
        <ele>2482.44</ele>
        <time>2018-12-23T11:02:53Z</time>
      </trkpt>
      <trkpt lat="45.66171" lon="6.819">
        <ele>2480.84</ele>
        <time>2018-12-23T11:02:59Z</time>
      </trkpt>
      <trkpt lat="45.66168" lon="6.81902">
        <ele>2480.06</ele>
        <time>2018-12-23T11:03:00Z</time>
      </trkpt>
      <trkpt lat="45.66154" lon="6.81912">
        <ele>2473.97</ele>
        <time>2018-12-23T11:03:05Z</time>
      </trkpt>
      <trkpt lat="45.66149" lon="6.81915">
        <ele>2468.92</ele>
        <time>2018-12-23T11:03:07Z</time>
      </trkpt>
      <trkpt lat="45.66144" lon="6.81916">
        <ele>2465.46</ele>
        <time>2018-12-23T11:03:09Z</time>
      </trkpt>
      <trkpt lat="45.66139" lon="6.81918">
        <ele>2461.67</ele>
        <time>2018-12-23T11:03:11Z</time>
      </trkpt>
      <trkpt lat="45.66138" lon="6.81918">
        <ele>2458.11</ele>
        <time>2018-12-23T11:03:13Z</time>
      </trkpt>
      <trkpt lat="45.66137" lon="6.81918">
        <ele>2453.89</ele>
        <time>2018-12-23T11:03:16Z</time>
      </trkpt>
      <trkpt lat="45.66137" lon="6.81917">
        <ele>2450.86</ele>
        <time>2018-12-23T11:03:20Z</time>
      </trkpt>
      <trkpt lat="45.66136" lon="6.81917">
        <ele>2449.67</ele>
        <time>2018-12-23T11:03:23Z</time>
      </trkpt>
      <trkpt lat="45.66134" lon="6.81928">
        <ele>2448.73</ele>
        <time>2018-12-23T11:03:26Z</time>
      </trkpt>
      <trkpt lat="45.66129" lon="6.81931">
        <ele>2445</ele>
        <time>2018-12-23T11:03:31Z</time>
      </trkpt>
      <trkpt lat="45.66121" lon="6.81934">
        <ele>2441.85</ele>
        <time>2018-12-23T11:03:34Z</time>
      </trkpt>
      <trkpt lat="45.66117" lon="6.81935">
        <ele>2440.67</ele>
        <time>2018-12-23T11:03:35Z</time>
      </trkpt>
      <trkpt lat="45.6611" lon="6.81939">
        <ele>2436.1</ele>
        <time>2018-12-23T11:03:39Z</time>
      </trkpt>
      <trkpt lat="45.66109" lon="6.8194">
        <ele>2435.69</ele>
        <time>2018-12-23T11:03:53Z</time>
      </trkpt>
      <trkpt lat="45.6611" lon="6.81938">
        <ele>2436.22</ele>
        <time>2018-12-23T11:04:20Z</time>
      </trkpt>
      <trkpt lat="45.66108" lon="6.81936">
        <ele>2435.67</ele>
        <time>2018-12-23T11:04:31Z</time>
      </trkpt>
      <trkpt lat="45.66108" lon="6.81933">
        <ele>2434.78</ele>
        <time>2018-12-23T11:04:42Z</time>
      </trkpt>
      <trkpt lat="45.66109" lon="6.81931">
        <ele>2434.79</ele>
        <time>2018-12-23T11:05:11Z</time>
      </trkpt>
      <trkpt lat="45.66108" lon="6.81932">
        <ele>2434.43</ele>
        <time>2018-12-23T11:05:49Z</time>
      </trkpt>
      <trkpt lat="45.66111" lon="6.81932">
        <ele>2434.29</ele>
        <time>2018-12-23T11:06:17Z</time>
      </trkpt>
      <trkpt lat="45.6611" lon="6.81928">
        <ele>2434.86</ele>
        <time>2018-12-23T11:06:30Z</time>
      </trkpt>
      <trkpt lat="45.66109" lon="6.8192">
        <ele>2434.59</ele>
        <time>2018-12-23T11:06:32Z</time>
      </trkpt>
      <trkpt lat="45.66109" lon="6.81901">
        <ele>2433.37</ele>
        <time>2018-12-23T11:06:35Z</time>
      </trkpt>
      <trkpt lat="45.661" lon="6.81894">
        <ele>2430.78</ele>
        <time>2018-12-23T11:06:39Z</time>
      </trkpt>
      <trkpt lat="45.66097" lon="6.81894">
        <ele>2426.81</ele>
        <time>2018-12-23T11:06:43Z</time>
      </trkpt>
      <trkpt lat="45.66096" lon="6.81894">
        <ele>2423.6</ele>
        <time>2018-12-23T11:06:48Z</time>
      </trkpt>
      <trkpt lat="45.66096" lon="6.81893">
        <ele>2422.29</ele>
        <time>2018-12-23T11:07:13Z</time>
      </trkpt>
      <trkpt lat="45.66088" lon="6.81886">
        <ele>2420.66</ele>
        <time>2018-12-23T11:07:19Z</time>
      </trkpt>
      <trkpt lat="45.66087" lon="6.81886">
        <ele>2417.64</ele>
        <time>2018-12-23T11:07:23Z</time>
      </trkpt>
      <trkpt lat="45.66086" lon="6.81885">
        <ele>2416.57</ele>
        <time>2018-12-23T11:07:25Z</time>
      </trkpt>
      <trkpt lat="45.66078" lon="6.81882">
        <ele>2414.46</ele>
        <time>2018-12-23T11:07:30Z</time>
      </trkpt>
      <trkpt lat="45.66071" lon="6.81873">
        <ele>2410.72</ele>
        <time>2018-12-23T11:07:34Z</time>
      </trkpt>
      <trkpt lat="45.66065" lon="6.81867">
        <ele>2405.82</ele>
        <time>2018-12-23T11:07:37Z</time>
      </trkpt>
      <trkpt lat="45.66063" lon="6.81866">
        <ele>2405.82</ele>
        <time>2018-12-23T11:07:38Z</time>
      </trkpt>
      <trkpt lat="45.66058" lon="6.81864">
        <ele>2401.54</ele>
        <time>2018-12-23T11:07:40Z</time>
      </trkpt>
      <trkpt lat="45.66049" lon="6.81866">
        <ele>2397.13</ele>
        <time>2018-12-23T11:07:43Z</time>
      </trkpt>
      <trkpt lat="45.66043" lon="6.8186">
        <ele>2393.4</ele>
        <time>2018-12-23T11:07:46Z</time>
      </trkpt>
      <trkpt lat="45.66039" lon="6.81857">
        <ele>2389.28</ele>
        <time>2018-12-23T11:07:49Z</time>
      </trkpt>
      <trkpt lat="45.66032" lon="6.81851">
        <ele>2386.02</ele>
        <time>2018-12-23T11:07:52Z</time>
      </trkpt>
      <trkpt lat="45.66026" lon="6.81844">
        <ele>2382.05</ele>
        <time>2018-12-23T11:07:55Z</time>
      </trkpt>
      <trkpt lat="45.66021" lon="6.81835">
        <ele>2377.96</ele>
        <time>2018-12-23T11:07:58Z</time>
      </trkpt>
      <trkpt lat="45.66016" lon="6.81828">
        <ele>2372.46</ele>
        <time>2018-12-23T11:08:01Z</time>
      </trkpt>
      <trkpt lat="45.66014" lon="6.81825">
        <ele>2372.46</ele>
        <time>2018-12-23T11:08:02Z</time>
      </trkpt>
      <trkpt lat="45.66011" lon="6.81816">
        <ele>2368.17</ele>
        <time>2018-12-23T11:08:04Z</time>
      </trkpt>
      <trkpt lat="45.65999" lon="6.81817">
        <ele>2363.84</ele>
        <time>2018-12-23T11:08:07Z</time>
      </trkpt>
      <trkpt lat="45.65995" lon="6.81815">
        <ele>2360.71</ele>
        <time>2018-12-23T11:08:09Z</time>
      </trkpt>
      <trkpt lat="45.65989" lon="6.81813">
        <ele>2356.43</ele>
        <time>2018-12-23T11:08:12Z</time>
      </trkpt>
      <trkpt lat="45.65989" lon="6.81812">
        <ele>2353.2</ele>
        <time>2018-12-23T11:08:15Z</time>
      </trkpt>
      <trkpt lat="45.65989" lon="6.81814">
        <ele>2350.16</ele>
        <time>2018-12-23T11:08:24Z</time>
      </trkpt>
      <trkpt lat="45.65988" lon="6.81812">
        <ele>2349.74</ele>
        <time>2018-12-23T11:08:39Z</time>
      </trkpt>
      <trkpt lat="45.65985" lon="6.81793">
        <ele>2347.6</ele>
        <time>2018-12-23T11:08:45Z</time>
      </trkpt>
      <trkpt lat="45.65975" lon="6.81782">
        <ele>2343.72</ele>
        <time>2018-12-23T11:08:49Z</time>
      </trkpt>
      <trkpt lat="45.65971" lon="6.81774">
        <ele>2339.78</ele>
        <time>2018-12-23T11:08:52Z</time>
      </trkpt>
      <trkpt lat="45.65965" lon="6.81765">
        <ele>2336.19</ele>
        <time>2018-12-23T11:08:55Z</time>
      </trkpt>
      <trkpt lat="45.65959" lon="6.81758">
        <ele>2332.4</ele>
        <time>2018-12-23T11:08:58Z</time>
      </trkpt>
      <trkpt lat="45.65951" lon="6.81745">
        <ele>2326.67</ele>
        <time>2018-12-23T11:09:01Z</time>
      </trkpt>
      <trkpt lat="45.65942" lon="6.81728">
        <ele>2320.45</ele>
        <time>2018-12-23T11:09:06Z</time>
      </trkpt>
      <trkpt lat="45.6594" lon="6.81721">
        <ele>2319.16</ele>
        <time>2018-12-23T11:09:07Z</time>
      </trkpt>
      <trkpt lat="45.6594" lon="6.81707">
        <ele>2314.31</ele>
        <time>2018-12-23T11:09:11Z</time>
      </trkpt>
      <trkpt lat="45.65939" lon="6.81707">
        <ele>2311.28</ele>
        <time>2018-12-23T11:09:18Z</time>
      </trkpt>
      <trkpt lat="45.65938" lon="6.81706">
        <ele>2310.8</ele>
        <time>2018-12-23T11:09:23Z</time>
      </trkpt>
      <trkpt lat="45.65932" lon="6.81694">
        <ele>2309.87</ele>
        <time>2018-12-23T11:09:27Z</time>
      </trkpt>
      <trkpt lat="45.65925" lon="6.81676">
        <ele>2308.2</ele>
        <time>2018-12-23T11:09:30Z</time>
      </trkpt>
      <trkpt lat="45.65921" lon="6.81663">
        <ele>2306.64</ele>
        <time>2018-12-23T11:09:32Z</time>
      </trkpt>
      <trkpt lat="45.65905" lon="6.81651">
        <ele>2301.76</ele>
        <time>2018-12-23T11:09:37Z</time>
      </trkpt>
      <trkpt lat="45.65905" lon="6.81651">
        <ele>2298.57</ele>
        <time>2018-12-23T11:09:42Z</time>
      </trkpt>
      <trkpt lat="45.65905" lon="6.8165">
        <ele>2297.27</ele>
        <time>2018-12-23T11:10:03Z</time>
      </trkpt>
      <trkpt lat="45.65906" lon="6.81651">
        <ele>2297.46</ele>
        <time>2018-12-23T11:10:28Z</time>
      </trkpt>
      <trkpt lat="45.65905" lon="6.81651">
        <ele>2297.55</ele>
        <time>2018-12-23T11:10:50Z</time>
      </trkpt>
      <trkpt lat="45.65905" lon="6.8165">
        <ele>2297.55</ele>
        <time>2018-12-23T11:11:23Z</time>
      </trkpt>
      <trkpt lat="45.65907" lon="6.81649">
        <ele>2297.5</ele>
        <time>2018-12-23T11:11:53Z</time>
      </trkpt>
      <trkpt lat="45.65906" lon="6.81649">
        <ele>2297.07</ele>
        <time>2018-12-23T11:12:26Z</time>
      </trkpt>
      <trkpt lat="45.65905" lon="6.8165">
        <ele>2297.17</ele>
        <time>2018-12-23T11:12:32Z</time>
      </trkpt>
      <trkpt lat="45.65902" lon="6.8166">
        <ele>2297.05</ele>
        <time>2018-12-23T11:12:36Z</time>
      </trkpt>
      <trkpt lat="45.65899" lon="6.81679">
        <ele>2294.38</ele>
        <time>2018-12-23T11:12:43Z</time>
      </trkpt>
      <trkpt lat="45.65897" lon="6.81685">
        <ele>2292.78</ele>
        <time>2018-12-23T11:12:46Z</time>
      </trkpt>
      <trkpt lat="45.65882" lon="6.81682">
        <ele>2289.49</ele>
        <time>2018-12-23T11:12:51Z</time>
      </trkpt>
      <trkpt lat="45.6587" lon="6.81676">
        <ele>2282.77</ele>
        <time>2018-12-23T11:12:55Z</time>
      </trkpt>
      <trkpt lat="45.65866" lon="6.81677">
        <ele>2282.77</ele>
        <time>2018-12-23T11:12:56Z</time>
      </trkpt>
      <trkpt lat="45.65853" lon="6.81677">
        <ele>2275.68</ele>
        <time>2018-12-23T11:13:00Z</time>
      </trkpt>
      <trkpt lat="45.65843" lon="6.81663">
        <ele>2272.07</ele>
        <time>2018-12-23T11:13:04Z</time>
      </trkpt>
      <trkpt lat="45.6584" lon="6.81658">
        <ele>2270.12</ele>
        <time>2018-12-23T11:13:06Z</time>
      </trkpt>
      <trkpt lat="45.65831" lon="6.8165">
        <ele>2264.4</ele>
        <time>2018-12-23T11:13:11Z</time>
      </trkpt>
      <trkpt lat="45.6583" lon="6.8165">
        <ele>2261.29</ele>
        <time>2018-12-23T11:13:15Z</time>
      </trkpt>
      <trkpt lat="45.6583" lon="6.81651">
        <ele>2258.98</ele>
        <time>2018-12-23T11:13:38Z</time>
      </trkpt>
      <trkpt lat="45.65828" lon="6.8165">
        <ele>2258.9</ele>
        <time>2018-12-23T11:13:48Z</time>
      </trkpt>
      <trkpt lat="45.65818" lon="6.81644">
        <ele>2258.49</ele>
        <time>2018-12-23T11:13:53Z</time>
      </trkpt>
      <trkpt lat="45.65809" lon="6.81642">
        <ele>2256.52</ele>
        <time>2018-12-23T11:13:57Z</time>
      </trkpt>
      <trkpt lat="45.65802" lon="6.81644">
        <ele>2252.94</ele>
        <time>2018-12-23T11:14:03Z</time>
      </trkpt>
      <trkpt lat="45.65803" lon="6.81645">
        <ele>2250</ele>
        <time>2018-12-23T11:14:20Z</time>
      </trkpt>
      <trkpt lat="45.65804" lon="6.81646">
        <ele>2249.75</ele>
        <time>2018-12-23T11:14:46Z</time>
      </trkpt>
      <trkpt lat="45.65801" lon="6.81644">
        <ele>2250</ele>
        <time>2018-12-23T11:14:59Z</time>
      </trkpt>
      <trkpt lat="45.658" lon="6.81639">
        <ele>2248.86</ele>
        <time>2018-12-23T11:15:06Z</time>
      </trkpt>
      <trkpt lat="45.65799" lon="6.81637">
        <ele>2248.06</ele>
        <time>2018-12-23T11:15:30Z</time>
      </trkpt>
      <trkpt lat="45.65792" lon="6.8161">
        <ele>2245.75</ele>
        <time>2018-12-23T11:15:37Z</time>
      </trkpt>
      <trkpt lat="45.65786" lon="6.81599">
        <ele>2241.79</ele>
        <time>2018-12-23T11:15:41Z</time>
      </trkpt>
      <trkpt lat="45.65783" lon="6.81599">
        <ele>2238.6</ele>
        <time>2018-12-23T11:15:44Z</time>
      </trkpt>
      <trkpt lat="45.65782" lon="6.81598">
        <ele>2235.52</ele>
        <time>2018-12-23T11:15:49Z</time>
      </trkpt>
      <trkpt lat="45.65781" lon="6.81597">
        <ele>2234.64</ele>
        <time>2018-12-23T11:15:56Z</time>
      </trkpt>
      <trkpt lat="45.65773" lon="6.81581">
        <ele>2233.5</ele>
        <time>2018-12-23T11:16:01Z</time>
      </trkpt>
      <trkpt lat="45.65768" lon="6.81575">
        <ele>2230.21</ele>
        <time>2018-12-23T11:16:05Z</time>
      </trkpt>
      <trkpt lat="45.65758" lon="6.81569">
        <ele>2225.14</ele>
        <time>2018-12-23T11:16:11Z</time>
      </trkpt>
      <trkpt lat="45.65752" lon="6.81573">
        <ele>2222.31</ele>
        <time>2018-12-23T11:16:14Z</time>
      </trkpt>
      <trkpt lat="45.65736" lon="6.81557">
        <ele>2216.54</ele>
        <time>2018-12-23T11:16:20Z</time>
      </trkpt>
      <trkpt lat="45.65728" lon="6.8155">
        <ele>2212.85</ele>
        <time>2018-12-23T11:16:23Z</time>
      </trkpt>
      <trkpt lat="45.65719" lon="6.81543">
        <ele>2208.88</ele>
        <time>2018-12-23T11:16:26Z</time>
      </trkpt>
      <trkpt lat="45.65719" lon="6.81539">
        <ele>2205.01</ele>
        <time>2018-12-23T11:16:29Z</time>
      </trkpt>
      <trkpt lat="45.65719" lon="6.81538">
        <ele>2201.94</ele>
        <time>2018-12-23T11:16:33Z</time>
      </trkpt>
      <trkpt lat="45.65719" lon="6.81539">
        <ele>2199.59</ele>
        <time>2018-12-23T11:16:52Z</time>
      </trkpt>
      <trkpt lat="45.6572" lon="6.81538">
        <ele>2200.1</ele>
        <time>2018-12-23T11:17:13Z</time>
      </trkpt>
      <trkpt lat="45.65719" lon="6.81539">
        <ele>2200.18</ele>
        <time>2018-12-23T11:17:34Z</time>
      </trkpt>
      <trkpt lat="45.65718" lon="6.81538">
        <ele>2200.42</ele>
        <time>2018-12-23T11:18:00Z</time>
      </trkpt>
      <trkpt lat="45.65719" lon="6.81539">
        <ele>2200.47</ele>
        <time>2018-12-23T11:18:32Z</time>
      </trkpt>
      <trkpt lat="45.65719" lon="6.81537">
        <ele>2200.57</ele>
        <time>2018-12-23T11:18:55Z</time>
      </trkpt>
      <trkpt lat="45.65707" lon="6.81535">
        <ele>2199.45</ele>
        <time>2018-12-23T11:19:00Z</time>
      </trkpt>
      <trkpt lat="45.65697" lon="6.81522">
        <ele>2195.81</ele>
        <time>2018-12-23T11:19:05Z</time>
      </trkpt>
      <trkpt lat="45.65689" lon="6.81524">
        <ele>2192.72</ele>
        <time>2018-12-23T11:19:07Z</time>
      </trkpt>
      <trkpt lat="45.65682" lon="6.81527">
        <ele>2190.53</ele>
        <time>2018-12-23T11:19:09Z</time>
      </trkpt>
      <trkpt lat="45.65675" lon="6.81507">
        <ele>2186.36</ele>
        <time>2018-12-23T11:19:14Z</time>
      </trkpt>
      <trkpt lat="45.65673" lon="6.81504">
        <ele>2182.96</ele>
        <time>2018-12-23T11:19:18Z</time>
      </trkpt>
      <trkpt lat="45.65669" lon="6.81506">
        <ele>2180.72</ele>
        <time>2018-12-23T11:19:34Z</time>
      </trkpt>
      <trkpt lat="45.65658" lon="6.81513">
        <ele>2180.17</ele>
        <time>2018-12-23T11:19:38Z</time>
      </trkpt>
      <trkpt lat="45.65645" lon="6.81514">
        <ele>2176.54</ele>
        <time>2018-12-23T11:19:44Z</time>
      </trkpt>
      <trkpt lat="45.65646" lon="6.81512">
        <ele>2173.92</ele>
        <time>2018-12-23T11:20:00Z</time>
      </trkpt>
      <trkpt lat="45.65645" lon="6.81511">
        <ele>2173.53</ele>
        <time>2018-12-23T11:20:17Z</time>
      </trkpt>
      <trkpt lat="45.65638" lon="6.81506">
        <ele>2173.51</ele>
        <time>2018-12-23T11:20:20Z</time>
      </trkpt>
      <trkpt lat="45.65617" lon="6.81497">
        <ele>2169.95</ele>
        <time>2018-12-23T11:20:26Z</time>
      </trkpt>
      <trkpt lat="45.65606" lon="6.81493">
        <ele>2167.19</ele>
        <time>2018-12-23T11:20:29Z</time>
      </trkpt>
      <trkpt lat="45.65595" lon="6.81494">
        <ele>2163.06</ele>
        <time>2018-12-23T11:20:32Z</time>
      </trkpt>
      <trkpt lat="45.65586" lon="6.81487">
        <ele>2159.42</ele>
        <time>2018-12-23T11:20:35Z</time>
      </trkpt>
      <trkpt lat="45.65578" lon="6.81487">
        <ele>2156.84</ele>
        <time>2018-12-23T11:20:37Z</time>
      </trkpt>
      <trkpt lat="45.65567" lon="6.81485">
        <ele>2152.61</ele>
        <time>2018-12-23T11:20:40Z</time>
      </trkpt>
      <trkpt lat="45.65566" lon="6.81484">
        <ele>2148.44</ele>
        <time>2018-12-23T11:20:43Z</time>
      </trkpt>
      <trkpt lat="45.65566" lon="6.81484">
        <ele>2148.44</ele>
        <time>2018-12-23T11:20:44Z</time>
      </trkpt>
      <trkpt lat="45.65565" lon="6.81484">
        <ele>2146.69</ele>
        <time>2018-12-23T11:20:46Z</time>
      </trkpt>
      <trkpt lat="45.65558" lon="6.81481">
        <ele>2145.54</ele>
        <time>2018-12-23T11:20:49Z</time>
      </trkpt>
      <trkpt lat="45.65552" lon="6.81472">
        <ele>2143.08</ele>
        <time>2018-12-23T11:20:53Z</time>
      </trkpt>
      <trkpt lat="45.6556" lon="6.81443">
        <ele>2137.6</ele>
        <time>2018-12-23T11:20:58Z</time>
      </trkpt>
      <trkpt lat="45.65554" lon="6.81441">
        <ele>2134.58</ele>
        <time>2018-12-23T11:21:00Z</time>
      </trkpt>
      <trkpt lat="45.65534" lon="6.81446">
        <ele>2128.34</ele>
        <time>2018-12-23T11:21:05Z</time>
      </trkpt>
      <trkpt lat="45.6553" lon="6.81448">
        <ele>2125.07</ele>
        <time>2018-12-23T11:21:07Z</time>
      </trkpt>
      <trkpt lat="45.6553" lon="6.81448">
        <ele>2125.07</ele>
        <time>2018-12-23T11:21:08Z</time>
      </trkpt>
      <trkpt lat="45.6553" lon="6.81448">
        <ele>2121.96</ele>
        <time>2018-12-23T11:21:12Z</time>
      </trkpt>
      <trkpt lat="45.65529" lon="6.8145">
        <ele>2120.41</ele>
        <time>2018-12-23T11:21:29Z</time>
      </trkpt>
      <trkpt lat="45.65525" lon="6.81427">
        <ele>2119.78</ele>
        <time>2018-12-23T11:21:33Z</time>
      </trkpt>
      <trkpt lat="45.65523" lon="6.81416">
        <ele>2117.78</ele>
        <time>2018-12-23T11:21:35Z</time>
      </trkpt>
      <trkpt lat="45.65515" lon="6.81415">
        <ele>2113.55</ele>
        <time>2018-12-23T11:21:42Z</time>
      </trkpt>
      <trkpt lat="45.65514" lon="6.8142">
        <ele>2111.88</ele>
        <time>2018-12-23T11:22:08Z</time>
      </trkpt>
      <trkpt lat="45.65515" lon="6.81421">
        <ele>2111.78</ele>
        <time>2018-12-23T11:22:34Z</time>
      </trkpt>
      <trkpt lat="45.65513" lon="6.8142">
        <ele>2111.49</ele>
        <time>2018-12-23T11:23:00Z</time>
      </trkpt>
      <trkpt lat="45.65511" lon="6.81421">
        <ele>2111.4</ele>
        <time>2018-12-23T11:23:27Z</time>
      </trkpt>
      <trkpt lat="45.65514" lon="6.81418">
        <ele>2111.51</ele>
        <time>2018-12-23T11:23:55Z</time>
      </trkpt>
      <trkpt lat="45.65514" lon="6.81417">
        <ele>2111.17</ele>
        <time>2018-12-23T11:24:22Z</time>
      </trkpt>
      <trkpt lat="45.6551" lon="6.81422">
        <ele>2111.37</ele>
        <time>2018-12-23T11:24:45Z</time>
      </trkpt>
      <trkpt lat="45.65509" lon="6.81423">
        <ele>2111.35</ele>
        <time>2018-12-23T11:24:46Z</time>
      </trkpt>
      <trkpt lat="45.65496" lon="6.81428">
        <ele>2111.02</ele>
        <time>2018-12-23T11:24:50Z</time>
      </trkpt>
      <trkpt lat="45.65476" lon="6.8143">
        <ele>2107.11</ele>
        <time>2018-12-23T11:24:55Z</time>
      </trkpt>
      <trkpt lat="45.65468" lon="6.8143">
        <ele>2105.06</ele>
        <time>2018-12-23T11:24:57Z</time>
      </trkpt>
      <trkpt lat="45.65457" lon="6.81432">
        <ele>2102.17</ele>
        <time>2018-12-23T11:25:00Z</time>
      </trkpt>
      <trkpt lat="45.6545" lon="6.81411">
        <ele>2098.34</ele>
        <time>2018-12-23T11:25:05Z</time>
      </trkpt>
      <trkpt lat="45.6545" lon="6.81402">
        <ele>2094.62</ele>
        <time>2018-12-23T11:25:08Z</time>
      </trkpt>
      <trkpt lat="45.65443" lon="6.81402">
        <ele>2091.47</ele>
        <time>2018-12-23T11:25:11Z</time>
      </trkpt>
      <trkpt lat="45.65437" lon="6.81404">
        <ele>2088.17</ele>
        <time>2018-12-23T11:25:14Z</time>
      </trkpt>
      <trkpt lat="45.65432" lon="6.81397">
        <ele>2084.83</ele>
        <time>2018-12-23T11:25:18Z</time>
      </trkpt>
      <trkpt lat="45.65423" lon="6.81401">
        <ele>2082.41</ele>
        <time>2018-12-23T11:25:21Z</time>
      </trkpt>
      <trkpt lat="45.65418" lon="6.81393">
        <ele>2078.53</ele>
        <time>2018-12-23T11:25:25Z</time>
      </trkpt>
      <trkpt lat="45.65406" lon="6.81386">
        <ele>2074.84</ele>
        <time>2018-12-23T11:25:29Z</time>
      </trkpt>
      <trkpt lat="45.65388" lon="6.81389">
        <ele>2071.32</ele>
        <time>2018-12-23T11:25:32Z</time>
      </trkpt>
      <trkpt lat="45.65382" lon="6.81389">
        <ele>2070.08</ele>
        <time>2018-12-23T11:25:33Z</time>
      </trkpt>
      <trkpt lat="45.65362" lon="6.81384">
        <ele>2065.48</ele>
        <time>2018-12-23T11:25:37Z</time>
      </trkpt>
      <trkpt lat="45.65353" lon="6.81382">
        <ele>2063.34</ele>
        <time>2018-12-23T11:25:39Z</time>
      </trkpt>
      <trkpt lat="45.65332" lon="6.81377">
        <ele>2058.95</ele>
        <time>2018-12-23T11:25:44Z</time>
      </trkpt>
      <trkpt lat="45.65327" lon="6.81376">
        <ele>2058.29</ele>
        <time>2018-12-23T11:25:45Z</time>
      </trkpt>
      <trkpt lat="45.6531" lon="6.81378">
        <ele>2055.71</ele>
        <time>2018-12-23T11:25:49Z</time>
      </trkpt>
      <trkpt lat="45.65301" lon="6.81367">
        <ele>2052.36</ele>
        <time>2018-12-23T11:25:53Z</time>
      </trkpt>
      <trkpt lat="45.65294" lon="6.8136">
        <ele>2048.89</ele>
        <time>2018-12-23T11:25:56Z</time>
      </trkpt>
      <trkpt lat="45.65288" lon="6.81352">
        <ele>2045.66</ele>
        <time>2018-12-23T11:25:59Z</time>
      </trkpt>
      <trkpt lat="45.65279" lon="6.81341">
        <ele>2042.15</ele>
        <time>2018-12-23T11:26:02Z</time>
      </trkpt>
      <trkpt lat="45.65273" lon="6.81337">
        <ele>2039.08</ele>
        <time>2018-12-23T11:26:04Z</time>
      </trkpt>
      <trkpt lat="45.65272" lon="6.81325">
        <ele>2035.74</ele>
        <time>2018-12-23T11:26:06Z</time>
      </trkpt>
      <trkpt lat="45.65264" lon="6.81321">
        <ele>2032.18</ele>
        <time>2018-12-23T11:26:08Z</time>
      </trkpt>
      <trkpt lat="45.65262" lon="6.81312">
        <ele>2028.49</ele>
        <time>2018-12-23T11:26:10Z</time>
      </trkpt>
      <trkpt lat="45.65256" lon="6.81305">
        <ele>2024.87</ele>
        <time>2018-12-23T11:26:12Z</time>
      </trkpt>
      <trkpt lat="45.65252" lon="6.81299">
        <ele>2020.97</ele>
        <time>2018-12-23T11:26:14Z</time>
      </trkpt>
      <trkpt lat="45.65253" lon="6.81288">
        <ele>2017.36</ele>
        <time>2018-12-23T11:26:16Z</time>
      </trkpt>
      <trkpt lat="45.65245" lon="6.81282">
        <ele>2014</ele>
        <time>2018-12-23T11:26:18Z</time>
      </trkpt>
      <trkpt lat="45.65241" lon="6.81281">
        <ele>2010.14</ele>
        <time>2018-12-23T11:26:19Z</time>
      </trkpt>
      <trkpt lat="45.65237" lon="6.8128">
        <ele>2010.14</ele>
        <time>2018-12-23T11:26:20Z</time>
      </trkpt>
      <trkpt lat="45.65234" lon="6.81279">
        <ele>2006.33</ele>
        <time>2018-12-23T11:26:21Z</time>
      </trkpt>
      <trkpt lat="45.65224" lon="6.81273">
        <ele>2002.27</ele>
        <time>2018-12-23T11:26:24Z</time>
      </trkpt>
      <trkpt lat="45.6522" lon="6.8127">
        <ele>2001.14</ele>
        <time>2018-12-23T11:26:25Z</time>
      </trkpt>
      <trkpt lat="45.65209" lon="6.81265">
        <ele>1998.88</ele>
        <time>2018-12-23T11:26:27Z</time>
      </trkpt>
      <trkpt lat="45.6519" lon="6.81262">
        <ele>1994.62</ele>
        <time>2018-12-23T11:26:31Z</time>
      </trkpt>
      <trkpt lat="45.6517" lon="6.81255">
        <ele>1991.33</ele>
        <time>2018-12-23T11:26:35Z</time>
      </trkpt>
      <trkpt lat="45.65154" lon="6.81259">
        <ele>1987.64</ele>
        <time>2018-12-23T11:26:39Z</time>
      </trkpt>
      <trkpt lat="45.65152" lon="6.81258">
        <ele>1985.39</ele>
        <time>2018-12-23T11:26:43Z</time>
      </trkpt>
      <trkpt lat="45.65136" lon="6.81242">
        <ele>1983.5</ele>
        <time>2018-12-23T11:26:48Z</time>
      </trkpt>
      <trkpt lat="45.65131" lon="6.81242">
        <ele>1982.69</ele>
        <time>2018-12-23T11:26:49Z</time>
      </trkpt>
      <trkpt lat="45.65121" lon="6.81249">
        <ele>1978.6</ele>
        <time>2018-12-23T11:26:53Z</time>
      </trkpt>
      <trkpt lat="45.65121" lon="6.8125">
        <ele>1975.55</ele>
        <time>2018-12-23T11:27:00Z</time>
      </trkpt>
      <trkpt lat="45.6512" lon="6.8125">
        <ele>1974.94</ele>
        <time>2018-12-23T11:27:21Z</time>
      </trkpt>
      <trkpt lat="45.65118" lon="6.8125">
        <ele>1974.74</ele>
        <time>2018-12-23T11:27:50Z</time>
      </trkpt>
      <trkpt lat="45.6512" lon="6.8125">
        <ele>1975.02</ele>
        <time>2018-12-23T11:28:15Z</time>
      </trkpt>
      <trkpt lat="45.65119" lon="6.81246">
        <ele>1974.22</ele>
        <time>2018-12-23T11:28:23Z</time>
      </trkpt>
      <trkpt lat="45.65116" lon="6.81239">
        <ele>1972.85</ele>
        <time>2018-12-23T11:28:30Z</time>
      </trkpt>
      <trkpt lat="45.65114" lon="6.81242">
        <ele>1971.77</ele>
        <time>2018-12-23T11:28:55Z</time>
      </trkpt>
      <trkpt lat="45.65116" lon="6.81241">
        <ele>1971.73</ele>
        <time>2018-12-23T11:29:22Z</time>
      </trkpt>
      <trkpt lat="45.65113" lon="6.81239">
        <ele>1971.94</ele>
        <time>2018-12-23T11:29:47Z</time>
      </trkpt>
      <trkpt lat="45.65114" lon="6.81244">
        <ele>1971.9</ele>
        <time>2018-12-23T11:30:10Z</time>
      </trkpt>
      <trkpt lat="45.65114" lon="6.81244">
        <ele>1971.67</ele>
        <time>2018-12-23T11:30:36Z</time>
      </trkpt>
      <trkpt lat="45.65113" lon="6.81242">
        <ele>1971.57</ele>
        <time>2018-12-23T11:31:00Z</time>
      </trkpt>
      <trkpt lat="45.65113" lon="6.81243">
        <ele>1971.99</ele>
        <time>2018-12-23T11:31:26Z</time>
      </trkpt>
      <trkpt lat="45.65115" lon="6.81241">
        <ele>1972.01</ele>
        <time>2018-12-23T11:31:49Z</time>
      </trkpt>
      <trkpt lat="45.65115" lon="6.81241">
        <ele>1971.63</ele>
        <time>2018-12-23T11:32:33Z</time>
      </trkpt>
      <trkpt lat="45.65114" lon="6.81242">
        <ele>1971.59</ele>
        <time>2018-12-23T11:32:54Z</time>
      </trkpt>
      <trkpt lat="45.65102" lon="6.81244">
        <ele>1971.28</ele>
        <time>2018-12-23T11:32:58Z</time>
      </trkpt>
      <trkpt lat="45.65089" lon="6.81242">
        <ele>1969.99</ele>
        <time>2018-12-23T11:33:01Z</time>
      </trkpt>
      <trkpt lat="45.65067" lon="6.81239">
        <ele>1965.93</ele>
        <time>2018-12-23T11:33:05Z</time>
      </trkpt>
      <trkpt lat="45.65052" lon="6.81238">
        <ele>1961.68</ele>
        <time>2018-12-23T11:33:08Z</time>
      </trkpt>
      <trkpt lat="45.65047" lon="6.81241">
        <ele>1960.1</ele>
        <time>2018-12-23T11:33:09Z</time>
      </trkpt>
      <trkpt lat="45.65028" lon="6.81246">
        <ele>1953.86</ele>
        <time>2018-12-23T11:33:14Z</time>
      </trkpt>
      <trkpt lat="45.65019" lon="6.81245">
        <ele>1951.56</ele>
        <time>2018-12-23T11:33:16Z</time>
      </trkpt>
      <trkpt lat="45.65" lon="6.81247">
        <ele>1945.67</ele>
        <time>2018-12-23T11:33:20Z</time>
      </trkpt>
      <trkpt lat="45.64997" lon="6.81251">
        <ele>1942.44</ele>
        <time>2018-12-23T11:33:21Z</time>
      </trkpt>
      <trkpt lat="45.6499" lon="6.81255">
        <ele>1939.27</ele>
        <time>2018-12-23T11:33:23Z</time>
      </trkpt>
      <trkpt lat="45.64979" lon="6.81255">
        <ele>1935.3</ele>
        <time>2018-12-23T11:33:26Z</time>
      </trkpt>
      <trkpt lat="45.64967" lon="6.81253">
        <ele>1931.14</ele>
        <time>2018-12-23T11:33:29Z</time>
      </trkpt>
      <trkpt lat="45.64958" lon="6.8124">
        <ele>1926.83</ele>
        <time>2018-12-23T11:33:32Z</time>
      </trkpt>
      <trkpt lat="45.64943" lon="6.8125">
        <ele>1922.52</ele>
        <time>2018-12-23T11:33:35Z</time>
      </trkpt>
      <trkpt lat="45.64935" lon="6.81242">
        <ele>1920.06</ele>
        <time>2018-12-23T11:33:37Z</time>
      </trkpt>
      <trkpt lat="45.64922" lon="6.81227">
        <ele>1914.44</ele>
        <time>2018-12-23T11:33:41Z</time>
      </trkpt>
      <trkpt lat="45.64906" lon="6.81221">
        <ele>1910.39</ele>
        <time>2018-12-23T11:33:44Z</time>
      </trkpt>
      <trkpt lat="45.64901" lon="6.81221">
        <ele>1909.2</ele>
        <time>2018-12-23T11:33:45Z</time>
      </trkpt>
      <trkpt lat="45.64884" lon="6.81212">
        <ele>1903.09</ele>
        <time>2018-12-23T11:33:49Z</time>
      </trkpt>
      <trkpt lat="45.64882" lon="6.81189">
        <ele>1898.95</ele>
        <time>2018-12-23T11:33:52Z</time>
      </trkpt>
      <trkpt lat="45.6487" lon="6.81178">
        <ele>1895.21</ele>
        <time>2018-12-23T11:33:55Z</time>
      </trkpt>
      <trkpt lat="45.64854" lon="6.81188">
        <ele>1891.7</ele>
        <time>2018-12-23T11:33:59Z</time>
      </trkpt>
      <trkpt lat="45.64838" lon="6.81181">
        <ele>1888.12</ele>
        <time>2018-12-23T11:34:04Z</time>
      </trkpt>
      <trkpt lat="45.64837" lon="6.81173">
        <ele>1884.53</ele>
        <time>2018-12-23T11:34:07Z</time>
      </trkpt>
      <trkpt lat="45.64838" lon="6.81172">
        <ele>1881.52</ele>
        <time>2018-12-23T11:34:18Z</time>
      </trkpt>
      <trkpt lat="45.64838" lon="6.8117">
        <ele>1880.98</ele>
        <time>2018-12-23T11:34:47Z</time>
      </trkpt>
      <trkpt lat="45.64836" lon="6.81169">
        <ele>1880.98</ele>
        <time>2018-12-23T11:35:12Z</time>
      </trkpt>
      <trkpt lat="45.64815" lon="6.81164">
        <ele>1879.91</ele>
        <time>2018-12-23T11:35:20Z</time>
      </trkpt>
      <trkpt lat="45.64804" lon="6.81163">
        <ele>1878.91</ele>
        <time>2018-12-23T11:35:22Z</time>
      </trkpt>
      <trkpt lat="45.64792" lon="6.81155">
        <ele>1876.77</ele>
        <time>2018-12-23T11:35:24Z</time>
      </trkpt>
      <trkpt lat="45.64773" lon="6.81153">
        <ele>1871.81</ele>
        <time>2018-12-23T11:35:27Z</time>
      </trkpt>
      <trkpt lat="45.64762" lon="6.81152">
        <ele>1868.73</ele>
        <time>2018-12-23T11:35:29Z</time>
      </trkpt>
      <trkpt lat="45.64749" lon="6.81149">
        <ele>1866.53</ele>
        <time>2018-12-23T11:35:31Z</time>
      </trkpt>
      <trkpt lat="45.64728" lon="6.81142">
        <ele>1862.5</ele>
        <time>2018-12-23T11:35:35Z</time>
      </trkpt>
      <trkpt lat="45.64711" lon="6.81118">
        <ele>1856.98</ele>
        <time>2018-12-23T11:35:39Z</time>
      </trkpt>
      <trkpt lat="45.64694" lon="6.81106">
        <ele>1852.12</ele>
        <time>2018-12-23T11:35:44Z</time>
      </trkpt>
      <trkpt lat="45.64695" lon="6.81105">
        <ele>1848.76</ele>
        <time>2018-12-23T11:35:49Z</time>
      </trkpt>
      <trkpt lat="45.64695" lon="6.81107">
        <ele>1846.89</ele>
        <time>2018-12-23T11:36:21Z</time>
      </trkpt>
      <trkpt lat="45.64695" lon="6.81108">
        <ele>1847.28</ele>
        <time>2018-12-23T11:36:59Z</time>
      </trkpt>
      <trkpt lat="45.64695" lon="6.81107">
        <ele>1847.23</ele>
        <time>2018-12-23T11:37:20Z</time>
      </trkpt>
      <trkpt lat="45.64695" lon="6.81105">
        <ele>1847.26</ele>
        <time>2018-12-23T11:37:55Z</time>
      </trkpt>
      <trkpt lat="45.64694" lon="6.81105">
        <ele>1847.11</ele>
        <time>2018-12-23T11:38:28Z</time>
      </trkpt>
      <trkpt lat="45.64694" lon="6.81106">
        <ele>1847.23</ele>
        <time>2018-12-23T11:39:01Z</time>
      </trkpt>
      <trkpt lat="45.64695" lon="6.81106">
        <ele>1846.87</ele>
        <time>2018-12-23T11:39:52Z</time>
      </trkpt>
      <trkpt lat="45.64694" lon="6.81101">
        <ele>1846.49</ele>
        <time>2018-12-23T11:40:21Z</time>
      </trkpt>
      <trkpt lat="45.64694" lon="6.811">
        <ele>1846.46</ele>
        <time>2018-12-23T11:40:22Z</time>
      </trkpt>
      <trkpt lat="45.64693" lon="6.81093">
        <ele>1846.31</ele>
        <time>2018-12-23T11:40:25Z</time>
      </trkpt>
      <trkpt lat="45.64692" lon="6.81085">
        <ele>1846.1</ele>
        <time>2018-12-23T11:40:27Z</time>
      </trkpt>
      <trkpt lat="45.64677" lon="6.81069">
        <ele>1844.62</ele>
        <time>2018-12-23T11:40:32Z</time>
      </trkpt>
      <trkpt lat="45.64674" lon="6.81049">
        <ele>1841.9</ele>
        <time>2018-12-23T11:40:36Z</time>
      </trkpt>
      <trkpt lat="45.64678" lon="6.8103">
        <ele>1838.65</ele>
        <time>2018-12-23T11:40:40Z</time>
      </trkpt>
      <trkpt lat="45.6467" lon="6.81016">
        <ele>1835.32</ele>
        <time>2018-12-23T11:40:44Z</time>
      </trkpt>
      <trkpt lat="45.64666" lon="6.81012">
        <ele>1832.48</ele>
        <time>2018-12-23T11:40:48Z</time>
      </trkpt>
      <trkpt lat="45.64667" lon="6.81015">
        <ele>1829.79</ele>
        <time>2018-12-23T11:41:07Z</time>
      </trkpt>
      <trkpt lat="45.64666" lon="6.81015">
        <ele>1829.49</ele>
        <time>2018-12-23T11:41:14Z</time>
      </trkpt>
      <trkpt lat="45.64649" lon="6.80996">
        <ele>1828.68</ele>
        <time>2018-12-23T11:41:20Z</time>
      </trkpt>
      <trkpt lat="45.64635" lon="6.80953">
        <ele>1824.41</ele>
        <time>2018-12-23T11:41:25Z</time>
      </trkpt>
      <trkpt lat="45.64626" lon="6.80926">
        <ele>1821.18</ele>
        <time>2018-12-23T11:41:28Z</time>
      </trkpt>
      <trkpt lat="45.64623" lon="6.80916">
        <ele>1819.32</ele>
        <time>2018-12-23T11:41:29Z</time>
      </trkpt>
      <trkpt lat="45.64611" lon="6.80896">
        <ele>1815.3</ele>
        <time>2018-12-23T11:41:33Z</time>
      </trkpt>
      <trkpt lat="45.64609" lon="6.80886">
        <ele>1813.76</ele>
        <time>2018-12-23T11:41:35Z</time>
      </trkpt>
      <trkpt lat="45.64608" lon="6.80879">
        <ele>1812.2</ele>
        <time>2018-12-23T11:41:37Z</time>
      </trkpt>
      <trkpt lat="45.64598" lon="6.8087">
        <ele>1808.72</ele>
        <time>2018-12-23T11:41:47Z</time>
      </trkpt>
      <trkpt lat="45.64597" lon="6.80871">
        <ele>1808.31</ele>
        <time>2018-12-23T11:41:49Z</time>
      </trkpt>
      <trkpt lat="45.64593" lon="6.80875">
        <ele>1807.01</ele>
        <time>2018-12-23T11:41:59Z</time>
      </trkpt>
      <trkpt lat="45.64592" lon="6.80878">
        <ele>1806.17</ele>
        <time>2018-12-23T11:42:18Z</time>
      </trkpt>
      <trkpt lat="45.64591" lon="6.80878">
        <ele>1806.98</ele>
        <time>2018-12-23T11:42:36Z</time>
      </trkpt>
      <trkpt lat="45.64591" lon="6.80876">
        <ele>1806.56</ele>
        <time>2018-12-23T11:42:57Z</time>
      </trkpt>
      <trkpt lat="45.6459" lon="6.80878">
        <ele>1806.6</ele>
        <time>2018-12-23T11:43:11Z</time>
      </trkpt>
      <trkpt lat="45.64589" lon="6.80875">
        <ele>1806.35</ele>
        <time>2018-12-23T11:43:28Z</time>
      </trkpt>
      <trkpt lat="45.64588" lon="6.80875">
        <ele>1805.99</ele>
        <time>2018-12-23T11:43:48Z</time>
      </trkpt>
      <trkpt lat="45.64589" lon="6.80876">
        <ele>1805.87</ele>
        <time>2018-12-23T11:44:16Z</time>
      </trkpt>
      <trkpt lat="45.6459" lon="6.80873">
        <ele>1804.86</ele>
        <time>2018-12-23T11:44:33Z</time>
      </trkpt>
      <trkpt lat="45.6459" lon="6.80875">
        <ele>1804.65</ele>
        <time>2018-12-23T11:44:54Z</time>
      </trkpt>
      <trkpt lat="45.64591" lon="6.80875">
        <ele>1804.45</ele>
        <time>2018-12-23T11:45:24Z</time>
      </trkpt>
      <trkpt lat="45.64591" lon="6.80874">
        <ele>1803.97</ele>
        <time>2018-12-23T11:45:50Z</time>
      </trkpt>
      <trkpt lat="45.64592" lon="6.80872">
        <ele>1803.96</ele>
        <time>2018-12-23T11:46:16Z</time>
      </trkpt>
      <trkpt lat="45.6459" lon="6.80873">
        <ele>1803.79</ele>
        <time>2018-12-23T11:46:40Z</time>
      </trkpt>
      <trkpt lat="45.6459" lon="6.80872">
        <ele>1803.82</ele>
        <time>2018-12-23T11:47:03Z</time>
      </trkpt>
      <trkpt lat="45.6459" lon="6.80872">
        <ele>1803.75</ele>
        <time>2018-12-23T11:47:29Z</time>
      </trkpt>
      <trkpt lat="45.6459" lon="6.80871">
        <ele>1803.64</ele>
        <time>2018-12-23T11:48:42Z</time>
      </trkpt>
      <trkpt lat="45.64589" lon="6.8087">
        <ele>1803.78</ele>
        <time>2018-12-23T11:49:44Z</time>
      </trkpt>
      <trkpt lat="45.6459" lon="6.80869">
        <ele>1804.58</ele>
        <time>2018-12-23T11:50:54Z</time>
      </trkpt>
      <trkpt lat="45.6459" lon="6.80869">
        <ele>1804.68</ele>
        <time>2018-12-23T11:52:17Z</time>
      </trkpt>
      <trkpt lat="45.6459" lon="6.80871">
        <ele>1805.05</ele>
        <time>2018-12-23T11:53:20Z</time>
      </trkpt>
      <trkpt lat="45.6459" lon="6.8087">
        <ele>1805.05</ele>
        <time>2018-12-23T11:53:42Z</time>
      </trkpt>
      <trkpt lat="45.6459" lon="6.80871">
        <ele>1805.31</ele>
        <time>2018-12-23T11:54:07Z</time>
      </trkpt>
      <trkpt lat="45.64591" lon="6.80874">
        <ele>1805.55</ele>
        <time>2018-12-23T11:54:35Z</time>
      </trkpt>
      <trkpt lat="45.6459" lon="6.80875">
        <ele>1805.37</ele>
        <time>2018-12-23T11:55:00Z</time>
      </trkpt>
      <trkpt lat="45.64591" lon="6.80876">
        <ele>1805.47</ele>
        <time>2018-12-23T11:56:20Z</time>
      </trkpt>
      <trkpt lat="45.6459" lon="6.80874">
        <ele>1805.16</ele>
        <time>2018-12-23T11:57:13Z</time>
      </trkpt>
      <trkpt lat="45.64591" lon="6.80874">
        <ele>1805.01</ele>
        <time>2018-12-23T11:58:06Z</time>
      </trkpt>
      <trkpt lat="45.64591" lon="6.80874">
        <ele>1805.05</ele>
        <time>2018-12-23T11:59:15Z</time>
      </trkpt>
      <trkpt lat="45.64591" lon="6.80873">
        <ele>1804.81</ele>
        <time>2018-12-23T12:00:24Z</time>
      </trkpt>
      <trkpt lat="45.64589" lon="6.80873">
        <ele>1804.39</ele>
        <time>2018-12-23T12:01:02Z</time>
      </trkpt>
      <trkpt lat="45.6459" lon="6.80874">
        <ele>1804.45</ele>
        <time>2018-12-23T12:01:31Z</time>
      </trkpt>
      <trkpt lat="45.6459" lon="6.80874">
        <ele>1804.1</ele>
        <time>2018-12-23T12:02:01Z</time>
      </trkpt>
      <trkpt lat="45.6459" lon="6.80874">
        <ele>1804.05</ele>
        <time>2018-12-23T12:02:29Z</time>
      </trkpt>
      <trkpt lat="45.64589" lon="6.80873">
        <ele>1803.66</ele>
        <time>2018-12-23T12:02:55Z</time>
      </trkpt>
      <trkpt lat="45.64588" lon="6.80873">
        <ele>1803.57</ele>
        <time>2018-12-23T12:03:22Z</time>
      </trkpt>
      <trkpt lat="45.64587" lon="6.80874">
        <ele>1803.52</ele>
        <time>2018-12-23T12:03:54Z</time>
      </trkpt>
      <trkpt lat="45.64587" lon="6.80874">
        <ele>1802.92</ele>
        <time>2018-12-23T12:05:02Z</time>
      </trkpt>
      <trkpt lat="45.64587" lon="6.80874">
        <ele>1802.61</ele>
        <time>2018-12-23T12:05:31Z</time>
      </trkpt>
      <trkpt lat="45.64587" lon="6.80874">
        <ele>1802.21</ele>
        <time>2018-12-23T12:06:32Z</time>
      </trkpt>
      <trkpt lat="45.64587" lon="6.80874">
        <ele>1802.58</ele>
        <time>2018-12-23T12:07:42Z</time>
      </trkpt>
      <trkpt lat="45.64587" lon="6.80873">
        <ele>1802.6</ele>
        <time>2018-12-23T12:08:25Z</time>
      </trkpt>
      <trkpt lat="45.64588" lon="6.80873">
        <ele>1802.34</ele>
        <time>2018-12-23T12:09:08Z</time>
      </trkpt>
      <trkpt lat="45.6459" lon="6.80874">
        <ele>1801.99</ele>
        <time>2018-12-23T12:10:13Z</time>
      </trkpt>
      <trkpt lat="45.64589" lon="6.80875">
        <ele>1802.06</ele>
        <time>2018-12-23T12:11:11Z</time>
      </trkpt>
      <trkpt lat="45.64589" lon="6.80875">
        <ele>1802.05</ele>
        <time>2018-12-23T12:11:45Z</time>
      </trkpt>
      <trkpt lat="45.64592" lon="6.80872">
        <ele>1801.64</ele>
        <time>2018-12-23T12:12:13Z</time>
      </trkpt>
      <trkpt lat="45.64589" lon="6.80873">
        <ele>1801.53</ele>
        <time>2018-12-23T12:12:37Z</time>
      </trkpt>
      <trkpt lat="45.6459" lon="6.80875">
        <ele>1801.1</ele>
        <time>2018-12-23T12:13:17Z</time>
      </trkpt>
      <trkpt lat="45.6459" lon="6.80874">
        <ele>1801.2</ele>
        <time>2018-12-23T12:13:41Z</time>
      </trkpt>
      <trkpt lat="45.64588" lon="6.80874">
        <ele>1801.45</ele>
        <time>2018-12-23T12:14:04Z</time>
      </trkpt>
      <trkpt lat="45.64588" lon="6.80874">
        <ele>1801.66</ele>
        <time>2018-12-23T12:14:41Z</time>
      </trkpt>
      <trkpt lat="45.64588" lon="6.80872">
        <ele>1801.67</ele>
        <time>2018-12-23T12:15:09Z</time>
      </trkpt>
      <trkpt lat="45.64588" lon="6.80873">
        <ele>1801.24</ele>
        <time>2018-12-23T12:15:30Z</time>
      </trkpt>
      <trkpt lat="45.64589" lon="6.80874">
        <ele>1801.08</ele>
        <time>2018-12-23T12:15:48Z</time>
      </trkpt>
      <trkpt lat="45.64587" lon="6.80873">
        <ele>1801.34</ele>
        <time>2018-12-23T12:16:10Z</time>
      </trkpt>
      <trkpt lat="45.64587" lon="6.80874">
        <ele>1800.73</ele>
        <time>2018-12-23T12:16:31Z</time>
      </trkpt>
      <trkpt lat="45.64588" lon="6.80873">
        <ele>1800.47</ele>
        <time>2018-12-23T12:17:00Z</time>
      </trkpt>
      <trkpt lat="45.64588" lon="6.80873">
        <ele>1800.22</ele>
        <time>2018-12-23T12:17:32Z</time>
      </trkpt>
      <trkpt lat="45.64588" lon="6.80874">
        <ele>1801.61</ele>
        <time>2018-12-23T12:17:55Z</time>
      </trkpt>
      <trkpt lat="45.64588" lon="6.80874">
        <ele>1801.62</ele>
        <time>2018-12-23T12:18:11Z</time>
      </trkpt>
      <trkpt lat="45.64591" lon="6.80875">
        <ele>1801.27</ele>
        <time>2018-12-23T12:18:35Z</time>
      </trkpt>
      <trkpt lat="45.6459" lon="6.80877">
        <ele>1801.32</ele>
        <time>2018-12-23T12:18:51Z</time>
      </trkpt>
      <trkpt lat="45.64593" lon="6.80878">
        <ele>1800.93</ele>
        <time>2018-12-23T12:19:17Z</time>
      </trkpt>
      <trkpt lat="45.64591" lon="6.80877">
        <ele>1801.22</ele>
        <time>2018-12-23T12:19:38Z</time>
      </trkpt>
      <trkpt lat="45.64591" lon="6.80877">
        <ele>1801.31</ele>
        <time>2018-12-23T12:20:05Z</time>
      </trkpt>
      <trkpt lat="45.64591" lon="6.80878">
        <ele>1801.03</ele>
        <time>2018-12-23T12:20:24Z</time>
      </trkpt>
      <trkpt lat="45.64592" lon="6.80878">
        <ele>1801.04</ele>
        <time>2018-12-23T12:20:49Z</time>
      </trkpt>
      <trkpt lat="45.6459" lon="6.80878">
        <ele>1800.19</ele>
        <time>2018-12-23T12:21:04Z</time>
      </trkpt>
      <trkpt lat="45.6459" lon="6.80879">
        <ele>1800.44</ele>
        <time>2018-12-23T12:21:23Z</time>
      </trkpt>
      <trkpt lat="45.64589" lon="6.80876">
        <ele>1800.17</ele>
        <time>2018-12-23T12:21:31Z</time>
      </trkpt>
      <trkpt lat="45.64585" lon="6.80872">
        <ele>1799.85</ele>
        <time>2018-12-23T12:21:34Z</time>
      </trkpt>
      <trkpt lat="45.64578" lon="6.80865">
        <ele>1799.66</ele>
        <time>2018-12-23T12:21:36Z</time>
      </trkpt>
      <trkpt lat="45.6456" lon="6.80875">
        <ele>1797.72</ele>
        <time>2018-12-23T12:21:41Z</time>
      </trkpt>
      <trkpt lat="45.64551" lon="6.80892">
        <ele>1795.11</ele>
        <time>2018-12-23T12:21:44Z</time>
      </trkpt>
      <trkpt lat="45.64544" lon="6.80898">
        <ele>1791.36</ele>
        <time>2018-12-23T12:21:46Z</time>
      </trkpt>
      <trkpt lat="45.64541" lon="6.80898">
        <ele>1790.27</ele>
        <time>2018-12-23T12:21:47Z</time>
      </trkpt>
      <trkpt lat="45.64531" lon="6.80898">
        <ele>1785.1</ele>
        <time>2018-12-23T12:21:53Z</time>
      </trkpt>
      <trkpt lat="45.6453" lon="6.80898">
        <ele>1782.19</ele>
        <time>2018-12-23T12:22:09Z</time>
      </trkpt>
      <trkpt lat="45.64528" lon="6.80898">
        <ele>1782.33</ele>
        <time>2018-12-23T12:22:34Z</time>
      </trkpt>
      <trkpt lat="45.6453" lon="6.80898">
        <ele>1782.64</ele>
        <time>2018-12-23T12:23:06Z</time>
      </trkpt>
      <trkpt lat="45.6453" lon="6.80898">
        <ele>1782.55</ele>
        <time>2018-12-23T12:23:12Z</time>
      </trkpt>
      <trkpt lat="45.64523" lon="6.80904">
        <ele>1782.33</ele>
        <time>2018-12-23T12:23:33Z</time>
      </trkpt>
      <trkpt lat="45.64519" lon="6.80908">
        <ele>1782.51</ele>
        <time>2018-12-23T12:23:51Z</time>
      </trkpt>
      <trkpt lat="45.64514" lon="6.80896">
        <ele>1780.66</ele>
        <time>2018-12-23T12:23:57Z</time>
      </trkpt>
      <trkpt lat="45.64517" lon="6.8089">
        <ele>1779.21</ele>
        <time>2018-12-23T12:24:28Z</time>
      </trkpt>
      <trkpt lat="45.64517" lon="6.80889">
        <ele>1779.23</ele>
        <time>2018-12-23T12:25:02Z</time>
      </trkpt>
      <trkpt lat="45.64518" lon="6.80891">
        <ele>1779.73</ele>
        <time>2018-12-23T12:25:43Z</time>
      </trkpt>
      <trkpt lat="45.64521" lon="6.80894">
        <ele>1779.51</ele>
        <time>2018-12-23T12:26:25Z</time>
      </trkpt>
      <trkpt lat="45.64518" lon="6.80892">
        <ele>1779.54</ele>
        <time>2018-12-23T12:27:12Z</time>
      </trkpt>
      <trkpt lat="45.64517" lon="6.80889">
        <ele>1779.82</ele>
        <time>2018-12-23T12:27:58Z</time>
      </trkpt>
      <trkpt lat="45.64517" lon="6.80888">
        <ele>1779.73</ele>
        <time>2018-12-23T12:28:43Z</time>
      </trkpt>
      <trkpt lat="45.64516" lon="6.8089">
        <ele>1779.82</ele>
        <time>2018-12-23T12:29:27Z</time>
      </trkpt>
      <trkpt lat="45.64517" lon="6.8089">
        <ele>1780.17</ele>
        <time>2018-12-23T12:30:18Z</time>
      </trkpt>
      <trkpt lat="45.64517" lon="6.8089">
        <ele>1780.48</ele>
        <time>2018-12-23T12:30:59Z</time>
      </trkpt>
      <trkpt lat="45.64516" lon="6.8089">
        <ele>1780.42</ele>
        <time>2018-12-23T12:31:09Z</time>
      </trkpt>
      <trkpt lat="45.64497" lon="6.80879">
        <ele>1779.59</ele>
        <time>2018-12-23T12:31:14Z</time>
      </trkpt>
      <trkpt lat="45.64489" lon="6.80871">
        <ele>1777.15</ele>
        <time>2018-12-23T12:31:17Z</time>
      </trkpt>
      <trkpt lat="45.64476" lon="6.80874">
        <ele>1773.3</ele>
        <time>2018-12-23T12:31:23Z</time>
      </trkpt>
      <trkpt lat="45.64476" lon="6.80875">
        <ele>1770.28</ele>
        <time>2018-12-23T12:31:32Z</time>
      </trkpt>
      <trkpt lat="45.64475" lon="6.80877">
        <ele>1770.38</ele>
        <time>2018-12-23T12:31:56Z</time>
      </trkpt>
      <trkpt lat="45.64475" lon="6.80877">
        <ele>1770.31</ele>
        <time>2018-12-23T12:32:19Z</time>
      </trkpt>
      <trkpt lat="45.64477" lon="6.80876">
        <ele>1770.34</ele>
        <time>2018-12-23T12:32:41Z</time>
      </trkpt>
      <trkpt lat="45.64477" lon="6.80877">
        <ele>1770.28</ele>
        <time>2018-12-23T12:33:04Z</time>
      </trkpt>
      <trkpt lat="45.64475" lon="6.80885">
        <ele>1769.87</ele>
        <time>2018-12-23T12:33:19Z</time>
      </trkpt>
      <trkpt lat="45.6447" lon="6.80888">
        <ele>1768.94</ele>
        <time>2018-12-23T12:33:30Z</time>
      </trkpt>
      <trkpt lat="45.64468" lon="6.80889">
        <ele>1768.52</ele>
        <time>2018-12-23T12:33:46Z</time>
      </trkpt>
      <trkpt lat="45.64463" lon="6.80891">
        <ele>1768.61</ele>
        <time>2018-12-23T12:34:00Z</time>
      </trkpt>
      <trkpt lat="45.64454" lon="6.80891">
        <ele>1767.39</ele>
        <time>2018-12-23T12:34:11Z</time>
      </trkpt>
      <trkpt lat="45.6445" lon="6.80892">
        <ele>1766.24</ele>
        <time>2018-12-23T12:34:27Z</time>
      </trkpt>
      <trkpt lat="45.64444" lon="6.80888">
        <ele>1765.31</ele>
        <time>2018-12-23T12:34:40Z</time>
      </trkpt>
      <trkpt lat="45.64441" lon="6.80885">
        <ele>1764.17</ele>
        <time>2018-12-23T12:34:50Z</time>
      </trkpt>
      <trkpt lat="45.64439" lon="6.80882">
        <ele>1763.54</ele>
        <time>2018-12-23T12:35:03Z</time>
      </trkpt>
      <trkpt lat="45.64438" lon="6.80883">
        <ele>1762.95</ele>
        <time>2018-12-23T12:35:19Z</time>
      </trkpt>
      <trkpt lat="45.64439" lon="6.80879">
        <ele>1762.59</ele>
        <time>2018-12-23T12:35:34Z</time>
      </trkpt>
      <trkpt lat="45.6444" lon="6.8088">
        <ele>1762.15</ele>
        <time>2018-12-23T12:35:55Z</time>
      </trkpt>
      <trkpt lat="45.64439" lon="6.80878">
        <ele>1761.83</ele>
        <time>2018-12-23T12:36:10Z</time>
      </trkpt>
      <trkpt lat="45.64439" lon="6.80879">
        <ele>1761.62</ele>
        <time>2018-12-23T12:36:26Z</time>
      </trkpt>
      <trkpt lat="45.64438" lon="6.80877">
        <ele>1761.15</ele>
        <time>2018-12-23T12:36:41Z</time>
      </trkpt>
      <trkpt lat="45.64439" lon="6.80878">
        <ele>1760.99</ele>
        <time>2018-12-23T12:37:00Z</time>
      </trkpt>
      <trkpt lat="45.64439" lon="6.80878">
        <ele>1761.34</ele>
        <time>2018-12-23T12:37:18Z</time>
      </trkpt>
      <trkpt lat="45.64438" lon="6.80879">
        <ele>1761.58</ele>
        <time>2018-12-23T12:37:31Z</time>
      </trkpt>
      <trkpt lat="45.64439" lon="6.8088">
        <ele>1760.18</ele>
        <time>2018-12-23T12:38:30Z</time>
      </trkpt>
      <trkpt lat="45.64439" lon="6.80876">
        <ele>1760.41</ele>
        <time>2018-12-23T12:39:17Z</time>
      </trkpt>
      <trkpt lat="45.64437" lon="6.80876">
        <ele>1760.48</ele>
        <time>2018-12-23T12:40:26Z</time>
      </trkpt>
      <trkpt lat="45.64435" lon="6.80875">
        <ele>1760.59</ele>
        <time>2018-12-23T12:41:27Z</time>
      </trkpt>
      <trkpt lat="45.64434" lon="6.80875">
        <ele>1760.91</ele>
        <time>2018-12-23T12:42:30Z</time>
      </trkpt>
      <trkpt lat="45.64435" lon="6.80876">
        <ele>1760.86</ele>
        <time>2018-12-23T12:43:11Z</time>
      </trkpt>
      <trkpt lat="45.64435" lon="6.80877">
        <ele>1761.32</ele>
        <time>2018-12-23T12:43:43Z</time>
      </trkpt>
      <trkpt lat="45.64437" lon="6.80877">
        <ele>1762.43</ele>
        <time>2018-12-23T12:43:57Z</time>
      </trkpt>
      <trkpt lat="45.64443" lon="6.80878">
        <ele>1762.69</ele>
        <time>2018-12-23T12:44:09Z</time>
      </trkpt>
      <trkpt lat="45.64447" lon="6.80879">
        <ele>1763.32</ele>
        <time>2018-12-23T12:44:20Z</time>
      </trkpt>
      <trkpt lat="45.6445" lon="6.8088">
        <ele>1764.17</ele>
        <time>2018-12-23T12:44:32Z</time>
      </trkpt>
      <trkpt lat="45.64451" lon="6.8088">
        <ele>1764.96</ele>
        <time>2018-12-23T12:44:47Z</time>
      </trkpt>
      <trkpt lat="45.64452" lon="6.80881">
        <ele>1765.51</ele>
        <time>2018-12-23T12:45:01Z</time>
      </trkpt>
      <trkpt lat="45.64456" lon="6.8088">
        <ele>1765.35</ele>
        <time>2018-12-23T12:45:13Z</time>
      </trkpt>
      <trkpt lat="45.64461" lon="6.80878">
        <ele>1766.44</ele>
        <time>2018-12-23T12:45:28Z</time>
      </trkpt>
      <trkpt lat="45.64465" lon="6.8088">
        <ele>1767.38</ele>
        <time>2018-12-23T12:45:39Z</time>
      </trkpt>
      <trkpt lat="45.64472" lon="6.80881">
        <ele>1768.04</ele>
        <time>2018-12-23T12:45:54Z</time>
      </trkpt>
      <trkpt lat="45.64475" lon="6.8088">
        <ele>1768.87</ele>
        <time>2018-12-23T12:46:04Z</time>
      </trkpt>
      <trkpt lat="45.64476" lon="6.80879">
        <ele>1769.04</ele>
        <time>2018-12-23T12:46:21Z</time>
      </trkpt>
      <trkpt lat="45.64475" lon="6.8088">
        <ele>1769.35</ele>
        <time>2018-12-23T12:46:53Z</time>
      </trkpt>
      <trkpt lat="45.64475" lon="6.80879">
        <ele>1769.44</ele>
        <time>2018-12-23T12:47:14Z</time>
      </trkpt>
      <trkpt lat="45.64475" lon="6.80878">
        <ele>1769.15</ele>
        <time>2018-12-23T12:47:39Z</time>
      </trkpt>
      <trkpt lat="45.64474" lon="6.80879">
        <ele>1769.18</ele>
        <time>2018-12-23T12:48:13Z</time>
      </trkpt>
      <trkpt lat="45.64473" lon="6.8088">
        <ele>1768</ele>
        <time>2018-12-23T12:48:45Z</time>
      </trkpt>
      <trkpt lat="45.64472" lon="6.80879">
        <ele>1767.85</ele>
        <time>2018-12-23T12:50:05Z</time>
      </trkpt>
      <trkpt lat="45.64472" lon="6.80879">
        <ele>1767.93</ele>
        <time>2018-12-23T12:51:24Z</time>
      </trkpt>
      <trkpt lat="45.6447" lon="6.80878">
        <ele>1768.03</ele>
        <time>2018-12-23T12:52:19Z</time>
      </trkpt>
      <trkpt lat="45.64472" lon="6.80877">
        <ele>1767.69</ele>
        <time>2018-12-23T12:52:41Z</time>
      </trkpt>
      <trkpt lat="45.64473" lon="6.80877">
        <ele>1768.2</ele>
        <time>2018-12-23T12:53:28Z</time>
      </trkpt>
      <trkpt lat="45.64474" lon="6.80877">
        <ele>1767.91</ele>
        <time>2018-12-23T12:54:25Z</time>
      </trkpt>
      <trkpt lat="45.64473" lon="6.80879">
        <ele>1768.07</ele>
        <time>2018-12-23T12:54:45Z</time>
      </trkpt>
      <trkpt lat="45.64474" lon="6.80881">
        <ele>1767.78</ele>
        <time>2018-12-23T12:56:46Z</time>
      </trkpt>
      <trkpt lat="45.64474" lon="6.8088">
        <ele>1766.76</ele>
        <time>2018-12-23T12:58:45Z</time>
      </trkpt>
      <trkpt lat="45.64474" lon="6.8088">
        <ele>1766.68</ele>
        <time>2018-12-23T13:00:12Z</time>
      </trkpt>
      <trkpt lat="45.64474" lon="6.8088">
        <ele>1766.48</ele>
        <time>2018-12-23T13:02:03Z</time>
      </trkpt>
      <trkpt lat="45.64475" lon="6.80879">
        <ele>1765.82</ele>
        <time>2018-12-23T13:03:51Z</time>
      </trkpt>
      <trkpt lat="45.64475" lon="6.80881">
        <ele>1766.08</ele>
        <time>2018-12-23T13:04:54Z</time>
      </trkpt>
      <trkpt lat="45.64475" lon="6.80879">
        <ele>1766.11</ele>
        <time>2018-12-23T13:06:28Z</time>
      </trkpt>
      <trkpt lat="45.64475" lon="6.80879">
        <ele>1765.79</ele>
        <time>2018-12-23T13:07:47Z</time>
      </trkpt>
      <trkpt lat="45.64475" lon="6.80879">
        <ele>1766.84</ele>
        <time>2018-12-23T13:08:30Z</time>
      </trkpt>
      <trkpt lat="45.64476" lon="6.8088">
        <ele>1767.26</ele>
        <time>2018-12-23T13:08:55Z</time>
      </trkpt>
      <trkpt lat="45.64477" lon="6.80878">
        <ele>1767.37</ele>
        <time>2018-12-23T13:09:11Z</time>
      </trkpt>
      <trkpt lat="45.64474" lon="6.80876">
        <ele>1767.31</ele>
        <time>2018-12-23T13:09:30Z</time>
      </trkpt>
      <trkpt lat="45.64469" lon="6.80876">
        <ele>1767.19</ele>
        <time>2018-12-23T13:09:35Z</time>
      </trkpt>
      <trkpt lat="45.64468" lon="6.80878">
        <ele>1767.03</ele>
        <time>2018-12-23T13:09:37Z</time>
      </trkpt>
      <trkpt lat="45.64461" lon="6.80885">
        <ele>1765.72</ele>
        <time>2018-12-23T13:09:45Z</time>
      </trkpt>
      <trkpt lat="45.64459" lon="6.80885">
        <ele>1765.35</ele>
        <time>2018-12-23T13:09:48Z</time>
      </trkpt>
      <trkpt lat="45.64454" lon="6.80887">
        <ele>1764.21</ele>
        <time>2018-12-23T13:09:57Z</time>
      </trkpt>
      <trkpt lat="45.64453" lon="6.80886">
        <ele>1763.65</ele>
        <time>2018-12-23T13:10:15Z</time>
      </trkpt>
      <trkpt lat="45.64453" lon="6.80886">
        <ele>1763.71</ele>
        <time>2018-12-23T13:10:40Z</time>
      </trkpt>
      <trkpt lat="45.64452" lon="6.80887">
        <ele>1763.44</ele>
        <time>2018-12-23T13:11:21Z</time>
      </trkpt>
      <trkpt lat="45.64453" lon="6.80886">
        <ele>1763.12</ele>
        <time>2018-12-23T13:12:16Z</time>
      </trkpt>
      <trkpt lat="45.64453" lon="6.80885">
        <ele>1763.1</ele>
        <time>2018-12-23T13:13:10Z</time>
      </trkpt>
      <trkpt lat="45.64452" lon="6.80886">
        <ele>1763.17</ele>
        <time>2018-12-23T13:14:09Z</time>
      </trkpt>
      <trkpt lat="45.64452" lon="6.80884">
        <ele>1763.01</ele>
        <time>2018-12-23T13:14:30Z</time>
      </trkpt>
      <trkpt lat="45.64452" lon="6.80883">
        <ele>1762.71</ele>
        <time>2018-12-23T13:14:51Z</time>
      </trkpt>
      <trkpt lat="45.64453" lon="6.80885">
        <ele>1763.18</ele>
        <time>2018-12-23T13:15:29Z</time>
      </trkpt>
      <trkpt lat="45.64454" lon="6.80884">
        <ele>1763.14</ele>
        <time>2018-12-23T13:16:04Z</time>
      </trkpt>
      <trkpt lat="45.64452" lon="6.80885">
        <ele>1762.98</ele>
        <time>2018-12-23T13:16:53Z</time>
      </trkpt>
      <trkpt lat="45.64453" lon="6.80885">
        <ele>1763.38</ele>
        <time>2018-12-23T13:17:23Z</time>
      </trkpt>
      <trkpt lat="45.64453" lon="6.80884">
        <ele>1763.2</ele>
        <time>2018-12-23T13:17:57Z</time>
      </trkpt>
      <trkpt lat="45.64453" lon="6.80885">
        <ele>1762.7</ele>
        <time>2018-12-23T13:18:30Z</time>
      </trkpt>
      <trkpt lat="45.64453" lon="6.80887">
        <ele>1762.86</ele>
        <time>2018-12-23T13:18:59Z</time>
      </trkpt>
      <trkpt lat="45.64453" lon="6.80887">
        <ele>1762.19</ele>
        <time>2018-12-23T13:19:47Z</time>
      </trkpt>
      <trkpt lat="45.64452" lon="6.80886">
        <ele>1761.88</ele>
        <time>2018-12-23T13:20:16Z</time>
      </trkpt>
      <trkpt lat="45.64451" lon="6.80886">
        <ele>1761.84</ele>
        <time>2018-12-23T13:20:52Z</time>
      </trkpt>
      <trkpt lat="45.64452" lon="6.80886">
        <ele>1761.56</ele>
        <time>2018-12-23T13:21:26Z</time>
      </trkpt>
      <trkpt lat="45.64451" lon="6.80887">
        <ele>1761.69</ele>
        <time>2018-12-23T13:21:46Z</time>
      </trkpt>
      <trkpt lat="45.64451" lon="6.80886">
        <ele>1762.08</ele>
        <time>2018-12-23T13:22:13Z</time>
      </trkpt>
      <trkpt lat="45.6445" lon="6.80884">
        <ele>1762.37</ele>
        <time>2018-12-23T13:23:07Z</time>
      </trkpt>
      <trkpt lat="45.6445" lon="6.80885">
        <ele>1762.39</ele>
        <time>2018-12-23T13:23:36Z</time>
      </trkpt>
      <trkpt lat="45.6445" lon="6.80885">
        <ele>1762.39</ele>
        <time>2018-12-23T13:24:11Z</time>
      </trkpt>
      <trkpt lat="45.64449" lon="6.80884">
        <ele>1762.29</ele>
        <time>2018-12-23T13:24:25Z</time>
      </trkpt>
      <trkpt lat="45.64435" lon="6.8088">
        <ele>1761.52</ele>
        <time>2018-12-23T13:24:31Z</time>
      </trkpt>
      <trkpt lat="45.64434" lon="6.80882">
        <ele>1759.29</ele>
        <time>2018-12-23T13:24:38Z</time>
      </trkpt>
      <trkpt lat="45.64436" lon="6.80882">
        <ele>1758.8</ele>
        <time>2018-12-23T13:25:10Z</time>
      </trkpt>
      <trkpt lat="45.64439" lon="6.80882">
        <ele>1758.72</ele>
        <time>2018-12-23T13:25:42Z</time>
      </trkpt>
      <trkpt lat="45.64438" lon="6.80882">
        <ele>1758.37</ele>
        <time>2018-12-23T13:26:10Z</time>
      </trkpt>
      <trkpt lat="45.64439" lon="6.80882">
        <ele>1758.22</ele>
        <time>2018-12-23T13:26:34Z</time>
      </trkpt>
      <trkpt lat="45.64437" lon="6.80882">
        <ele>1758.69</ele>
        <time>2018-12-23T13:27:05Z</time>
      </trkpt>
      <trkpt lat="45.64436" lon="6.80883">
        <ele>1758.78</ele>
        <time>2018-12-23T13:27:42Z</time>
      </trkpt>
      <trkpt lat="45.64435" lon="6.80885">
        <ele>1759.22</ele>
        <time>2018-12-23T13:28:23Z</time>
      </trkpt>
      <trkpt lat="45.64437" lon="6.80883">
        <ele>1759.07</ele>
        <time>2018-12-23T13:29:24Z</time>
      </trkpt>
      <trkpt lat="45.64436" lon="6.80878">
        <ele>1758.82</ele>
        <time>2018-12-23T13:30:08Z</time>
      </trkpt>
      <trkpt lat="45.64435" lon="6.80878">
        <ele>1758.21</ele>
        <time>2018-12-23T13:30:24Z</time>
      </trkpt>
      <trkpt lat="45.64436" lon="6.80878">
        <ele>1757.93</ele>
        <time>2018-12-23T13:30:38Z</time>
      </trkpt>
      <trkpt lat="45.64435" lon="6.80877">
        <ele>1757.37</ele>
        <time>2018-12-23T13:31:10Z</time>
      </trkpt>
      <trkpt lat="45.64435" lon="6.80878">
        <ele>1757.3</ele>
        <time>2018-12-23T13:31:23Z</time>
      </trkpt>
      <trkpt lat="45.64435" lon="6.80878">
        <ele>1757.29</ele>
        <time>2018-12-23T13:32:00Z</time>
      </trkpt>
      <trkpt lat="45.64434" lon="6.80878">
        <ele>1758.21</ele>
        <time>2018-12-23T13:32:17Z</time>
      </trkpt>
      <trkpt lat="45.64434" lon="6.80879">
        <ele>1758.34</ele>
        <time>2018-12-23T13:32:35Z</time>
      </trkpt>
      <trkpt lat="45.64435" lon="6.80879">
        <ele>1758.13</ele>
        <time>2018-12-23T13:33:02Z</time>
      </trkpt>
      <trkpt lat="45.64435" lon="6.80878">
        <ele>1758.51</ele>
        <time>2018-12-23T13:33:52Z</time>
      </trkpt>
      <trkpt lat="45.64434" lon="6.80878">
        <ele>1758.5</ele>
        <time>2018-12-23T13:34:33Z</time>
      </trkpt>
      <trkpt lat="45.64434" lon="6.80878">
        <ele>1758.9</ele>
        <time>2018-12-23T13:35:12Z</time>
      </trkpt>
      <trkpt lat="45.64433" lon="6.80878">
        <ele>1758.52</ele>
        <time>2018-12-23T13:35:35Z</time>
      </trkpt>
      <trkpt lat="45.64432" lon="6.80879">
        <ele>1758.6</ele>
        <time>2018-12-23T13:36:13Z</time>
      </trkpt>
      <trkpt lat="45.64429" lon="6.80885">
        <ele>1758.46</ele>
        <time>2018-12-23T13:36:28Z</time>
      </trkpt>
      <trkpt lat="45.64428" lon="6.80889">
        <ele>1758.62</ele>
        <time>2018-12-23T13:36:39Z</time>
      </trkpt>
      <trkpt lat="45.64429" lon="6.80887">
        <ele>1758.85</ele>
        <time>2018-12-23T13:37:04Z</time>
      </trkpt>
      <trkpt lat="45.64429" lon="6.80887">
        <ele>1759.05</ele>
        <time>2018-12-23T13:37:31Z</time>
      </trkpt>
      <trkpt lat="45.64429" lon="6.80891">
        <ele>1758.82</ele>
        <time>2018-12-23T13:38:11Z</time>
      </trkpt>
      <trkpt lat="45.64429" lon="6.8089">
        <ele>1758.96</ele>
        <time>2018-12-23T13:38:36Z</time>
      </trkpt>
      <trkpt lat="45.64431" lon="6.8089">
        <ele>1759.06</ele>
        <time>2018-12-23T13:39:15Z</time>
      </trkpt>
      <trkpt lat="45.64431" lon="6.80891">
        <ele>1759.01</ele>
        <time>2018-12-23T13:39:54Z</time>
      </trkpt>
      <trkpt lat="45.64432" lon="6.80891">
        <ele>1759.02</ele>
        <time>2018-12-23T13:40:23Z</time>
      </trkpt>
      <trkpt lat="45.64431" lon="6.80891">
        <ele>1759.21</ele>
        <time>2018-12-23T13:40:56Z</time>
      </trkpt>
      <trkpt lat="45.64431" lon="6.80891">
        <ele>1758.68</ele>
        <time>2018-12-23T13:41:31Z</time>
      </trkpt>
      <trkpt lat="45.64431" lon="6.8089">
        <ele>1758.54</ele>
        <time>2018-12-23T13:41:55Z</time>
      </trkpt>
      <trkpt lat="45.64431" lon="6.80889">
        <ele>1758.75</ele>
        <time>2018-12-23T13:42:22Z</time>
      </trkpt>
      <trkpt lat="45.6443" lon="6.80889">
        <ele>1758.67</ele>
        <time>2018-12-23T13:42:44Z</time>
      </trkpt>
      <trkpt lat="45.64431" lon="6.80887">
        <ele>1758.51</ele>
        <time>2018-12-23T13:43:21Z</time>
      </trkpt>
      <trkpt lat="45.64429" lon="6.80887">
        <ele>1758.08</ele>
        <time>2018-12-23T13:43:50Z</time>
      </trkpt>
      <trkpt lat="45.64431" lon="6.80888">
        <ele>1758.35</ele>
        <time>2018-12-23T13:44:21Z</time>
      </trkpt>
      <trkpt lat="45.64431" lon="6.80888">
        <ele>1758.4</ele>
        <time>2018-12-23T13:44:50Z</time>
      </trkpt>
      <trkpt lat="45.64431" lon="6.80888">
        <ele>1758.02</ele>
        <time>2018-12-23T13:45:25Z</time>
      </trkpt>
      <trkpt lat="45.64433" lon="6.80889">
        <ele>1757.81</ele>
        <time>2018-12-23T13:45:53Z</time>
      </trkpt>
      <trkpt lat="45.64433" lon="6.80887">
        <ele>1757.69</ele>
        <time>2018-12-23T13:46:00Z</time>
      </trkpt>
      <trkpt lat="45.64428" lon="6.80875">
        <ele>1757.46</ele>
        <time>2018-12-23T13:46:04Z</time>
      </trkpt>
      <trkpt lat="45.64415" lon="6.80856">
        <ele>1754.81</ele>
        <time>2018-12-23T13:46:12Z</time>
      </trkpt>
      <trkpt lat="45.64413" lon="6.80852">
        <ele>1753.89</ele>
        <time>2018-12-23T13:46:14Z</time>
      </trkpt>
      <trkpt lat="45.64402" lon="6.80848">
        <ele>1751.71</ele>
        <time>2018-12-23T13:46:19Z</time>
      </trkpt>
      <trkpt lat="45.64401" lon="6.80849">
        <ele>1748.53</ele>
        <time>2018-12-23T13:46:25Z</time>
      </trkpt>
      <trkpt lat="45.64399" lon="6.8085">
        <ele>1747.74</ele>
        <time>2018-12-23T13:46:30Z</time>
      </trkpt>
      <trkpt lat="45.6439" lon="6.80855">
        <ele>1747.08</ele>
        <time>2018-12-23T13:46:35Z</time>
      </trkpt>
      <trkpt lat="45.64384" lon="6.80863">
        <ele>1743.38</ele>
        <time>2018-12-23T13:46:40Z</time>
      </trkpt>
      <trkpt lat="45.64381" lon="6.80871">
        <ele>1739.84</ele>
        <time>2018-12-23T13:46:45Z</time>
      </trkpt>
      <trkpt lat="45.64372" lon="6.80876">
        <ele>1736.86</ele>
        <time>2018-12-23T13:46:50Z</time>
      </trkpt>
      <trkpt lat="45.64371" lon="6.80876">
        <ele>1733.39</ele>
        <time>2018-12-23T13:46:54Z</time>
      </trkpt>
      <trkpt lat="45.6437" lon="6.80876">
        <ele>1732.32</ele>
        <time>2018-12-23T13:46:56Z</time>
      </trkpt>
      <trkpt lat="45.64353" lon="6.80887">
        <ele>1728.69</ele>
        <time>2018-12-23T13:47:03Z</time>
      </trkpt>
      <trkpt lat="45.64344" lon="6.80884">
        <ele>1725.36</ele>
        <time>2018-12-23T13:47:07Z</time>
      </trkpt>
      <trkpt lat="45.64339" lon="6.80885">
        <ele>1723.78</ele>
        <time>2018-12-23T13:47:09Z</time>
      </trkpt>
      <trkpt lat="45.64333" lon="6.80889">
        <ele>1719.13</ele>
        <time>2018-12-23T13:47:16Z</time>
      </trkpt>
      <trkpt lat="45.64333" lon="6.80887">
        <ele>1716.01</ele>
        <time>2018-12-23T13:47:25Z</time>
      </trkpt>
      <trkpt lat="45.64331" lon="6.80886">
        <ele>1715.72</ele>
        <time>2018-12-23T13:47:32Z</time>
      </trkpt>
      <trkpt lat="45.64326" lon="6.80895">
        <ele>1714.22</ele>
        <time>2018-12-23T13:47:39Z</time>
      </trkpt>
      <trkpt lat="45.64325" lon="6.80898">
        <ele>1713.86</ele>
        <time>2018-12-23T13:47:40Z</time>
      </trkpt>
      <trkpt lat="45.64319" lon="6.809">
        <ele>1712.37</ele>
        <time>2018-12-23T13:47:44Z</time>
      </trkpt>
      <trkpt lat="45.64318" lon="6.80902">
        <ele>1711.85</ele>
        <time>2018-12-23T13:47:45Z</time>
      </trkpt>
      <trkpt lat="45.64316" lon="6.80904">
        <ele>1710.39</ele>
        <time>2018-12-23T13:47:47Z</time>
      </trkpt>
      <trkpt lat="45.64311" lon="6.80901">
        <ele>1706.18</ele>
        <time>2018-12-23T13:47:52Z</time>
      </trkpt>
      <trkpt lat="45.64299" lon="6.80895">
        <ele>1702.25</ele>
        <time>2018-12-23T13:47:58Z</time>
      </trkpt>
      <trkpt lat="45.64299" lon="6.80901">
        <ele>1699.15</ele>
        <time>2018-12-23T13:48:02Z</time>
      </trkpt>
      <trkpt lat="45.64297" lon="6.80902">
        <ele>1698.51</ele>
        <time>2018-12-23T13:48:03Z</time>
      </trkpt>
      <trkpt lat="45.64291" lon="6.80918">
        <ele>1695.28</ele>
        <time>2018-12-23T13:48:08Z</time>
      </trkpt>
      <trkpt lat="45.64286" lon="6.80926">
        <ele>1691.53</ele>
        <time>2018-12-23T13:48:12Z</time>
      </trkpt>
      <trkpt lat="45.64283" lon="6.80937">
        <ele>1689.14</ele>
        <time>2018-12-23T13:48:15Z</time>
      </trkpt>
      <trkpt lat="45.64282" lon="6.80957">
        <ele>1683.7</ele>
        <time>2018-12-23T13:48:20Z</time>
      </trkpt>
      <trkpt lat="45.6428" lon="6.80958">
        <ele>1680.66</ele>
        <time>2018-12-23T13:48:28Z</time>
      </trkpt>
      <trkpt lat="45.64282" lon="6.80956">
        <ele>1679.68</ele>
        <time>2018-12-23T13:48:48Z</time>
      </trkpt>
      <trkpt lat="45.64281" lon="6.80959">
        <ele>1679.92</ele>
        <time>2018-12-23T13:48:56Z</time>
      </trkpt>
      <trkpt lat="45.6428" lon="6.80975">
        <ele>1679.59</ele>
        <time>2018-12-23T13:49:01Z</time>
      </trkpt>
      <trkpt lat="45.64271" lon="6.80982">
        <ele>1677.45</ele>
        <time>2018-12-23T13:49:07Z</time>
      </trkpt>
      <trkpt lat="45.64264" lon="6.80991">
        <ele>1675.43</ele>
        <time>2018-12-23T13:49:10Z</time>
      </trkpt>
      <trkpt lat="45.64258" lon="6.81009">
        <ele>1669.79</ele>
        <time>2018-12-23T13:49:15Z</time>
      </trkpt>
      <trkpt lat="45.64244" lon="6.81012">
        <ele>1665.67</ele>
        <time>2018-12-23T13:49:20Z</time>
      </trkpt>
      <trkpt lat="45.64235" lon="6.81011">
        <ele>1662.16</ele>
        <time>2018-12-23T13:49:23Z</time>
      </trkpt>
      <trkpt lat="45.64234" lon="6.81006">
        <ele>1660.85</ele>
        <time>2018-12-23T13:49:24Z</time>
      </trkpt>
      <trkpt lat="45.64231" lon="6.80988">
        <ele>1655.6</ele>
        <time>2018-12-23T13:49:28Z</time>
      </trkpt>
      <trkpt lat="45.64227" lon="6.80977">
        <ele>1652.17</ele>
        <time>2018-12-23T13:49:32Z</time>
      </trkpt>
      <trkpt lat="45.64225" lon="6.80976">
        <ele>1649.83</ele>
        <time>2018-12-23T13:49:37Z</time>
      </trkpt>
      <trkpt lat="45.64218" lon="6.8097">
        <ele>1648.99</ele>
        <time>2018-12-23T13:49:41Z</time>
      </trkpt>
      <trkpt lat="45.64208" lon="6.80958">
        <ele>1647.44</ele>
        <time>2018-12-23T13:49:45Z</time>
      </trkpt>
      <trkpt lat="45.64193" lon="6.80961">
        <ele>1644.13</ele>
        <time>2018-12-23T13:49:50Z</time>
      </trkpt>
      <trkpt lat="45.64184" lon="6.80953">
        <ele>1640.74</ele>
        <time>2018-12-23T13:49:53Z</time>
      </trkpt>
      <trkpt lat="45.64176" lon="6.80956">
        <ele>1637.26</ele>
        <time>2018-12-23T13:49:56Z</time>
      </trkpt>
      <trkpt lat="45.64172" lon="6.80947">
        <ele>1635.23</ele>
        <time>2018-12-23T13:49:58Z</time>
      </trkpt>
      <trkpt lat="45.64166" lon="6.80935">
        <ele>1631.44</ele>
        <time>2018-12-23T13:50:01Z</time>
      </trkpt>
      <trkpt lat="45.64153" lon="6.80938">
        <ele>1627.15</ele>
        <time>2018-12-23T13:50:05Z</time>
      </trkpt>
      <trkpt lat="45.64145" lon="6.80934">
        <ele>1624.22</ele>
        <time>2018-12-23T13:50:07Z</time>
      </trkpt>
      <trkpt lat="45.64127" lon="6.80926">
        <ele>1621.1</ele>
        <time>2018-12-23T13:50:10Z</time>
      </trkpt>
      <trkpt lat="45.64107" lon="6.80922">
        <ele>1616.81</ele>
        <time>2018-12-23T13:50:13Z</time>
      </trkpt>
      <trkpt lat="45.64104" lon="6.80924">
        <ele>1615.27</ele>
        <time>2018-12-23T13:50:14Z</time>
      </trkpt>
      <trkpt lat="45.64103" lon="6.80924">
        <ele>1614.04</ele>
        <time>2018-12-23T13:50:15Z</time>
      </trkpt>
      <trkpt lat="45.64102" lon="6.80923">
        <ele>1610.94</ele>
        <time>2018-12-23T13:50:20Z</time>
      </trkpt>
      <trkpt lat="45.64104" lon="6.80924">
        <ele>1609.16</ele>
        <time>2018-12-23T13:50:36Z</time>
      </trkpt>
      <trkpt lat="45.641" lon="6.80923">
        <ele>1609.54</ele>
        <time>2018-12-23T13:50:53Z</time>
      </trkpt>
      <trkpt lat="45.64098" lon="6.80923">
        <ele>1609.51</ele>
        <time>2018-12-23T13:50:54Z</time>
      </trkpt>
      <trkpt lat="45.64093" lon="6.80922">
        <ele>1609.37</ele>
        <time>2018-12-23T13:50:56Z</time>
      </trkpt>
      <trkpt lat="45.6409" lon="6.80922">
        <ele>1609.22</ele>
        <time>2018-12-23T13:50:57Z</time>
      </trkpt>
      <trkpt lat="45.64088" lon="6.80922">
        <ele>1608.99</ele>
        <time>2018-12-23T13:50:58Z</time>
      </trkpt>
      <trkpt lat="45.64081" lon="6.80921">
        <ele>1608.09</ele>
        <time>2018-12-23T13:51:05Z</time>
      </trkpt>
      <trkpt lat="45.64079" lon="6.80921">
        <ele>1608.05</ele>
        <time>2018-12-23T13:51:06Z</time>
      </trkpt>
      <trkpt lat="45.64073" lon="6.80923">
        <ele>1607.93</ele>
        <time>2018-12-23T13:51:08Z</time>
      </trkpt>
      <trkpt lat="45.64069" lon="6.80925">
        <ele>1607.79</ele>
        <time>2018-12-23T13:51:09Z</time>
      </trkpt>
      <trkpt lat="45.64064" lon="6.80927">
        <ele>1607.58</ele>
        <time>2018-12-23T13:51:10Z</time>
      </trkpt>
      <trkpt lat="45.64055" lon="6.8093">
        <ele>1606.96</ele>
        <time>2018-12-23T13:51:12Z</time>
      </trkpt>
      <trkpt lat="45.64051" lon="6.8093">
        <ele>1606.56</ele>
        <time>2018-12-23T13:51:13Z</time>
      </trkpt>
      <trkpt lat="45.64039" lon="6.80921">
        <ele>1604.67</ele>
        <time>2018-12-23T13:51:16Z</time>
      </trkpt>
      <trkpt lat="45.64029" lon="6.8089">
        <ele>1599.02</ele>
        <time>2018-12-23T13:51:21Z</time>
      </trkpt>
      <trkpt lat="45.64021" lon="6.80871">
        <ele>1595.26</ele>
        <time>2018-12-23T13:51:25Z</time>
      </trkpt>
      <trkpt lat="45.64022" lon="6.80868">
        <ele>1591.86</ele>
        <time>2018-12-23T13:51:30Z</time>
      </trkpt>
      <trkpt lat="45.64024" lon="6.80868">
        <ele>1589.67</ele>
        <time>2018-12-23T13:51:56Z</time>
      </trkpt>
      <trkpt lat="45.64019" lon="6.80861">
        <ele>1589.46</ele>
        <time>2018-12-23T13:52:17Z</time>
      </trkpt>
      <trkpt lat="45.64013" lon="6.80854">
        <ele>1589.16</ele>
        <time>2018-12-23T13:52:20Z</time>
      </trkpt>
      <trkpt lat="45.64" lon="6.80819">
        <ele>1585.62</ele>
        <time>2018-12-23T13:52:29Z</time>
      </trkpt>
      <trkpt lat="45.63996" lon="6.80792">
        <ele>1582.48</ele>
        <time>2018-12-23T13:52:35Z</time>
      </trkpt>
      <trkpt lat="45.6399" lon="6.80762">
        <ele>1579.23</ele>
        <time>2018-12-23T13:52:41Z</time>
      </trkpt>
      <trkpt lat="45.63989" lon="6.80736">
        <ele>1576.16</ele>
        <time>2018-12-23T13:52:48Z</time>
      </trkpt>
      <trkpt lat="45.63995" lon="6.80714">
        <ele>1572.91</ele>
        <time>2018-12-23T13:52:53Z</time>
      </trkpt>
      <trkpt lat="45.63995" lon="6.80695">
        <ele>1568.99</ele>
        <time>2018-12-23T13:52:59Z</time>
      </trkpt>
      <trkpt lat="45.63996" lon="6.80692">
        <ele>1567.72</ele>
        <time>2018-12-23T13:53:02Z</time>
      </trkpt>
      <trkpt lat="45.63995" lon="6.80687">
        <ele>1567.1</ele>
        <time>2018-12-23T13:53:07Z</time>
      </trkpt>
      <trkpt lat="45.63991" lon="6.80681">
        <ele>1566.84</ele>
        <time>2018-12-23T13:53:09Z</time>
      </trkpt>
      <trkpt lat="45.63985" lon="6.80665">
        <ele>1565.89</ele>
        <time>2018-12-23T13:53:11Z</time>
      </trkpt>
      <trkpt lat="45.63983" lon="6.80658">
        <ele>1564.93</ele>
        <time>2018-12-23T13:53:12Z</time>
      </trkpt>
      <trkpt lat="45.6398" lon="6.80655">
        <ele>1563.84</ele>
        <time>2018-12-23T13:53:13Z</time>
      </trkpt>
      <trkpt lat="45.63977" lon="6.80653">
        <ele>1562.8</ele>
        <time>2018-12-23T13:53:14Z</time>
      </trkpt>
      <trkpt lat="45.63975" lon="6.80652">
        <ele>1561.82</ele>
        <time>2018-12-23T13:53:15Z</time>
      </trkpt>
      <trkpt lat="45.63972" lon="6.80651">
        <ele>1560.9</ele>
        <time>2018-12-23T13:53:16Z</time>
      </trkpt>
      <trkpt lat="45.63968" lon="6.8065">
        <ele>1560.03</ele>
        <time>2018-12-23T13:53:17Z</time>
      </trkpt>
      <trkpt lat="45.63966" lon="6.80649">
        <ele>1559.17</ele>
        <time>2018-12-23T13:53:18Z</time>
      </trkpt>
      <trkpt lat="45.63966" lon="6.80647">
        <ele>1558.3</ele>
        <time>2018-12-23T13:53:19Z</time>
      </trkpt>
      <trkpt lat="45.63965" lon="6.80644">
        <ele>1554.95</ele>
        <time>2018-12-23T13:53:24Z</time>
      </trkpt>
      <trkpt lat="45.63965" lon="6.80643">
        <ele>1553.87</ele>
        <time>2018-12-23T13:53:26Z</time>
      </trkpt>
      <trkpt lat="45.63963" lon="6.80638">
        <ele>1553.47</ele>
        <time>2018-12-23T13:53:33Z</time>
      </trkpt>
      <trkpt lat="45.63961" lon="6.80636">
        <ele>1553.49</ele>
        <time>2018-12-23T13:53:34Z</time>
      </trkpt>
      <trkpt lat="45.6396" lon="6.80635">
        <ele>1553.47</ele>
        <time>2018-12-23T13:53:35Z</time>
      </trkpt>
      <trkpt lat="45.63956" lon="6.8063">
        <ele>1553.37</ele>
        <time>2018-12-23T13:53:36Z</time>
      </trkpt>
      <trkpt lat="45.63954" lon="6.80622">
        <ele>1553.19</ele>
        <time>2018-12-23T13:53:37Z</time>
      </trkpt>
      <trkpt lat="45.63952" lon="6.80616">
        <ele>1552.89</ele>
        <time>2018-12-23T13:53:38Z</time>
      </trkpt>
      <trkpt lat="45.63951" lon="6.80613">
        <ele>1550.17</ele>
        <time>2018-12-23T13:53:42Z</time>
      </trkpt>
      <trkpt lat="45.63952" lon="6.80606">
        <ele>1547.35</ele>
        <time>2018-12-23T13:54:03Z</time>
      </trkpt>
      <trkpt lat="45.63946" lon="6.80603">
        <ele>1547.43</ele>
        <time>2018-12-23T13:54:09Z</time>
      </trkpt>
      <trkpt lat="45.63944" lon="6.806">
        <ele>1547.35</ele>
        <time>2018-12-23T13:54:10Z</time>
      </trkpt>
      <trkpt lat="45.63936" lon="6.80589">
        <ele>1547.14</ele>
        <time>2018-12-23T13:54:12Z</time>
      </trkpt>
      <trkpt lat="45.63932" lon="6.80582">
        <ele>1546.36</ele>
        <time>2018-12-23T13:54:13Z</time>
      </trkpt>
      <trkpt lat="45.63918" lon="6.80554">
        <ele>1542.76</ele>
        <time>2018-12-23T13:54:17Z</time>
      </trkpt>
      <trkpt lat="45.63909" lon="6.80538">
        <ele>1539.72</ele>
        <time>2018-12-23T13:54:20Z</time>
      </trkpt>
      <trkpt lat="45.63903" lon="6.80525">
        <ele>1536.76</ele>
        <time>2018-12-23T13:54:24Z</time>
      </trkpt>
      <trkpt lat="45.639" lon="6.8051">
        <ele>1534.66</ele>
        <time>2018-12-23T13:54:30Z</time>
      </trkpt>
      <trkpt lat="45.639" lon="6.80509">
        <ele>1533.59</ele>
        <time>2018-12-23T13:54:33Z</time>
      </trkpt>
      <trkpt lat="45.63903" lon="6.80502">
        <ele>1533.01</ele>
        <time>2018-12-23T13:54:35Z</time>
      </trkpt>
      <trkpt lat="45.63905" lon="6.80497">
        <ele>1532.42</ele>
        <time>2018-12-23T13:54:36Z</time>
      </trkpt>
      <trkpt lat="45.63907" lon="6.80491">
        <ele>1532.04</ele>
        <time>2018-12-23T13:54:37Z</time>
      </trkpt>
      <trkpt lat="45.63908" lon="6.80485">
        <ele>1531.46</ele>
        <time>2018-12-23T13:54:38Z</time>
      </trkpt>
      <trkpt lat="45.63908" lon="6.80479">
        <ele>1530.72</ele>
        <time>2018-12-23T13:54:39Z</time>
      </trkpt>
      <trkpt lat="45.63908" lon="6.80474">
        <ele>1529.97</ele>
        <time>2018-12-23T13:54:40Z</time>
      </trkpt>
      <trkpt lat="45.63907" lon="6.8047">
        <ele>1529.26</ele>
        <time>2018-12-23T13:54:41Z</time>
      </trkpt>
      <trkpt lat="45.63906" lon="6.80469">
        <ele>1528.61</ele>
        <time>2018-12-23T13:54:42Z</time>
      </trkpt>
      <trkpt lat="45.63906" lon="6.80465">
        <ele>1526.45</ele>
        <time>2018-12-23T13:54:52Z</time>
      </trkpt>
      <trkpt lat="45.63906" lon="6.80463">
        <ele>1526.42</ele>
        <time>2018-12-23T13:54:53Z</time>
      </trkpt>
      <trkpt lat="45.63906" lon="6.8046">
        <ele>1526.36</ele>
        <time>2018-12-23T13:54:55Z</time>
      </trkpt>
      <trkpt lat="45.63905" lon="6.80459">
        <ele>1526.33</ele>
        <time>2018-12-23T13:54:56Z</time>
      </trkpt>
      <trkpt lat="45.63899" lon="6.80448">
        <ele>1526.04</ele>
        <time>2018-12-23T13:55:07Z</time>
      </trkpt>
      <trkpt lat="45.63893" lon="6.80445">
        <ele>1525.84</ele>
        <time>2018-12-23T13:55:11Z</time>
      </trkpt>
      <trkpt lat="45.63892" lon="6.80444">
        <ele>1525.72</ele>
        <time>2018-12-23T13:55:12Z</time>
      </trkpt>
      <trkpt lat="45.63889" lon="6.80442">
        <ele>1525.58</ele>
        <time>2018-12-23T13:55:13Z</time>
      </trkpt>
      <trkpt lat="45.63888" lon="6.8044">
        <ele>1525.45</ele>
        <time>2018-12-23T13:55:14Z</time>
      </trkpt>
      <trkpt lat="45.63886" lon="6.80438">
        <ele>1525.34</ele>
        <time>2018-12-23T13:55:15Z</time>
      </trkpt>
      <trkpt lat="45.63884" lon="6.80437">
        <ele>1525.24</ele>
        <time>2018-12-23T13:55:16Z</time>
      </trkpt>
      <trkpt lat="45.63883" lon="6.80436">
        <ele>1525.15</ele>
        <time>2018-12-23T13:55:17Z</time>
      </trkpt>
      <trkpt lat="45.63882" lon="6.80435">
        <ele>1525.11</ele>
        <time>2018-12-23T13:55:18Z</time>
      </trkpt>
      <trkpt lat="45.6388" lon="6.80434">
        <ele>1525.07</ele>
        <time>2018-12-23T13:55:19Z</time>
      </trkpt>
      <trkpt lat="45.63879" lon="6.80433">
        <ele>1525.04</ele>
        <time>2018-12-23T13:55:20Z</time>
      </trkpt>
      <trkpt lat="45.63878" lon="6.80433">
        <ele>1525.01</ele>
        <time>2018-12-23T13:55:21Z</time>
      </trkpt>
      <trkpt lat="45.63876" lon="6.80431">
        <ele>1524.98</ele>
        <time>2018-12-23T13:55:22Z</time>
      </trkpt>
      <trkpt lat="45.63873" lon="6.8043">
        <ele>1524.97</ele>
        <time>2018-12-23T13:55:23Z</time>
      </trkpt>
      <trkpt lat="45.63871" lon="6.80429">
        <ele>1524.93</ele>
        <time>2018-12-23T13:55:24Z</time>
      </trkpt>
      <trkpt lat="45.63869" lon="6.80429">
        <ele>1524.8</ele>
        <time>2018-12-23T13:55:25Z</time>
      </trkpt>
      <trkpt lat="45.63867" lon="6.80428">
        <ele>1524.8</ele>
        <time>2018-12-23T13:55:26Z</time>
      </trkpt>
      <trkpt lat="45.63849" lon="6.80422">
        <ele>1523.06</ele>
        <time>2018-12-23T13:55:33Z</time>
      </trkpt>
      <trkpt lat="45.63836" lon="6.80415">
        <ele>1520.92</ele>
        <time>2018-12-23T13:55:38Z</time>
      </trkpt>
      <trkpt lat="45.63831" lon="6.80406">
        <ele>1519.12</ele>
        <time>2018-12-23T13:55:40Z</time>
      </trkpt>
      <trkpt lat="45.63824" lon="6.80392">
        <ele>1515.92</ele>
        <time>2018-12-23T13:55:44Z</time>
      </trkpt>
      <trkpt lat="45.63823" lon="6.80387">
        <ele>1512.62</ele>
        <time>2018-12-23T13:55:50Z</time>
      </trkpt>
      <trkpt lat="45.63823" lon="6.80383">
        <ele>1511.09</ele>
        <time>2018-12-23T13:56:08Z</time>
      </trkpt>
      <trkpt lat="45.63828" lon="6.8038">
        <ele>1511.13</ele>
        <time>2018-12-23T13:56:18Z</time>
      </trkpt>
      <trkpt lat="45.63827" lon="6.80374">
        <ele>1510.42</ele>
        <time>2018-12-23T13:56:28Z</time>
      </trkpt>
      <trkpt lat="45.63825" lon="6.80374">
        <ele>1510.38</ele>
        <time>2018-12-23T13:56:30Z</time>
      </trkpt>
      <trkpt lat="45.63821" lon="6.8036">
        <ele>1510.33</ele>
        <time>2018-12-23T13:56:34Z</time>
      </trkpt>
      <trkpt lat="45.6382" lon="6.80348">
        <ele>1509.91</ele>
        <time>2018-12-23T13:56:36Z</time>
      </trkpt>
      <trkpt lat="45.63809" lon="6.80337">
        <ele>1505.94</ele>
        <time>2018-12-23T13:56:40Z</time>
      </trkpt>
      <trkpt lat="45.63802" lon="6.8032">
        <ele>1502.29</ele>
        <time>2018-12-23T13:56:44Z</time>
      </trkpt>
      <trkpt lat="45.63791" lon="6.80318">
        <ele>1498.55</ele>
        <time>2018-12-23T13:56:48Z</time>
      </trkpt>
      <trkpt lat="45.63777" lon="6.80311">
        <ele>1494.48</ele>
        <time>2018-12-23T13:56:52Z</time>
      </trkpt>
      <trkpt lat="45.63768" lon="6.80321">
        <ele>1491.24</ele>
        <time>2018-12-23T13:56:55Z</time>
      </trkpt>
      <trkpt lat="45.63765" lon="6.80328">
        <ele>1489.08</ele>
        <time>2018-12-23T13:56:57Z</time>
      </trkpt>
      <trkpt lat="45.6376" lon="6.80337">
        <ele>1486.35</ele>
        <time>2018-12-23T13:57:00Z</time>
      </trkpt>
      <trkpt lat="45.6375" lon="6.80336">
        <ele>1482.47</ele>
        <time>2018-12-23T13:57:05Z</time>
      </trkpt>
      <trkpt lat="45.63746" lon="6.80315">
        <ele>1479.23</ele>
        <time>2018-12-23T13:57:09Z</time>
      </trkpt>
      <trkpt lat="45.6374" lon="6.80299">
        <ele>1475.87</ele>
        <time>2018-12-23T13:57:13Z</time>
      </trkpt>
      <trkpt lat="45.63728" lon="6.80296">
        <ele>1472.28</ele>
        <time>2018-12-23T13:57:17Z</time>
      </trkpt>
      <trkpt lat="45.63727" lon="6.80301">
        <ele>1468.46</ele>
        <time>2018-12-23T13:57:20Z</time>
      </trkpt>
      <trkpt lat="45.63726" lon="6.80302">
        <ele>1465.01</ele>
        <time>2018-12-23T13:57:24Z</time>
      </trkpt>
      <trkpt lat="45.63713" lon="6.80296">
        <ele>1461.99</ele>
        <time>2018-12-23T13:57:29Z</time>
      </trkpt>
      <trkpt lat="45.63698" lon="6.80265">
        <ele>1455.09</ele>
        <time>2018-12-23T13:57:34Z</time>
      </trkpt>
      <trkpt lat="45.63694" lon="6.80251">
        <ele>1451.27</ele>
        <time>2018-12-23T13:57:37Z</time>
      </trkpt>
      <trkpt lat="45.63688" lon="6.80235">
        <ele>1448.16</ele>
        <time>2018-12-23T13:57:41Z</time>
      </trkpt>
      <trkpt lat="45.63678" lon="6.80213">
        <ele>1444.6</ele>
        <time>2018-12-23T13:57:47Z</time>
      </trkpt>
      <trkpt lat="45.6367" lon="6.80193">
        <ele>1441.55</ele>
        <time>2018-12-23T13:57:52Z</time>
      </trkpt>
      <trkpt lat="45.63662" lon="6.80172">
        <ele>1438.21</ele>
        <time>2018-12-23T13:57:57Z</time>
      </trkpt>
      <trkpt lat="45.6366" lon="6.80168">
        <ele>1437.63</ele>
        <time>2018-12-23T13:57:58Z</time>
      </trkpt>
      <trkpt lat="45.63652" lon="6.80142">
        <ele>1433.69</ele>
        <time>2018-12-23T13:58:05Z</time>
      </trkpt>
      <trkpt lat="45.63648" lon="6.80131">
        <ele>1432.59</ele>
        <time>2018-12-23T13:58:07Z</time>
      </trkpt>
      <trkpt lat="45.63636" lon="6.80095">
        <ele>1427.66</ele>
        <time>2018-12-23T13:58:13Z</time>
      </trkpt>
      <trkpt lat="45.63633" lon="6.80089">
        <ele>1427.66</ele>
        <time>2018-12-23T13:58:14Z</time>
      </trkpt>
      <trkpt lat="45.63621" lon="6.8007">
        <ele>1423.85</ele>
        <time>2018-12-23T13:58:19Z</time>
      </trkpt>
      <trkpt lat="45.63605" lon="6.80055">
        <ele>1420.64</ele>
        <time>2018-12-23T13:58:25Z</time>
      </trkpt>
      <trkpt lat="45.63602" lon="6.80056">
        <ele>1418.47</ele>
        <time>2018-12-23T13:58:28Z</time>
      </trkpt>
      <trkpt lat="45.636" lon="6.80058">
        <ele>1415.42</ele>
        <time>2018-12-23T13:58:34Z</time>
      </trkpt>
      <trkpt lat="45.63601" lon="6.80055">
        <ele>1413.32</ele>
        <time>2018-12-23T13:58:52Z</time>
      </trkpt>
      <trkpt lat="45.63599" lon="6.80056">
        <ele>1413.38</ele>
        <time>2018-12-23T13:59:11Z</time>
      </trkpt>
      <trkpt lat="45.63598" lon="6.80057">
        <ele>1413.36</ele>
        <time>2018-12-23T13:59:29Z</time>
      </trkpt>
      <trkpt lat="45.63588" lon="6.80059">
        <ele>1412.8</ele>
        <time>2018-12-23T13:59:41Z</time>
      </trkpt>
      <trkpt lat="45.63585" lon="6.80062">
        <ele>1412.16</ele>
        <time>2018-12-23T13:59:54Z</time>
      </trkpt>
      <trkpt lat="45.63586" lon="6.80063">
        <ele>1412.26</ele>
        <time>2018-12-23T14:00:14Z</time>
      </trkpt>
      <trkpt lat="45.63584" lon="6.80064">
        <ele>1412.04</ele>
        <time>2018-12-23T14:00:29Z</time>
      </trkpt>
      <trkpt lat="45.63584" lon="6.80066">
        <ele>1411.45</ele>
        <time>2018-12-23T14:00:45Z</time>
      </trkpt>
      <trkpt lat="45.63586" lon="6.80063">
        <ele>1406.64</ele>
        <time>2018-12-23T14:01:01Z</time>
      </trkpt>
    </trkseg>
  </trk>
</gpx>